<?xml version='1.0' encoding='UTF-8'?><gpx version="1.1" creator="JPX - https://github.com/jenetics/jpx" xmlns="http://www.topografix.com/GPX/1/1"><trk><trkseg><trkpt lat="44.924055" lon="10.529655"><ele>28.6</ele><time>2026-04-04T11:57:31.404Z</time></trkpt><trkpt lat="44.9240333" lon="10.5295567"><ele>28.2</ele><time>2026-04-04T11:57:34.404Z</time></trkpt><trkpt lat="44.92402" lon="10.5294083"><ele>27.800000000000004</ele><time>2026-04-04T11:57:36.405Z</time></trkpt><trkpt lat="44.92402" lon="10.5292917"><ele>27.400000000000002</ele><time>2026-04-04T11:57:37.404Z</time></trkpt><trkpt lat="44.9240367" lon="10.5291517"><ele>27.0</ele><time>2026-04-04T11:57:38.406Z</time></trkpt><trkpt lat="44.92406" lon="10.5289817"><ele>27.0</ele><time>2026-04-04T11:57:39.406Z</time></trkpt><trkpt lat="44.9240867" lon="10.52879"><ele>27.0</ele><time>2026-04-04T11:57:40.405Z</time></trkpt><trkpt lat="44.92411" lon="10.5285833"><ele>27.0</ele><time>2026-04-04T11:57:41.405Z</time></trkpt><trkpt lat="44.924125" lon="10.52837"><ele>27.0</ele><time>2026-04-04T11:57:42.406Z</time></trkpt><trkpt lat="44.9241333" lon="10.5281533"><ele>26.0</ele><time>2026-04-04T11:57:43.404Z</time></trkpt><trkpt lat="44.92414" lon="10.527935"><ele>25.0</ele><time>2026-04-04T11:57:44.403Z</time></trkpt><trkpt lat="44.9241383" lon="10.5277167"><ele>24.0</ele><time>2026-04-04T11:57:45.405Z</time></trkpt><trkpt lat="44.92412" lon="10.52728"><ele>24.666666666666664</ele><time>2026-04-04T11:57:47.404Z</time></trkpt><trkpt lat="44.9241017" lon="10.5270583"><ele>25.333333333333332</ele><time>2026-04-04T11:57:48.404Z</time></trkpt><trkpt lat="44.9240767" lon="10.5268383"><ele>26.0</ele><time>2026-04-04T11:57:49.407Z</time></trkpt><trkpt lat="44.9240517" lon="10.5266167"><ele>26.0</ele><time>2026-04-04T11:57:50.404Z</time></trkpt><trkpt lat="44.9240233" lon="10.526405"><ele>26.0</ele><time>2026-04-04T11:57:51.405Z</time></trkpt><trkpt lat="44.9239933" lon="10.5261967"><ele>26.0</ele><time>2026-04-04T11:57:52.404Z</time></trkpt><trkpt lat="44.9239633" lon="10.5259933"><ele>26.25</ele><time>2026-04-04T11:57:53.406Z</time></trkpt><trkpt lat="44.92393" lon="10.5258"><ele>26.5</ele><time>2026-04-04T11:57:54.405Z</time></trkpt><trkpt lat="44.923905" lon="10.5256133"><ele>26.75</ele><time>2026-04-04T11:57:55.403Z</time></trkpt><trkpt lat="44.9238783" lon="10.52543"><ele>27.0</ele><time>2026-04-04T11:57:56.404Z</time></trkpt><trkpt lat="44.9238517" lon="10.5252483"><ele>26.25</ele><time>2026-04-04T11:57:57.405Z</time></trkpt><trkpt lat="44.92383" lon="10.5250817"><ele>25.5</ele><time>2026-04-04T11:57:58.403Z</time></trkpt><trkpt lat="44.9238067" lon="10.52491"><ele>24.75</ele><time>2026-04-04T11:57:59.405Z</time></trkpt><trkpt lat="44.923785" lon="10.5247567"><ele>24.0</ele><time>2026-04-04T11:58:00.405Z</time></trkpt><trkpt lat="44.9237633" lon="10.5246133"><ele>24.4</ele><time>2026-04-04T11:58:01.404Z</time></trkpt><trkpt lat="44.9237433" lon="10.5244783"><ele>24.799999999999997</ele><time>2026-04-04T11:58:02.404Z</time></trkpt><trkpt lat="44.923725" lon="10.5243567"><ele>25.200000000000003</ele><time>2026-04-04T11:58:03.405Z</time></trkpt><trkpt lat="44.9237067" lon="10.5242467"><ele>25.6</ele><time>2026-04-04T11:58:04.403Z</time></trkpt><trkpt lat="44.9236883" lon="10.5241517"><ele>26.0</ele><time>2026-04-04T11:58:05.405Z</time></trkpt><trkpt lat="44.9236617" lon="10.52399"><ele>25.999999999999996</ele><time>2026-04-04T11:58:07.405Z</time></trkpt><trkpt lat="44.9236433" lon="10.523855"><ele>26.0</ele><time>2026-04-04T11:58:09.405Z</time></trkpt><trkpt lat="44.923625" lon="10.52375"><ele>26.0</ele><time>2026-04-04T11:58:11.404Z</time></trkpt><trkpt lat="44.9236117" lon="10.52366"><ele>26.0</ele><time>2026-04-04T11:58:13.404Z</time></trkpt><trkpt lat="44.9235917" lon="10.52355"><ele>25.999999999999996</ele><time>2026-04-04T11:58:16.404Z</time></trkpt><trkpt lat="44.923585" lon="10.52346"><ele>26.0</ele><time>2026-04-04T11:58:42.403Z</time></trkpt><trkpt lat="44.92354" lon="10.52335"><ele>26.0</ele><time>2026-04-04T11:58:44.404Z</time></trkpt><trkpt lat="44.92346" lon="10.5233117"><ele>26.0</ele><time>2026-04-04T11:58:46.405Z</time></trkpt><trkpt lat="44.9233517" lon="10.523435"><ele>26.0</ele><time>2026-04-04T11:58:48.407Z</time></trkpt><trkpt lat="44.9232883" lon="10.52355"><ele>26.0</ele><time>2026-04-04T11:58:49.405Z</time></trkpt><trkpt lat="44.923225" lon="10.5236767"><ele>26.0</ele><time>2026-04-04T11:58:50.407Z</time></trkpt><trkpt lat="44.923155" lon="10.52381"><ele>26.0</ele><time>2026-04-04T11:58:51.405Z</time></trkpt><trkpt lat="44.9230883" lon="10.5239583"><ele>26.0</ele><time>2026-04-04T11:58:52.403Z</time></trkpt><trkpt lat="44.9230133" lon="10.5241167"><ele>26.0</ele><time>2026-04-04T11:58:53.404Z</time></trkpt><trkpt lat="44.9229417" lon="10.52428"><ele>26.0</ele><time>2026-04-04T11:58:54.404Z</time></trkpt><trkpt lat="44.9228683" lon="10.5244333"><ele>26.25</ele><time>2026-04-04T11:58:55.404Z</time></trkpt><trkpt lat="44.9227967" lon="10.5245817"><ele>26.5</ele><time>2026-04-04T11:58:56.404Z</time></trkpt><trkpt lat="44.922735" lon="10.52472"><ele>26.75</ele><time>2026-04-04T11:58:57.404Z</time></trkpt><trkpt lat="44.9226767" lon="10.5248517"><ele>27.0</ele><time>2026-04-04T11:58:58.403Z</time></trkpt><trkpt lat="44.92261" lon="10.5249933"><ele>27.25</ele><time>2026-04-04T11:58:59.404Z</time></trkpt><trkpt lat="44.9225417" lon="10.5251433"><ele>27.5</ele><time>2026-04-04T11:59:00.405Z</time></trkpt><trkpt lat="44.9224683" lon="10.525305"><ele>27.75</ele><time>2026-04-04T11:59:01.404Z</time></trkpt><trkpt lat="44.9223933" lon="10.5254717"><ele>28.0</ele><time>2026-04-04T11:59:02.404Z</time></trkpt><trkpt lat="44.9223167" lon="10.5256417"><ele>27.5</ele><time>2026-04-04T11:59:03.406Z</time></trkpt><trkpt lat="44.9222383" lon="10.525815"><ele>27.0</ele><time>2026-04-04T11:59:04.404Z</time></trkpt><trkpt lat="44.9221567" lon="10.525995"><ele>26.5</ele><time>2026-04-04T11:59:05.405Z</time></trkpt><trkpt lat="44.9220767" lon="10.5261767"><ele>26.0</ele><time>2026-04-04T11:59:06.406Z</time></trkpt><trkpt lat="44.922" lon="10.526355"><ele>26.0</ele><time>2026-04-04T11:59:07.404Z</time></trkpt><trkpt lat="44.92193" lon="10.5265283"><ele>26.0</ele><time>2026-04-04T11:59:08.404Z</time></trkpt><trkpt lat="44.9218633" lon="10.5266967"><ele>26.0</ele><time>2026-04-04T11:59:09.405Z</time></trkpt><trkpt lat="44.9217983" lon="10.5268533"><ele>26.0</ele><time>2026-04-04T11:59:10.404Z</time></trkpt><trkpt lat="44.9217333" lon="10.5270033"><ele>26.4</ele><time>2026-04-04T11:59:11.404Z</time></trkpt><trkpt lat="44.92167" lon="10.5271433"><ele>26.8</ele><time>2026-04-04T11:59:12.407Z</time></trkpt><trkpt lat="44.9216117" lon="10.52728"><ele>27.199999999999996</ele><time>2026-04-04T11:59:13.404Z</time></trkpt><trkpt lat="44.9215567" lon="10.52741"><ele>27.599999999999998</ele><time>2026-04-04T11:59:14.403Z</time></trkpt><trkpt lat="44.9215033" lon="10.5275367"><ele>28.0</ele><time>2026-04-04T11:59:15.405Z</time></trkpt><trkpt lat="44.92145" lon="10.5276683"><ele>28.0</ele><time>2026-04-04T11:59:16.403Z</time></trkpt><trkpt lat="44.9213917" lon="10.527805"><ele>28.0</ele><time>2026-04-04T11:59:17.405Z</time></trkpt><trkpt lat="44.9213333" lon="10.5279483"><ele>28.0</ele><time>2026-04-04T11:59:18.405Z</time></trkpt><trkpt lat="44.9212717" lon="10.5281"><ele>28.0</ele><time>2026-04-04T11:59:19.403Z</time></trkpt><trkpt lat="44.9212067" lon="10.5282583"><ele>27.0</ele><time>2026-04-04T11:59:20.405Z</time></trkpt><trkpt lat="44.92114" lon="10.52842"><ele>26.0</ele><time>2026-04-04T11:59:21.404Z</time></trkpt><trkpt lat="44.921075" lon="10.5285833"><ele>25.0</ele><time>2026-04-04T11:59:22.405Z</time></trkpt><trkpt lat="44.9210083" lon="10.5287433"><ele>24.0</ele><time>2026-04-04T11:59:23.404Z</time></trkpt><trkpt lat="44.9209433" lon="10.5289067"><ele>25.0</ele><time>2026-04-04T11:59:24.405Z</time></trkpt><trkpt lat="44.92088" lon="10.5290667"><ele>26.0</ele><time>2026-04-04T11:59:25.403Z</time></trkpt><trkpt lat="44.920815" lon="10.5292317"><ele>27.0</ele><time>2026-04-04T11:59:26.404Z</time></trkpt><trkpt lat="44.9207517" lon="10.529395"><ele>28.0</ele><time>2026-04-04T11:59:27.405Z</time></trkpt><trkpt lat="44.920685" lon="10.5295617"><ele>28.0</ele><time>2026-04-04T11:59:28.405Z</time></trkpt><trkpt lat="44.9206183" lon="10.5297317"><ele>28.0</ele><time>2026-04-04T11:59:29.404Z</time></trkpt><trkpt lat="44.9205533" lon="10.5299017"><ele>28.0</ele><time>2026-04-04T11:59:30.404Z</time></trkpt><trkpt lat="44.9204867" lon="10.53007"><ele>28.0</ele><time>2026-04-04T11:59:31.405Z</time></trkpt><trkpt lat="44.9204133" lon="10.530235"><ele>27.5</ele><time>2026-04-04T11:59:32.404Z</time></trkpt><trkpt lat="44.9203417" lon="10.5304"><ele>27.0</ele><time>2026-04-04T11:59:33.405Z</time></trkpt><trkpt lat="44.9202667" lon="10.5305733"><ele>26.5</ele><time>2026-04-04T11:59:34.404Z</time></trkpt><trkpt lat="44.9201967" lon="10.5307567"><ele>26.0</ele><time>2026-04-04T11:59:35.404Z</time></trkpt><trkpt lat="44.9201217" lon="10.5309417"><ele>26.0</ele><time>2026-04-04T11:59:36.404Z</time></trkpt><trkpt lat="44.9200517" lon="10.5311367"><ele>26.0</ele><time>2026-04-04T11:59:37.404Z</time></trkpt><trkpt lat="44.9199783" lon="10.5313217"><ele>26.0</ele><time>2026-04-04T11:59:38.406Z</time></trkpt><trkpt lat="44.9199083" lon="10.5315033"><ele>26.0</ele><time>2026-04-04T11:59:39.406Z</time></trkpt><trkpt lat="44.919835" lon="10.531675"><ele>26.0</ele><time>2026-04-04T11:59:40.404Z</time></trkpt><trkpt lat="44.9197633" lon="10.53184"><ele>26.0</ele><time>2026-04-04T11:59:41.405Z</time></trkpt><trkpt lat="44.9196933" lon="10.5319967"><ele>26.0</ele><time>2026-04-04T11:59:42.403Z</time></trkpt><trkpt lat="44.9196133" lon="10.5321417"><ele>26.5</ele><time>2026-04-04T11:59:43.403Z</time></trkpt><trkpt lat="44.9195283" lon="10.5322733"><ele>27.0</ele><time>2026-04-04T11:59:44.405Z</time></trkpt><trkpt lat="44.91944" lon="10.5324133"><ele>27.5</ele><time>2026-04-04T11:59:45.406Z</time></trkpt><trkpt lat="44.9193483" lon="10.5325483"><ele>28.0</ele><time>2026-04-04T11:59:46.404Z</time></trkpt><trkpt lat="44.9192533" lon="10.532675"><ele>27.75</ele><time>2026-04-04T11:59:47.405Z</time></trkpt><trkpt lat="44.9191517" lon="10.5328033"><ele>27.5</ele><time>2026-04-04T11:59:48.404Z</time></trkpt><trkpt lat="44.919045" lon="10.5329267"><ele>27.25</ele><time>2026-04-04T11:59:49.406Z</time></trkpt><trkpt lat="44.9189367" lon="10.533045"><ele>27.0</ele><time>2026-04-04T11:59:50.405Z</time></trkpt><trkpt lat="44.918835" lon="10.5331483"><ele>26.5</ele><time>2026-04-04T11:59:51.407Z</time></trkpt><trkpt lat="44.91873" lon="10.5332483"><ele>26.0</ele><time>2026-04-04T11:59:52.403Z</time></trkpt><trkpt lat="44.9186267" lon="10.5333367"><ele>25.5</ele><time>2026-04-04T11:59:53.405Z</time></trkpt><trkpt lat="44.91852" lon="10.533415"><ele>25.0</ele><time>2026-04-04T11:59:54.405Z</time></trkpt><trkpt lat="44.918405" lon="10.5334967"><ele>25.25</ele><time>2026-04-04T11:59:55.405Z</time></trkpt><trkpt lat="44.9182933" lon="10.5335733"><ele>25.5</ele><time>2026-04-04T11:59:56.405Z</time></trkpt><trkpt lat="44.9181783" lon="10.5336467"><ele>25.75</ele><time>2026-04-04T11:59:57.405Z</time></trkpt><trkpt lat="44.918055" lon="10.53372"><ele>26.0</ele><time>2026-04-04T11:59:58.404Z</time></trkpt><trkpt lat="44.9179267" lon="10.5337867"><ele>25.5</ele><time>2026-04-04T11:59:59.404Z</time></trkpt><trkpt lat="44.917795" lon="10.533845"><ele>25.0</ele><time>2026-04-04T12:00:00.404Z</time></trkpt><trkpt lat="44.9176683" lon="10.5338983"><ele>24.5</ele><time>2026-04-04T12:00:01.405Z</time></trkpt><trkpt lat="44.917545" lon="10.533955"><ele>24.0</ele><time>2026-04-04T12:00:02.405Z</time></trkpt><trkpt lat="44.9174317" lon="10.5340117"><ele>24.0</ele><time>2026-04-04T12:00:03.405Z</time></trkpt><trkpt lat="44.917315" lon="10.53406"><ele>24.0</ele><time>2026-04-04T12:00:04.405Z</time></trkpt><trkpt lat="44.9172017" lon="10.5341133"><ele>24.0</ele><time>2026-04-04T12:00:05.404Z</time></trkpt><trkpt lat="44.9170867" lon="10.5341633"><ele>24.0</ele><time>2026-04-04T12:00:06.404Z</time></trkpt><trkpt lat="44.9169683" lon="10.5342117"><ele>24.0</ele><time>2026-04-04T12:00:07.404Z</time></trkpt><trkpt lat="44.9168517" lon="10.53426"><ele>24.0</ele><time>2026-04-04T12:00:08.405Z</time></trkpt><trkpt lat="44.9167383" lon="10.5343067"><ele>24.0</ele><time>2026-04-04T12:00:09.404Z</time></trkpt><trkpt lat="44.9166317" lon="10.5343533"><ele>24.0</ele><time>2026-04-04T12:00:10.404Z</time></trkpt><trkpt lat="44.91653" lon="10.5344033"><ele>24.2</ele><time>2026-04-04T12:00:11.405Z</time></trkpt><trkpt lat="44.9164167" lon="10.5344567"><ele>24.4</ele><time>2026-04-04T12:00:12.406Z</time></trkpt><trkpt lat="44.9163133" lon="10.5345233"><ele>24.6</ele><time>2026-04-04T12:00:13.405Z</time></trkpt><trkpt lat="44.916215" lon="10.534595"><ele>24.8</ele><time>2026-04-04T12:00:14.404Z</time></trkpt><trkpt lat="44.916125" lon="10.53467"><ele>25.0</ele><time>2026-04-04T12:00:15.405Z</time></trkpt><trkpt lat="44.9160467" lon="10.5347517"><ele>25.2</ele><time>2026-04-04T12:00:16.404Z</time></trkpt><trkpt lat="44.9159717" lon="10.5348433"><ele>25.4</ele><time>2026-04-04T12:00:17.404Z</time></trkpt><trkpt lat="44.9159017" lon="10.5349433"><ele>25.6</ele><time>2026-04-04T12:00:18.405Z</time></trkpt><trkpt lat="44.9158317" lon="10.5350417"><ele>25.8</ele><time>2026-04-04T12:00:19.404Z</time></trkpt><trkpt lat="44.91576" lon="10.535145"><ele>26.0</ele><time>2026-04-04T12:00:20.406Z</time></trkpt><trkpt lat="44.915685" lon="10.5352483"><ele>26.200000000000003</ele><time>2026-04-04T12:00:21.404Z</time></trkpt><trkpt lat="44.9156083" lon="10.535355"><ele>26.400000000000002</ele><time>2026-04-04T12:00:22.405Z</time></trkpt><trkpt lat="44.9155283" lon="10.5354683"><ele>26.6</ele><time>2026-04-04T12:00:23.405Z</time></trkpt><trkpt lat="44.91545" lon="10.5355883"><ele>26.8</ele><time>2026-04-04T12:00:24.405Z</time></trkpt><trkpt lat="44.9153733" lon="10.5357"><ele>27.0</ele><time>2026-04-04T12:00:25.404Z</time></trkpt><trkpt lat="44.91529" lon="10.5358083"><ele>27.25</ele><time>2026-04-04T12:00:26.406Z</time></trkpt><trkpt lat="44.9152017" lon="10.5359283"><ele>27.5</ele><time>2026-04-04T12:00:27.405Z</time></trkpt><trkpt lat="44.91511" lon="10.5360567"><ele>27.75</ele><time>2026-04-04T12:00:28.404Z</time></trkpt><trkpt lat="44.9150167" lon="10.536195"><ele>28.0</ele><time>2026-04-04T12:00:29.404Z</time></trkpt><trkpt lat="44.9149217" lon="10.53633"><ele>28.75</ele><time>2026-04-04T12:00:30.405Z</time></trkpt><trkpt lat="44.9148283" lon="10.5364633"><ele>29.5</ele><time>2026-04-04T12:00:31.405Z</time></trkpt><trkpt lat="44.914735" lon="10.5365967"><ele>30.25</ele><time>2026-04-04T12:00:32.404Z</time></trkpt><trkpt lat="44.9146417" lon="10.5367333"><ele>31.0</ele><time>2026-04-04T12:00:33.405Z</time></trkpt><trkpt lat="44.9145467" lon="10.53687"><ele>31.0</ele><time>2026-04-04T12:00:34.404Z</time></trkpt><trkpt lat="44.914455" lon="10.5369983"><ele>31.0</ele><time>2026-04-04T12:00:35.405Z</time></trkpt><trkpt lat="44.9143667" lon="10.5371167"><ele>31.0</ele><time>2026-04-04T12:00:36.404Z</time></trkpt><trkpt lat="44.9142833" lon="10.53723"><ele>31.0</ele><time>2026-04-04T12:00:37.404Z</time></trkpt><trkpt lat="44.9142083" lon="10.5373383"><ele>30.666666666666668</ele><time>2026-04-04T12:00:38.404Z</time></trkpt><trkpt lat="44.9141417" lon="10.5374367"><ele>30.333333333333336</ele><time>2026-04-04T12:00:39.404Z</time></trkpt><trkpt lat="44.9140867" lon="10.5375267"><ele>30.0</ele><time>2026-04-04T12:00:40.404Z</time></trkpt><trkpt lat="44.9140467" lon="10.5375983"><ele>29.666666666666664</ele><time>2026-04-04T12:00:41.404Z</time></trkpt><trkpt lat="44.9140033" lon="10.537665"><ele>29.333333333333332</ele><time>2026-04-04T12:00:43.409Z</time></trkpt><trkpt lat="44.91394" lon="10.5377383"><ele>29.0</ele><time>2026-04-04T12:01:03.406Z</time></trkpt><trkpt lat="44.913845" lon="10.5377933"><ele>29.0</ele><time>2026-04-04T12:01:22.404Z</time></trkpt><trkpt lat="44.9137317" lon="10.5377917"><ele>29.0</ele><time>2026-04-04T12:01:59.404Z</time></trkpt><trkpt lat="44.9136633" lon="10.537865"><ele>29.0</ele><time>2026-04-04T12:02:01.404Z</time></trkpt><trkpt lat="44.9136017" lon="10.538025"><ele>29.0</ele><time>2026-04-04T12:02:03.405Z</time></trkpt><trkpt lat="44.9135883" lon="10.5381533"><ele>29.0</ele><time>2026-04-04T12:02:04.404Z</time></trkpt><trkpt lat="44.9135767" lon="10.5383"><ele>29.799999999999997</ele><time>2026-04-04T12:02:05.403Z</time></trkpt><trkpt lat="44.9135633" lon="10.5384583"><ele>30.599999999999998</ele><time>2026-04-04T12:02:06.404Z</time></trkpt><trkpt lat="44.9135517" lon="10.5386167"><ele>31.4</ele><time>2026-04-04T12:02:07.404Z</time></trkpt><trkpt lat="44.9135367" lon="10.5387683"><ele>32.199999999999996</ele><time>2026-04-04T12:02:08.405Z</time></trkpt><trkpt lat="44.9135217" lon="10.53892"><ele>33.0</ele><time>2026-04-04T12:02:09.405Z</time></trkpt><trkpt lat="44.9135067" lon="10.5390667"><ele>33.0</ele><time>2026-04-04T12:02:10.404Z</time></trkpt><trkpt lat="44.913495" lon="10.5392117"><ele>33.0</ele><time>2026-04-04T12:02:11.404Z</time></trkpt><trkpt lat="44.91348" lon="10.53936"><ele>33.0</ele><time>2026-04-04T12:02:12.404Z</time></trkpt><trkpt lat="44.9134633" lon="10.5395183"><ele>33.0</ele><time>2026-04-04T12:02:13.404Z</time></trkpt><trkpt lat="44.913445" lon="10.5396783"><ele>33.0</ele><time>2026-04-04T12:02:14.405Z</time></trkpt><trkpt lat="44.9134233" lon="10.5398417"><ele>31.25</ele><time>2026-04-04T12:02:15.403Z</time></trkpt><trkpt lat="44.9134" lon="10.540005"><ele>29.5</ele><time>2026-04-04T12:02:16.404Z</time></trkpt><trkpt lat="44.9133767" lon="10.5401633"><ele>27.75</ele><time>2026-04-04T12:02:17.403Z</time></trkpt><trkpt lat="44.9133533" lon="10.5403217"><ele>26.0</ele><time>2026-04-04T12:02:18.403Z</time></trkpt><trkpt lat="44.9133317" lon="10.54048"><ele>25.6</ele><time>2026-04-04T12:02:19.404Z</time></trkpt><trkpt lat="44.91331" lon="10.5406333"><ele>25.200000000000003</ele><time>2026-04-04T12:02:20.404Z</time></trkpt><trkpt lat="44.9132917" lon="10.5407767"><ele>24.799999999999997</ele><time>2026-04-04T12:02:21.404Z</time></trkpt><trkpt lat="44.9132733" lon="10.5409217"><ele>24.4</ele><time>2026-04-04T12:02:22.404Z</time></trkpt><trkpt lat="44.9132533" lon="10.5410633"><ele>24.0</ele><time>2026-04-04T12:02:23.404Z</time></trkpt><trkpt lat="44.913235" lon="10.5412083"><ele>24.0</ele><time>2026-04-04T12:02:24.404Z</time></trkpt><trkpt lat="44.9132167" lon="10.5413517"><ele>24.0</ele><time>2026-04-04T12:02:25.404Z</time></trkpt><trkpt lat="44.9131983" lon="10.541495"><ele>24.0</ele><time>2026-04-04T12:02:26.405Z</time></trkpt><trkpt lat="44.9131783" lon="10.5416367"><ele>24.0</ele><time>2026-04-04T12:02:27.403Z</time></trkpt><trkpt lat="44.913155" lon="10.5417817"><ele>24.0</ele><time>2026-04-04T12:02:28.404Z</time></trkpt><trkpt lat="44.9131283" lon="10.5419283"><ele>23.799999999999997</ele><time>2026-04-04T12:02:29.404Z</time></trkpt><trkpt lat="44.9131017" lon="10.5420767"><ele>23.599999999999998</ele><time>2026-04-04T12:02:30.403Z</time></trkpt><trkpt lat="44.9130733" lon="10.542225"><ele>23.4</ele><time>2026-04-04T12:02:31.403Z</time></trkpt><trkpt lat="44.9130517" lon="10.5423717"><ele>23.2</ele><time>2026-04-04T12:02:32.404Z</time></trkpt><trkpt lat="44.9130317" lon="10.5425217"><ele>23.0</ele><time>2026-04-04T12:02:33.404Z</time></trkpt><trkpt lat="44.9130083" lon="10.54267"><ele>23.0</ele><time>2026-04-04T12:02:34.404Z</time></trkpt><trkpt lat="44.91298" lon="10.5428183"><ele>23.0</ele><time>2026-04-04T12:02:35.404Z</time></trkpt><trkpt lat="44.9129517" lon="10.5429667"><ele>23.0</ele><time>2026-04-04T12:02:36.405Z</time></trkpt><trkpt lat="44.9129233" lon="10.5431133"><ele>23.0</ele><time>2026-04-04T12:02:37.404Z</time></trkpt><trkpt lat="44.912895" lon="10.5432667"><ele>23.0</ele><time>2026-04-04T12:02:38.405Z</time></trkpt><trkpt lat="44.912865" lon="10.543425"><ele>23.25</ele><time>2026-04-04T12:02:39.405Z</time></trkpt><trkpt lat="44.9128333" lon="10.5435883"><ele>23.5</ele><time>2026-04-04T12:02:40.404Z</time></trkpt><trkpt lat="44.9128017" lon="10.543755"><ele>23.75</ele><time>2026-04-04T12:02:41.404Z</time></trkpt><trkpt lat="44.912775" lon="10.543935"><ele>24.0</ele><time>2026-04-04T12:02:42.404Z</time></trkpt><trkpt lat="44.9127467" lon="10.5441233"><ele>24.5</ele><time>2026-04-04T12:02:43.404Z</time></trkpt><trkpt lat="44.9127133" lon="10.5443083"><ele>25.0</ele><time>2026-04-04T12:02:44.404Z</time></trkpt><trkpt lat="44.91268" lon="10.544485"><ele>25.5</ele><time>2026-04-04T12:02:45.404Z</time></trkpt><trkpt lat="44.9126483" lon="10.5446567"><ele>26.0</ele><time>2026-04-04T12:02:46.403Z</time></trkpt><trkpt lat="44.912615" lon="10.54483"><ele>26.75</ele><time>2026-04-04T12:02:47.404Z</time></trkpt><trkpt lat="44.91258" lon="10.5450017"><ele>27.5</ele><time>2026-04-04T12:02:48.404Z</time></trkpt><trkpt lat="44.9125467" lon="10.5451733"><ele>28.25</ele><time>2026-04-04T12:02:49.404Z</time></trkpt><trkpt lat="44.912515" lon="10.5453483"><ele>29.0</ele><time>2026-04-04T12:02:50.404Z</time></trkpt><trkpt lat="44.9124783" lon="10.545525"><ele>27.75</ele><time>2026-04-04T12:02:51.405Z</time></trkpt><trkpt lat="44.9124417" lon="10.5457067"><ele>26.5</ele><time>2026-04-04T12:02:52.404Z</time></trkpt><trkpt lat="44.9124033" lon="10.5458883"><ele>25.25</ele><time>2026-04-04T12:02:53.404Z</time></trkpt><trkpt lat="44.912365" lon="10.546065"><ele>24.0</ele><time>2026-04-04T12:02:54.404Z</time></trkpt><trkpt lat="44.91233" lon="10.5462367"><ele>24.0</ele><time>2026-04-04T12:02:55.404Z</time></trkpt><trkpt lat="44.9122967" lon="10.5463983"><ele>24.0</ele><time>2026-04-04T12:02:56.404Z</time></trkpt><trkpt lat="44.912265" lon="10.5465567"><ele>24.0</ele><time>2026-04-04T12:02:57.404Z</time></trkpt><trkpt lat="44.9122283" lon="10.5467133"><ele>24.0</ele><time>2026-04-04T12:02:58.404Z</time></trkpt><trkpt lat="44.9121933" lon="10.5468733"><ele>24.0</ele><time>2026-04-04T12:02:59.403Z</time></trkpt><trkpt lat="44.9121567" lon="10.54703"><ele>24.0</ele><time>2026-04-04T12:03:00.404Z</time></trkpt><trkpt lat="44.912125" lon="10.5471883"><ele>24.0</ele><time>2026-04-04T12:03:01.403Z</time></trkpt><trkpt lat="44.9120928" lon="10.5473481"><ele>24.0</ele><time>2026-04-04T12:03:02.404Z</time></trkpt><trkpt lat="44.9120578" lon="10.5475113"><ele>24.0</ele><time>2026-04-04T12:03:03.405Z</time></trkpt><trkpt lat="44.9120226" lon="10.547676"><ele>24.0</ele><time>2026-04-04T12:03:04.405Z</time></trkpt><trkpt lat="44.9119844" lon="10.5478418"><ele>24.0</ele><time>2026-04-04T12:03:05.405Z</time></trkpt><trkpt lat="44.911946" lon="10.5480069"><ele>24.0</ele><time>2026-04-04T12:03:06.404Z</time></trkpt><trkpt lat="44.9119071" lon="10.5481697"><ele>24.0</ele><time>2026-04-04T12:03:07.404Z</time></trkpt><trkpt lat="44.9118675" lon="10.5483326"><ele>24.0</ele><time>2026-04-04T12:03:08.405Z</time></trkpt><trkpt lat="44.9118291" lon="10.5484965"><ele>24.0</ele><time>2026-04-04T12:03:09.405Z</time></trkpt><trkpt lat="44.9117919" lon="10.5486544"><ele>24.0</ele><time>2026-04-04T12:03:10.404Z</time></trkpt><trkpt lat="44.9117552" lon="10.5488119"><ele>24.0</ele><time>2026-04-04T12:03:11.403Z</time></trkpt><trkpt lat="44.9117201" lon="10.5489719"><ele>24.0</ele><time>2026-04-04T12:03:12.405Z</time></trkpt><trkpt lat="44.9116853" lon="10.5491263"><ele>24.0</ele><time>2026-04-04T12:03:13.405Z</time></trkpt><trkpt lat="44.9116532" lon="10.5492719"><ele>24.0</ele><time>2026-04-04T12:03:14.405Z</time></trkpt><trkpt lat="44.9116288" lon="10.549414"><ele>24.0</ele><time>2026-04-04T12:03:15.405Z</time></trkpt><trkpt lat="44.9116128" lon="10.5495575"><ele>24.0</ele><time>2026-04-04T12:03:16.404Z</time></trkpt><trkpt lat="44.9116093" lon="10.5497015"><ele>24.0</ele><time>2026-04-04T12:03:17.404Z</time></trkpt><trkpt lat="44.9116217" lon="10.5498513"><ele>24.0</ele><time>2026-04-04T12:03:18.404Z</time></trkpt><trkpt lat="44.9116456" lon="10.5500084"><ele>24.0</ele><time>2026-04-04T12:03:19.403Z</time></trkpt><trkpt lat="44.9116738" lon="10.5501713"><ele>24.0</ele><time>2026-04-04T12:03:20.406Z</time></trkpt><trkpt lat="44.9117048" lon="10.5503382"><ele>24.0</ele><time>2026-04-04T12:03:21.404Z</time></trkpt><trkpt lat="44.9117387" lon="10.5505098"><ele>24.0</ele><time>2026-04-04T12:03:22.404Z</time></trkpt><trkpt lat="44.9117701" lon="10.5507001"><ele>24.0</ele><time>2026-04-04T12:03:23.406Z</time></trkpt><trkpt lat="44.9117919" lon="10.5508965"><ele>24.0</ele><time>2026-04-04T12:03:24.405Z</time></trkpt><trkpt lat="44.9118051" lon="10.5510882"><ele>24.0</ele><time>2026-04-04T12:03:25.404Z</time></trkpt><trkpt lat="44.9118005" lon="10.5512641"><ele>24.0</ele><time>2026-04-04T12:03:26.405Z</time></trkpt><trkpt lat="44.9117852" lon="10.5514265"><ele>24.0</ele><time>2026-04-04T12:03:27.405Z</time></trkpt><trkpt lat="44.9117689" lon="10.5515734"><ele>24.0</ele><time>2026-04-04T12:03:28.405Z</time></trkpt><trkpt lat="44.9117518" lon="10.5517113"><ele>24.0</ele><time>2026-04-04T12:03:29.404Z</time></trkpt><trkpt lat="44.9117339" lon="10.5518474"><ele>23.6</ele><time>2026-04-04T12:03:30.404Z</time></trkpt><trkpt lat="44.911721" lon="10.5519859"><ele>23.2</ele><time>2026-04-04T12:03:31.405Z</time></trkpt><trkpt lat="44.9117079" lon="10.5521252"><ele>22.8</ele><time>2026-04-04T12:03:32.406Z</time></trkpt><trkpt lat="44.9116949" lon="10.5522594"><ele>22.400000000000002</ele><time>2026-04-04T12:03:33.405Z</time></trkpt><trkpt lat="44.9116808" lon="10.5523949"><ele>22.0</ele><time>2026-04-04T12:03:34.404Z</time></trkpt><trkpt lat="44.9116633" lon="10.5525317"><ele>22.0</ele><time>2026-04-04T12:03:35.407Z</time></trkpt><trkpt lat="44.9116467" lon="10.5526733"><ele>22.0</ele><time>2026-04-04T12:03:36.406Z</time></trkpt><trkpt lat="44.91163" lon="10.5528183"><ele>22.0</ele><time>2026-04-04T12:03:37.404Z</time></trkpt><trkpt lat="44.9116133" lon="10.552965"><ele>22.0</ele><time>2026-04-04T12:03:38.404Z</time></trkpt><trkpt lat="44.9115967" lon="10.553115"><ele>22.0</ele><time>2026-04-04T12:03:39.405Z</time></trkpt><trkpt lat="44.91158" lon="10.5532667"><ele>21.75</ele><time>2026-04-04T12:03:40.405Z</time></trkpt><trkpt lat="44.91156" lon="10.55342"><ele>21.5</ele><time>2026-04-04T12:03:41.405Z</time></trkpt><trkpt lat="44.9115417" lon="10.5535783"><ele>21.25</ele><time>2026-04-04T12:03:42.403Z</time></trkpt><trkpt lat="44.9115233" lon="10.5537417"><ele>21.0</ele><time>2026-04-04T12:03:43.404Z</time></trkpt><trkpt lat="44.9115033" lon="10.5539083"><ele>21.5</ele><time>2026-04-04T12:03:44.405Z</time></trkpt><trkpt lat="44.911475" lon="10.5540717"><ele>22.0</ele><time>2026-04-04T12:03:45.405Z</time></trkpt><trkpt lat="44.9114467" lon="10.5542383"><ele>22.5</ele><time>2026-04-04T12:03:46.405Z</time></trkpt><trkpt lat="44.91142" lon="10.554405"><ele>23.0</ele><time>2026-04-04T12:03:47.404Z</time></trkpt><trkpt lat="44.911395" lon="10.5545717"><ele>23.25</ele><time>2026-04-04T12:03:48.405Z</time></trkpt><trkpt lat="44.911375" lon="10.55474"><ele>23.5</ele><time>2026-04-04T12:03:49.405Z</time></trkpt><trkpt lat="44.9113617" lon="10.5549117"><ele>23.75</ele><time>2026-04-04T12:03:50.405Z</time></trkpt><trkpt lat="44.9113533" lon="10.555085"><ele>24.0</ele><time>2026-04-04T12:03:51.404Z</time></trkpt><trkpt lat="44.9113517" lon="10.5552633"><ele>24.0</ele><time>2026-04-04T12:03:52.404Z</time></trkpt><trkpt lat="44.9113517" lon="10.55545"><ele>24.0</ele><time>2026-04-04T12:03:53.405Z</time></trkpt><trkpt lat="44.9113533" lon="10.55564"><ele>24.0</ele><time>2026-04-04T12:03:54.404Z</time></trkpt><trkpt lat="44.9113533" lon="10.5558217"><ele>24.0</ele><time>2026-04-04T12:03:55.405Z</time></trkpt><trkpt lat="44.911355" lon="10.5559967"><ele>24.0</ele><time>2026-04-04T12:03:56.404Z</time></trkpt><trkpt lat="44.9113533" lon="10.5561667"><ele>24.0</ele><time>2026-04-04T12:03:57.405Z</time></trkpt><trkpt lat="44.911355" lon="10.5563317"><ele>24.0</ele><time>2026-04-04T12:03:58.405Z</time></trkpt><trkpt lat="44.91136" lon="10.5564917"><ele>24.0</ele><time>2026-04-04T12:03:59.405Z</time></trkpt><trkpt lat="44.9113683" lon="10.5566483"><ele>23.5</ele><time>2026-04-04T12:04:00.405Z</time></trkpt><trkpt lat="44.91138" lon="10.5568017"><ele>23.0</ele><time>2026-04-04T12:04:01.404Z</time></trkpt><trkpt lat="44.9113983" lon="10.5569567"><ele>22.5</ele><time>2026-04-04T12:04:02.405Z</time></trkpt><trkpt lat="44.9114183" lon="10.5571183"><ele>22.0</ele><time>2026-04-04T12:04:03.405Z</time></trkpt><trkpt lat="44.9114367" lon="10.55728"><ele>22.0</ele><time>2026-04-04T12:04:04.405Z</time></trkpt><trkpt lat="44.9114533" lon="10.5574333"><ele>22.0</ele><time>2026-04-04T12:04:05.404Z</time></trkpt><trkpt lat="44.91147" lon="10.5575883"><ele>22.0</ele><time>2026-04-04T12:04:06.406Z</time></trkpt><trkpt lat="44.9114833" lon="10.5577383"><ele>22.0</ele><time>2026-04-04T12:04:07.405Z</time></trkpt><trkpt lat="44.9115" lon="10.5578933"><ele>22.0</ele><time>2026-04-04T12:04:08.405Z</time></trkpt><trkpt lat="44.9115233" lon="10.5580433"><ele>21.6</ele><time>2026-04-04T12:04:09.404Z</time></trkpt><trkpt lat="44.9115483" lon="10.5581933"><ele>21.200000000000003</ele><time>2026-04-04T12:04:10.405Z</time></trkpt><trkpt lat="44.9115667" lon="10.5583417"><ele>20.8</ele><time>2026-04-04T12:04:11.404Z</time></trkpt><trkpt lat="44.9115783" lon="10.558485"><ele>20.4</ele><time>2026-04-04T12:04:12.405Z</time></trkpt><trkpt lat="44.9115817" lon="10.5586367"><ele>20.0</ele><time>2026-04-04T12:04:13.405Z</time></trkpt><trkpt lat="44.9115817" lon="10.558795"><ele>20.0</ele><time>2026-04-04T12:04:14.405Z</time></trkpt><trkpt lat="44.911585" lon="10.5589533"><ele>20.0</ele><time>2026-04-04T12:04:15.404Z</time></trkpt><trkpt lat="44.9115933" lon="10.5591117"><ele>20.0</ele><time>2026-04-04T12:04:16.405Z</time></trkpt><trkpt lat="44.9116083" lon="10.559275"><ele>20.0</ele><time>2026-04-04T12:04:17.405Z</time></trkpt><trkpt lat="44.9116283" lon="10.5594383"><ele>20.25</ele><time>2026-04-04T12:04:18.405Z</time></trkpt><trkpt lat="44.911655" lon="10.5596017"><ele>20.5</ele><time>2026-04-04T12:04:19.405Z</time></trkpt><trkpt lat="44.9116817" lon="10.5597633"><ele>20.75</ele><time>2026-04-04T12:04:20.405Z</time></trkpt><trkpt lat="44.91171" lon="10.5599233"><ele>21.0</ele><time>2026-04-04T12:04:21.405Z</time></trkpt><trkpt lat="44.91174" lon="10.56008"><ele>22.0</ele><time>2026-04-04T12:04:22.405Z</time></trkpt><trkpt lat="44.9117717" lon="10.560235"><ele>23.0</ele><time>2026-04-04T12:04:23.405Z</time></trkpt><trkpt lat="44.911805" lon="10.56039"><ele>24.0</ele><time>2026-04-04T12:04:24.406Z</time></trkpt><trkpt lat="44.9118395" lon="10.5605438"><ele>25.0</ele><time>2026-04-04T12:04:25.405Z</time></trkpt><trkpt lat="44.911878" lon="10.5606871"><ele>25.0</ele><time>2026-04-04T12:04:26.405Z</time></trkpt><trkpt lat="44.9119217" lon="10.5608246"><ele>25.0</ele><time>2026-04-04T12:04:27.406Z</time></trkpt><trkpt lat="44.9119656" lon="10.5609625"><ele>25.0</ele><time>2026-04-04T12:04:28.404Z</time></trkpt><trkpt lat="44.9120059" lon="10.5610982"><ele>25.0</ele><time>2026-04-04T12:04:29.404Z</time></trkpt><trkpt lat="44.9120413" lon="10.5612248"><ele>25.0</ele><time>2026-04-04T12:04:30.405Z</time></trkpt><trkpt lat="44.912067" lon="10.5613359"><ele>25.000000000000004</ele><time>2026-04-04T12:04:31.405Z</time></trkpt><trkpt lat="44.912086" lon="10.5614466"><ele>25.0</ele><time>2026-04-04T12:04:32.405Z</time></trkpt><trkpt lat="44.9121002" lon="10.5615579"><ele>25.0</ele><time>2026-04-04T12:04:33.405Z</time></trkpt><trkpt lat="44.912115" lon="10.5616687"><ele>25.0</ele><time>2026-04-04T12:04:34.405Z</time></trkpt><trkpt lat="44.9121225" lon="10.561783"><ele>25.000000000000004</ele><time>2026-04-04T12:04:35.404Z</time></trkpt><trkpt lat="44.9121259" lon="10.5619038"><ele>25.0</ele><time>2026-04-04T12:04:36.406Z</time></trkpt><trkpt lat="44.9121311" lon="10.5620317"><ele>25.2</ele><time>2026-04-04T12:04:37.405Z</time></trkpt><trkpt lat="44.912136" lon="10.5621642"><ele>25.4</ele><time>2026-04-04T12:04:38.405Z</time></trkpt><trkpt lat="44.9121424" lon="10.5622976"><ele>25.6</ele><time>2026-04-04T12:04:39.405Z</time></trkpt><trkpt lat="44.9121514" lon="10.5624315"><ele>25.8</ele><time>2026-04-04T12:04:40.405Z</time></trkpt><trkpt lat="44.912158" lon="10.5625625"><ele>26.0</ele><time>2026-04-04T12:04:41.403Z</time></trkpt><trkpt lat="44.912163" lon="10.5626921"><ele>26.0</ele><time>2026-04-04T12:04:42.405Z</time></trkpt><trkpt lat="44.9121644" lon="10.5628191"><ele>26.0</ele><time>2026-04-04T12:04:43.404Z</time></trkpt><trkpt lat="44.912167" lon="10.5629455"><ele>26.0</ele><time>2026-04-04T12:04:44.404Z</time></trkpt><trkpt lat="44.912174" lon="10.5630731"><ele>26.0</ele><time>2026-04-04T12:04:45.405Z</time></trkpt><trkpt lat="44.912184" lon="10.5632015"><ele>26.0</ele><time>2026-04-04T12:04:46.405Z</time></trkpt><trkpt lat="44.9121946" lon="10.5633297"><ele>25.8</ele><time>2026-04-04T12:04:47.406Z</time></trkpt><trkpt lat="44.912208" lon="10.5634598"><ele>25.6</ele><time>2026-04-04T12:04:48.404Z</time></trkpt><trkpt lat="44.9122216" lon="10.5635902"><ele>25.4</ele><time>2026-04-04T12:04:49.405Z</time></trkpt><trkpt lat="44.9122393" lon="10.5637204"><ele>25.2</ele><time>2026-04-04T12:04:50.404Z</time></trkpt><trkpt lat="44.9122608" lon="10.563849"><ele>25.0</ele><time>2026-04-04T12:04:51.405Z</time></trkpt><trkpt lat="44.9122846" lon="10.5639761"><ele>25.0</ele><time>2026-04-04T12:04:52.405Z</time></trkpt><trkpt lat="44.9123112" lon="10.5641007"><ele>25.0</ele><time>2026-04-04T12:04:53.405Z</time></trkpt><trkpt lat="44.9123412" lon="10.5642254"><ele>25.0</ele><time>2026-04-04T12:04:54.412Z</time></trkpt><trkpt lat="44.9123745" lon="10.5643529"><ele>25.0</ele><time>2026-04-04T12:04:55.405Z</time></trkpt><trkpt lat="44.9124107" lon="10.5644848"><ele>25.0</ele><time>2026-04-04T12:04:56.405Z</time></trkpt><trkpt lat="44.9124469" lon="10.5646186"><ele>25.0</ele><time>2026-04-04T12:04:57.404Z</time></trkpt><trkpt lat="44.9124811" lon="10.5647546"><ele>25.0</ele><time>2026-04-04T12:04:58.404Z</time></trkpt><trkpt lat="44.9125112" lon="10.5648908"><ele>25.0</ele><time>2026-04-04T12:04:59.405Z</time></trkpt><trkpt lat="44.912538" lon="10.5650279"><ele>25.0</ele><time>2026-04-04T12:05:00.405Z</time></trkpt><trkpt lat="44.9125641" lon="10.5651636"><ele>25.0</ele><time>2026-04-04T12:05:01.403Z</time></trkpt><trkpt lat="44.9125889" lon="10.565299"><ele>25.166666666666668</ele><time>2026-04-04T12:05:02.404Z</time></trkpt><trkpt lat="44.9126154" lon="10.5654334"><ele>25.333333333333336</ele><time>2026-04-04T12:05:03.404Z</time></trkpt><trkpt lat="44.9126396" lon="10.565563"><ele>25.5</ele><time>2026-04-04T12:05:04.403Z</time></trkpt><trkpt lat="44.9126628" lon="10.5656853"><ele>25.666666666666664</ele><time>2026-04-04T12:05:05.404Z</time></trkpt><trkpt lat="44.9126817" lon="10.5658"><ele>25.833333333333332</ele><time>2026-04-04T12:05:06.405Z</time></trkpt><trkpt lat="44.9126996" lon="10.5659055"><ele>26.0</ele><time>2026-04-04T12:05:07.405Z</time></trkpt><trkpt lat="44.9127159" lon="10.5660075"><ele>25.999999999999996</ele><time>2026-04-04T12:05:08.404Z</time></trkpt><trkpt lat="44.9127294" lon="10.5661104"><ele>26.0</ele><time>2026-04-04T12:05:09.405Z</time></trkpt><trkpt lat="44.9127408" lon="10.5662167"><ele>26.0</ele><time>2026-04-04T12:05:10.406Z</time></trkpt><trkpt lat="44.9127509" lon="10.5663249"><ele>26.0</ele><time>2026-04-04T12:05:11.405Z</time></trkpt><trkpt lat="44.9127615" lon="10.5664376"><ele>25.999999999999996</ele><time>2026-04-04T12:05:12.405Z</time></trkpt><trkpt lat="44.912774" lon="10.566558"><ele>26.0</ele><time>2026-04-04T12:05:13.404Z</time></trkpt><trkpt lat="44.9127832" lon="10.5666882"><ele>25.4</ele><time>2026-04-04T12:05:14.405Z</time></trkpt><trkpt lat="44.9127924" lon="10.5668284"><ele>24.8</ele><time>2026-04-04T12:05:15.404Z</time></trkpt><trkpt lat="44.9128021" lon="10.5669708"><ele>24.2</ele><time>2026-04-04T12:05:16.405Z</time></trkpt><trkpt lat="44.9128143" lon="10.5671113"><ele>23.599999999999998</ele><time>2026-04-04T12:05:17.404Z</time></trkpt><trkpt lat="44.9128311" lon="10.5672503"><ele>23.0</ele><time>2026-04-04T12:05:18.405Z</time></trkpt><trkpt lat="44.9128471" lon="10.5673867"><ele>22.799999999999997</ele><time>2026-04-04T12:05:19.405Z</time></trkpt><trkpt lat="44.9128659" lon="10.5675232"><ele>22.6</ele><time>2026-04-04T12:05:20.405Z</time></trkpt><trkpt lat="44.9128837" lon="10.5676612"><ele>22.4</ele><time>2026-04-04T12:05:21.405Z</time></trkpt><trkpt lat="44.9129004" lon="10.5677977"><ele>22.200000000000003</ele><time>2026-04-04T12:05:22.404Z</time></trkpt><trkpt lat="44.9129189" lon="10.5679322"><ele>22.0</ele><time>2026-04-04T12:05:23.405Z</time></trkpt><trkpt lat="44.9129359" lon="10.5680626"><ele>22.400000000000002</ele><time>2026-04-04T12:05:24.405Z</time></trkpt><trkpt lat="44.9129494" lon="10.5681896"><ele>22.8</ele><time>2026-04-04T12:05:25.405Z</time></trkpt><trkpt lat="44.9129627" lon="10.5683139"><ele>23.2</ele><time>2026-04-04T12:05:26.405Z</time></trkpt><trkpt lat="44.912978" lon="10.5684397"><ele>23.6</ele><time>2026-04-04T12:05:27.406Z</time></trkpt><trkpt lat="44.9129936" lon="10.5685656"><ele>24.0</ele><time>2026-04-04T12:05:28.405Z</time></trkpt><trkpt lat="44.9130075" lon="10.5686912"><ele>24.0</ele><time>2026-04-04T12:05:29.405Z</time></trkpt><trkpt lat="44.9130221" lon="10.5688191"><ele>24.0</ele><time>2026-04-04T12:05:30.405Z</time></trkpt><trkpt lat="44.9130339" lon="10.5689489"><ele>24.0</ele><time>2026-04-04T12:05:31.405Z</time></trkpt><trkpt lat="44.9130468" lon="10.5690824"><ele>24.0</ele><time>2026-04-04T12:05:32.404Z</time></trkpt><trkpt lat="44.9130588" lon="10.5692219"><ele>24.0</ele><time>2026-04-04T12:05:33.405Z</time></trkpt><trkpt lat="44.9130709" lon="10.5693721"><ele>24.0</ele><time>2026-04-04T12:05:34.405Z</time></trkpt><trkpt lat="44.9130796" lon="10.569528"><ele>24.0</ele><time>2026-04-04T12:05:35.405Z</time></trkpt><trkpt lat="44.9130859" lon="10.5696831"><ele>24.0</ele><time>2026-04-04T12:05:36.405Z</time></trkpt><trkpt lat="44.9130956" lon="10.5698377"><ele>24.0</ele><time>2026-04-04T12:05:37.405Z</time></trkpt><trkpt lat="44.9131039" lon="10.5699916"><ele>24.0</ele><time>2026-04-04T12:05:38.406Z</time></trkpt><trkpt lat="44.9131134" lon="10.5701475"><ele>24.0</ele><time>2026-04-04T12:05:39.405Z</time></trkpt><trkpt lat="44.9131208" lon="10.5703"><ele>24.0</ele><time>2026-04-04T12:05:40.405Z</time></trkpt><trkpt lat="44.9131283" lon="10.5704511"><ele>24.0</ele><time>2026-04-04T12:05:41.405Z</time></trkpt><trkpt lat="44.9131352" lon="10.5706026"><ele>24.0</ele><time>2026-04-04T12:05:42.405Z</time></trkpt><trkpt lat="44.9131407" lon="10.5707508"><ele>24.0</ele><time>2026-04-04T12:05:43.404Z</time></trkpt><trkpt lat="44.9131436" lon="10.5708897"><ele>24.4</ele><time>2026-04-04T12:05:44.405Z</time></trkpt><trkpt lat="44.9131436" lon="10.5710239"><ele>24.799999999999997</ele><time>2026-04-04T12:05:45.406Z</time></trkpt><trkpt lat="44.9131466" lon="10.5711546"><ele>25.200000000000003</ele><time>2026-04-04T12:05:46.405Z</time></trkpt><trkpt lat="44.9131464" lon="10.571281"><ele>25.6</ele><time>2026-04-04T12:05:47.404Z</time></trkpt><trkpt lat="44.9131459" lon="10.5714069"><ele>26.0</ele><time>2026-04-04T12:05:48.405Z</time></trkpt><trkpt lat="44.9131437" lon="10.5715277"><ele>25.999999999999996</ele><time>2026-04-04T12:05:49.406Z</time></trkpt><trkpt lat="44.9131446" lon="10.5716476"><ele>26.0</ele><time>2026-04-04T12:05:50.405Z</time></trkpt><trkpt lat="44.9131433" lon="10.5717628"><ele>26.0</ele><time>2026-04-04T12:05:51.405Z</time></trkpt><trkpt lat="44.9131418" lon="10.5718738"><ele>26.0</ele><time>2026-04-04T12:05:52.406Z</time></trkpt><trkpt lat="44.9131415" lon="10.5719833"><ele>25.999999999999996</ele><time>2026-04-04T12:05:53.405Z</time></trkpt><trkpt lat="44.9131421" lon="10.5720918"><ele>26.0</ele><time>2026-04-04T12:05:54.405Z</time></trkpt><trkpt lat="44.9131408" lon="10.5721959"><ele>25.666666666666664</ele><time>2026-04-04T12:05:55.406Z</time></trkpt><trkpt lat="44.9131372" lon="10.5722935"><ele>25.333333333333332</ele><time>2026-04-04T12:05:56.406Z</time></trkpt><trkpt lat="44.9131367" lon="10.5723952"><ele>25.0</ele><time>2026-04-04T12:05:57.406Z</time></trkpt><trkpt lat="44.9131353" lon="10.5725028"><ele>24.666666666666664</ele><time>2026-04-04T12:05:58.405Z</time></trkpt><trkpt lat="44.9131322" lon="10.5726161"><ele>24.333333333333332</ele><time>2026-04-04T12:05:59.405Z</time></trkpt><trkpt lat="44.9131277" lon="10.5727328"><ele>24.0</ele><time>2026-04-04T12:06:00.405Z</time></trkpt><trkpt lat="44.9131238" lon="10.5728389"><ele>24.0</ele><time>2026-04-04T12:06:01.405Z</time></trkpt><trkpt lat="44.9131167" lon="10.5729807"><ele>24.0</ele><time>2026-04-04T12:06:03.406Z</time></trkpt><trkpt lat="44.9131136" lon="10.573074"><ele>24.0</ele><time>2026-04-04T12:06:05.405Z</time></trkpt><trkpt lat="44.913107" lon="10.5731636"><ele>24.0</ele><time>2026-04-04T12:06:08.407Z</time></trkpt><trkpt lat="44.9130901" lon="10.5733052"><ele>24.0</ele><time>2026-04-04T12:06:11.405Z</time></trkpt><trkpt lat="44.9130796" lon="10.5734598"><ele>24.0</ele><time>2026-04-04T12:06:13.406Z</time></trkpt><trkpt lat="44.9130667" lon="10.5736331"><ele>23.857142857142854</ele><time>2026-04-04T12:06:15.404Z</time></trkpt><trkpt lat="44.9130602" lon="10.5737315"><ele>23.714285714285715</ele><time>2026-04-04T12:06:16.405Z</time></trkpt><trkpt lat="44.9130548" lon="10.5738306"><ele>23.57142857142857</ele><time>2026-04-04T12:06:17.405Z</time></trkpt><trkpt lat="44.9130484" lon="10.5739292"><ele>23.428571428571427</ele><time>2026-04-04T12:06:18.405Z</time></trkpt><trkpt lat="44.9130444" lon="10.5740291"><ele>23.285714285714285</ele><time>2026-04-04T12:06:19.406Z</time></trkpt><trkpt lat="44.9130387" lon="10.5741293"><ele>23.142857142857142</ele><time>2026-04-04T12:06:20.405Z</time></trkpt><trkpt lat="44.9130349" lon="10.574231"><ele>23.0</ele><time>2026-04-04T12:06:21.406Z</time></trkpt><trkpt lat="44.9130304" lon="10.5743346"><ele>23.0</ele><time>2026-04-04T12:06:22.405Z</time></trkpt><trkpt lat="44.9130269" lon="10.5744415"><ele>23.0</ele><time>2026-04-04T12:06:23.405Z</time></trkpt><trkpt lat="44.9130222" lon="10.5745498"><ele>23.0</ele><time>2026-04-04T12:06:24.405Z</time></trkpt><trkpt lat="44.9130214" lon="10.5746598"><ele>23.0</ele><time>2026-04-04T12:06:25.406Z</time></trkpt><trkpt lat="44.9130187" lon="10.5747701"><ele>23.0</ele><time>2026-04-04T12:06:26.406Z</time></trkpt><trkpt lat="44.9130153" lon="10.5748759"><ele>23.0</ele><time>2026-04-04T12:06:27.405Z</time></trkpt><trkpt lat="44.9130121" lon="10.5749764"><ele>23.4</ele><time>2026-04-04T12:06:28.405Z</time></trkpt><trkpt lat="44.9130098" lon="10.5751205"><ele>23.799999999999997</ele><time>2026-04-04T12:06:30.405Z</time></trkpt><trkpt lat="44.9130339" lon="10.5752239"><ele>24.2</ele><time>2026-04-04T12:06:34.404Z</time></trkpt><trkpt lat="44.9130258" lon="10.5750958"><ele>24.6</ele><time>2026-04-04T12:06:53.406Z</time></trkpt><trkpt lat="44.9130313" lon="10.5749883"><ele>25.0</ele><time>2026-04-04T12:06:56.405Z</time></trkpt><trkpt lat="44.9131266" lon="10.5749272"><ele>25.000000000000004</ele><time>2026-04-04T12:06:59.404Z</time></trkpt><trkpt lat="44.9131902" lon="10.5749046"><ele>25.0</ele><time>2026-04-04T12:07:00.405Z</time></trkpt><trkpt lat="44.9132618" lon="10.5748822"><ele>25.0</ele><time>2026-04-04T12:07:01.404Z</time></trkpt><trkpt lat="44.9133407" lon="10.5748586"><ele>25.0</ele><time>2026-04-04T12:07:02.405Z</time></trkpt><trkpt lat="44.9134213" lon="10.5748323"><ele>25.000000000000004</ele><time>2026-04-04T12:07:03.406Z</time></trkpt><trkpt lat="44.9135008" lon="10.5748041"><ele>25.0</ele><time>2026-04-04T12:07:04.405Z</time></trkpt><trkpt lat="44.9135824" lon="10.5747753"><ele>25.666666666666668</ele><time>2026-04-04T12:07:05.406Z</time></trkpt><trkpt lat="44.9136659" lon="10.5747483"><ele>26.333333333333336</ele><time>2026-04-04T12:07:06.406Z</time></trkpt><trkpt lat="44.9137496" lon="10.5747216"><ele>27.0</ele><time>2026-04-04T12:07:07.406Z</time></trkpt><trkpt lat="44.9138318" lon="10.5746964"><ele>27.666666666666664</ele><time>2026-04-04T12:07:08.404Z</time></trkpt><trkpt lat="44.9139164" lon="10.5746698"><ele>28.333333333333332</ele><time>2026-04-04T12:07:09.406Z</time></trkpt><trkpt lat="44.9140014" lon="10.5746418"><ele>29.0</ele><time>2026-04-04T12:07:10.404Z</time></trkpt><trkpt lat="44.9140807" lon="10.5746121"><ele>29.000000000000004</ele><time>2026-04-04T12:07:11.405Z</time></trkpt><trkpt lat="44.9141532" lon="10.574586"><ele>29.0</ele><time>2026-04-04T12:07:12.403Z</time></trkpt><trkpt lat="44.914223" lon="10.5745609"><ele>29.000000000000004</ele><time>2026-04-04T12:07:13.404Z</time></trkpt><trkpt lat="44.9142924" lon="10.574539"><ele>29.000000000000004</ele><time>2026-04-04T12:07:14.405Z</time></trkpt><trkpt lat="44.9143636" lon="10.5745192"><ele>29.0</ele><time>2026-04-04T12:07:15.406Z</time></trkpt><trkpt lat="44.9144378" lon="10.5744967"><ele>29.000000000000004</ele><time>2026-04-04T12:07:16.404Z</time></trkpt><trkpt lat="44.9145086" lon="10.5744747"><ele>29.000000000000004</ele><time>2026-04-04T12:07:17.403Z</time></trkpt><trkpt lat="44.9145813" lon="10.5744504"><ele>28.833333333333332</ele><time>2026-04-04T12:07:18.403Z</time></trkpt><trkpt lat="44.914659" lon="10.5744253"><ele>28.666666666666664</ele><time>2026-04-04T12:07:19.404Z</time></trkpt><trkpt lat="44.9147391" lon="10.5744014"><ele>28.5</ele><time>2026-04-04T12:07:20.404Z</time></trkpt><trkpt lat="44.9148209" lon="10.5743753"><ele>28.333333333333336</ele><time>2026-04-04T12:07:21.406Z</time></trkpt><trkpt lat="44.9149014" lon="10.574349"><ele>28.166666666666668</ele><time>2026-04-04T12:07:22.404Z</time></trkpt><trkpt lat="44.9149814" lon="10.5743213"><ele>28.0</ele><time>2026-04-04T12:07:23.404Z</time></trkpt><trkpt lat="44.9150613" lon="10.5742937"><ele>28.142857142857142</ele><time>2026-04-04T12:07:24.404Z</time></trkpt><trkpt lat="44.9151399" lon="10.5742681"><ele>28.285714285714285</ele><time>2026-04-04T12:07:25.405Z</time></trkpt><trkpt lat="44.9152172" lon="10.5742426"><ele>28.42857142857143</ele><time>2026-04-04T12:07:26.405Z</time></trkpt><trkpt lat="44.9152951" lon="10.5742175"><ele>28.571428571428573</ele><time>2026-04-04T12:07:27.407Z</time></trkpt><trkpt lat="44.9153675" lon="10.5741956"><ele>28.714285714285715</ele><time>2026-04-04T12:07:28.403Z</time></trkpt><trkpt lat="44.9154344" lon="10.5741744"><ele>28.85714285714286</ele><time>2026-04-04T12:07:29.404Z</time></trkpt><trkpt lat="44.9154978" lon="10.5741557"><ele>29.000000000000004</ele><time>2026-04-04T12:07:30.404Z</time></trkpt><trkpt lat="44.9155605" lon="10.5741376"><ele>29.000000000000004</ele><time>2026-04-04T12:07:31.404Z</time></trkpt><trkpt lat="44.9156222" lon="10.5741141"><ele>29.0</ele><time>2026-04-04T12:07:32.403Z</time></trkpt><trkpt lat="44.9156851" lon="10.5740917"><ele>29.000000000000004</ele><time>2026-04-04T12:07:33.406Z</time></trkpt><trkpt lat="44.9157472" lon="10.5740695"><ele>29.000000000000004</ele><time>2026-04-04T12:07:34.404Z</time></trkpt><trkpt lat="44.9158115" lon="10.5740455"><ele>29.0</ele><time>2026-04-04T12:07:35.404Z</time></trkpt><trkpt lat="44.915879" lon="10.574019"><ele>29.000000000000004</ele><time>2026-04-04T12:07:36.403Z</time></trkpt><trkpt lat="44.9159461" lon="10.5739935"><ele>29.000000000000004</ele><time>2026-04-04T12:07:37.404Z</time></trkpt><trkpt lat="44.9160078" lon="10.5739713"><ele>29.166666666666664</ele><time>2026-04-04T12:07:38.404Z</time></trkpt><trkpt lat="44.9161144" lon="10.5739339"><ele>29.333333333333332</ele><time>2026-04-04T12:07:40.404Z</time></trkpt><trkpt lat="44.9162" lon="10.573915"><ele>29.5</ele><time>2026-04-04T12:07:42.405Z</time></trkpt><trkpt lat="44.916285" lon="10.5738783"><ele>29.666666666666664</ele><time>2026-04-04T12:07:54.405Z</time></trkpt><trkpt lat="44.916375" lon="10.5738567"><ele>29.833333333333332</ele><time>2026-04-04T12:07:56.406Z</time></trkpt><trkpt lat="44.916445" lon="10.5738433"><ele>30.0</ele><time>2026-04-04T12:07:58.404Z</time></trkpt><trkpt lat="44.9165083" lon="10.5738083"><ele>30.0</ele><time>2026-04-04T12:08:01.405Z</time></trkpt><trkpt lat="44.9165933" lon="10.5737567"><ele>30.0</ele><time>2026-04-04T12:08:04.404Z</time></trkpt><trkpt lat="44.916665" lon="10.5737283"><ele>30.0</ele><time>2026-04-04T12:08:06.405Z</time></trkpt><trkpt lat="44.91675" lon="10.5737"><ele>30.0</ele><time>2026-04-04T12:08:08.406Z</time></trkpt><trkpt lat="44.9168483" lon="10.5736633"><ele>30.0</ele><time>2026-04-04T12:08:10.406Z</time></trkpt><trkpt lat="44.9169417" lon="10.5736383"><ele>29.6</ele><time>2026-04-04T12:08:12.403Z</time></trkpt><trkpt lat="44.9170433" lon="10.5736083"><ele>29.2</ele><time>2026-04-04T12:08:14.404Z</time></trkpt><trkpt lat="44.9171417" lon="10.57358"><ele>28.799999999999997</ele><time>2026-04-04T12:08:16.403Z</time></trkpt><trkpt lat="44.9172383" lon="10.573545"><ele>28.4</ele><time>2026-04-04T12:08:18.406Z</time></trkpt><trkpt lat="44.91734" lon="10.5735083"><ele>28.0</ele><time>2026-04-04T12:08:20.405Z</time></trkpt><trkpt lat="44.917445" lon="10.5734717"><ele>28.0</ele><time>2026-04-04T12:08:22.405Z</time></trkpt><trkpt lat="44.9175517" lon="10.573435"><ele>27.999999999999996</ele><time>2026-04-04T12:08:24.404Z</time></trkpt><trkpt lat="44.9176667" lon="10.5734017"><ele>27.999999999999996</ele><time>2026-04-04T12:08:26.404Z</time></trkpt><trkpt lat="44.9177883" lon="10.5733583"><ele>28.0</ele><time>2026-04-04T12:08:28.404Z</time></trkpt><trkpt lat="44.9178517" lon="10.5733367"><ele>28.0</ele><time>2026-04-04T12:08:29.404Z</time></trkpt><trkpt lat="44.917915" lon="10.5733167"><ele>28.0</ele><time>2026-04-04T12:08:30.404Z</time></trkpt><trkpt lat="44.91803" lon="10.5732833"><ele>27.999999999999996</ele><time>2026-04-04T12:08:32.404Z</time></trkpt><trkpt lat="44.9181317" lon="10.5732483"><ele>27.999999999999996</ele><time>2026-04-04T12:08:34.404Z</time></trkpt><trkpt lat="44.9182283" lon="10.5732167"><ele>28.0</ele><time>2026-04-04T12:08:36.406Z</time></trkpt><trkpt lat="44.9183283" lon="10.5731833"><ele>28.0</ele><time>2026-04-04T12:08:38.405Z</time></trkpt><trkpt lat="44.9184317" lon="10.573145"><ele>28.0</ele><time>2026-04-04T12:08:40.405Z</time></trkpt><trkpt lat="44.9185433" lon="10.573105"><ele>28.0</ele><time>2026-04-04T12:08:42.406Z</time></trkpt><trkpt lat="44.9186517" lon="10.5730767"><ele>28.0</ele><time>2026-04-04T12:08:44.406Z</time></trkpt><trkpt lat="44.9187617" lon="10.57304"><ele>28.0</ele><time>2026-04-04T12:08:46.406Z</time></trkpt><trkpt lat="44.9188767" lon="10.573"><ele>28.0</ele><time>2026-04-04T12:08:48.405Z</time></trkpt><trkpt lat="44.918995" lon="10.5729583"><ele>27.999999999999996</ele><time>2026-04-04T12:08:50.406Z</time></trkpt><trkpt lat="44.919095" lon="10.5729283"><ele>27.999999999999996</ele><time>2026-04-04T12:08:52.408Z</time></trkpt><trkpt lat="44.919195" lon="10.5729"><ele>28.0</ele><time>2026-04-04T12:08:54.405Z</time></trkpt><trkpt lat="44.9192983" lon="10.57286"><ele>28.0</ele><time>2026-04-04T12:08:56.405Z</time></trkpt><trkpt lat="44.9194" lon="10.5728317"><ele>27.799999999999997</ele><time>2026-04-04T12:08:58.403Z</time></trkpt><trkpt lat="44.9194967" lon="10.5728067"><ele>27.599999999999998</ele><time>2026-04-04T12:09:00.404Z</time></trkpt><trkpt lat="44.9195933" lon="10.5727667"><ele>27.400000000000002</ele><time>2026-04-04T12:09:02.404Z</time></trkpt><trkpt lat="44.91969" lon="10.57273"><ele>27.200000000000003</ele><time>2026-04-04T12:09:04.403Z</time></trkpt><trkpt lat="44.919795" lon="10.5726983"><ele>27.0</ele><time>2026-04-04T12:09:06.406Z</time></trkpt><trkpt lat="44.9199133" lon="10.5726617"><ele>27.0</ele><time>2026-04-04T12:09:08.406Z</time></trkpt><trkpt lat="44.9200267" lon="10.5726217"><ele>27.0</ele><time>2026-04-04T12:09:10.406Z</time></trkpt><trkpt lat="44.9200883" lon="10.5726"><ele>27.0</ele><time>2026-04-04T12:09:11.405Z</time></trkpt><trkpt lat="44.9201533" lon="10.5725817"><ele>27.0</ele><time>2026-04-04T12:09:12.406Z</time></trkpt><trkpt lat="44.9202183" lon="10.57256"><ele>27.0</ele><time>2026-04-04T12:09:13.405Z</time></trkpt><trkpt lat="44.920285" lon="10.5725367"><ele>27.0</ele><time>2026-04-04T12:09:14.404Z</time></trkpt><trkpt lat="44.92035" lon="10.5725133"><ele>27.0</ele><time>2026-04-04T12:09:15.404Z</time></trkpt><trkpt lat="44.920415" lon="10.57249"><ele>27.166666666666668</ele><time>2026-04-04T12:09:16.405Z</time></trkpt><trkpt lat="44.9204767" lon="10.5724683"><ele>27.333333333333336</ele><time>2026-04-04T12:09:17.403Z</time></trkpt><trkpt lat="44.9205383" lon="10.5724483"><ele>27.5</ele><time>2026-04-04T12:09:18.404Z</time></trkpt><trkpt lat="44.9206617" lon="10.5724083"><ele>27.666666666666668</ele><time>2026-04-04T12:09:20.404Z</time></trkpt><trkpt lat="44.9207233" lon="10.5723883"><ele>27.833333333333336</ele><time>2026-04-04T12:09:21.405Z</time></trkpt><trkpt lat="44.92083" lon="10.5723583"><ele>28.0</ele><time>2026-04-04T12:09:23.404Z</time></trkpt><trkpt lat="44.920915" lon="10.5723233"><ele>28.2</ele><time>2026-04-04T12:09:25.404Z</time></trkpt><trkpt lat="44.9209733" lon="10.57227"><ele>28.4</ele><time>2026-04-04T12:09:27.405Z</time></trkpt><trkpt lat="44.921045" lon="10.57223"><ele>28.599999999999998</ele><time>2026-04-04T12:09:29.404Z</time></trkpt><trkpt lat="44.9211467" lon="10.5721883"><ele>28.799999999999997</ele><time>2026-04-04T12:09:31.407Z</time></trkpt><trkpt lat="44.9212533" lon="10.5721483"><ele>29.0</ele><time>2026-04-04T12:09:33.404Z</time></trkpt><trkpt lat="44.9213717" lon="10.5721083"><ele>28.999999999999996</ele><time>2026-04-04T12:09:35.405Z</time></trkpt><trkpt lat="44.9214933" lon="10.572075"><ele>29.0</ele><time>2026-04-04T12:09:37.407Z</time></trkpt><trkpt lat="44.921555" lon="10.5720517"><ele>29.0</ele><time>2026-04-04T12:09:38.405Z</time></trkpt><trkpt lat="44.9216783" lon="10.572005"><ele>29.0</ele><time>2026-04-04T12:09:40.406Z</time></trkpt><trkpt lat="44.92174" lon="10.5719817"><ele>28.999999999999996</ele><time>2026-04-04T12:09:41.406Z</time></trkpt><trkpt lat="44.9218017" lon="10.5719617"><ele>29.0</ele><time>2026-04-04T12:09:42.405Z</time></trkpt><trkpt lat="44.9219217" lon="10.571925"><ele>28.5</ele><time>2026-04-04T12:09:44.405Z</time></trkpt><trkpt lat="44.922035" lon="10.571895"><ele>28.0</ele><time>2026-04-04T12:09:46.404Z</time></trkpt><trkpt lat="44.9221433" lon="10.57186"><ele>27.5</ele><time>2026-04-04T12:09:48.405Z</time></trkpt><trkpt lat="44.922255" lon="10.57182"><ele>27.0</ele><time>2026-04-04T12:09:50.406Z</time></trkpt><trkpt lat="44.922365" lon="10.5717833"><ele>27.0</ele><time>2026-04-04T12:09:52.406Z</time></trkpt><trkpt lat="44.92247" lon="10.5717483"><ele>27.000000000000004</ele><time>2026-04-04T12:09:54.406Z</time></trkpt><trkpt lat="44.9225717" lon="10.5717117"><ele>27.000000000000004</ele><time>2026-04-04T12:09:56.404Z</time></trkpt><trkpt lat="44.9226667" lon="10.5716833"><ele>27.0</ele><time>2026-04-04T12:09:58.405Z</time></trkpt><trkpt lat="44.9227483" lon="10.5716417"><ele>27.0</ele><time>2026-04-04T12:10:00.403Z</time></trkpt><trkpt lat="44.9228167" lon="10.5716233"><ele>26.6</ele><time>2026-04-04T12:10:02.405Z</time></trkpt><trkpt lat="44.9228917" lon="10.5717083"><ele>26.200000000000003</ele><time>2026-04-04T12:10:05.405Z</time></trkpt><trkpt lat="44.92296" lon="10.5717983"><ele>25.8</ele><time>2026-04-04T12:10:07.406Z</time></trkpt><trkpt lat="44.923055" lon="10.5719217"><ele>25.4</ele><time>2026-04-04T12:10:09.406Z</time></trkpt><trkpt lat="44.9231067" lon="10.5719933"><ele>25.0</ele><time>2026-04-04T12:10:10.405Z</time></trkpt><trkpt lat="44.923165" lon="10.5720667"><ele>25.000000000000004</ele><time>2026-04-04T12:10:11.404Z</time></trkpt><trkpt lat="44.923225" lon="10.57214"><ele>25.0</ele><time>2026-04-04T12:10:12.405Z</time></trkpt><trkpt lat="44.9232883" lon="10.5722133"><ele>25.0</ele><time>2026-04-04T12:10:13.406Z</time></trkpt><trkpt lat="44.9233517" lon="10.57229"><ele>25.0</ele><time>2026-04-04T12:10:14.405Z</time></trkpt><trkpt lat="44.92342" lon="10.5723717"><ele>25.000000000000004</ele><time>2026-04-04T12:10:15.405Z</time></trkpt><trkpt lat="44.9234883" lon="10.5724567"><ele>25.0</ele><time>2026-04-04T12:10:16.404Z</time></trkpt><trkpt lat="44.9235567" lon="10.5725433"><ele>25.000000000000004</ele><time>2026-04-04T12:10:17.405Z</time></trkpt><trkpt lat="44.92362" lon="10.5726267"><ele>25.0</ele><time>2026-04-04T12:10:18.405Z</time></trkpt><trkpt lat="44.9236817" lon="10.5727017"><ele>25.0</ele><time>2026-04-04T12:10:19.407Z</time></trkpt><trkpt lat="44.923735" lon="10.57277"><ele>25.0</ele><time>2026-04-04T12:10:20.405Z</time></trkpt><trkpt lat="44.9237833" lon="10.57283"><ele>25.000000000000004</ele><time>2026-04-04T12:10:21.406Z</time></trkpt><trkpt lat="44.9238517" lon="10.572925"><ele>25.0</ele><time>2026-04-04T12:10:23.406Z</time></trkpt><trkpt lat="44.9239032" lon="10.5729869"><ele>25.0</ele><time>2026-04-04T12:10:25.406Z</time></trkpt><trkpt lat="44.9239667" lon="10.573075"><ele>25.0</ele><time>2026-04-04T12:13:39.406Z</time></trkpt><trkpt lat="44.9240367" lon="10.5731767"><ele>25.0</ele><time>2026-04-04T12:13:41.405Z</time></trkpt><trkpt lat="44.92413" lon="10.5733"><ele>25.0</ele><time>2026-04-04T12:13:43.405Z</time></trkpt><trkpt lat="44.9241817" lon="10.5733683"><ele>25.0</ele><time>2026-04-04T12:13:44.402Z</time></trkpt><trkpt lat="44.9242333" lon="10.5734367"><ele>25.000000000000004</ele><time>2026-04-04T12:13:45.403Z</time></trkpt><trkpt lat="44.9242867" lon="10.57351"><ele>25.0</ele><time>2026-04-04T12:13:46.403Z</time></trkpt><trkpt lat="44.9243417" lon="10.5735817"><ele>25.0</ele><time>2026-04-04T12:13:47.404Z</time></trkpt><trkpt lat="44.9243933" lon="10.57365"><ele>25.0</ele><time>2026-04-04T12:13:48.404Z</time></trkpt><trkpt lat="44.9244433" lon="10.5737233"><ele>25.0</ele><time>2026-04-04T12:13:49.404Z</time></trkpt><trkpt lat="44.9244967" lon="10.5737967"><ele>25.000000000000004</ele><time>2026-04-04T12:13:50.403Z</time></trkpt><trkpt lat="44.9245533" lon="10.5738767"><ele>25.0</ele><time>2026-04-04T12:13:51.405Z</time></trkpt><trkpt lat="44.9246083" lon="10.57396"><ele>25.000000000000004</ele><time>2026-04-04T12:13:52.406Z</time></trkpt><trkpt lat="44.9246683" lon="10.5740483"><ele>25.0</ele><time>2026-04-04T12:13:53.404Z</time></trkpt><trkpt lat="44.9247233" lon="10.574135"><ele>25.0</ele><time>2026-04-04T12:13:54.406Z</time></trkpt><trkpt lat="44.9247767" lon="10.5742217"><ele>25.0</ele><time>2026-04-04T12:13:55.406Z</time></trkpt><trkpt lat="44.924825" lon="10.5743067"><ele>25.000000000000004</ele><time>2026-04-04T12:13:56.404Z</time></trkpt><trkpt lat="44.9248717" lon="10.57439"><ele>25.0</ele><time>2026-04-04T12:13:57.403Z</time></trkpt><trkpt lat="44.9249167" lon="10.5744783"><ele>25.166666666666668</ele><time>2026-04-04T12:13:58.403Z</time></trkpt><trkpt lat="44.9249617" lon="10.5745683"><ele>25.333333333333336</ele><time>2026-04-04T12:13:59.403Z</time></trkpt><trkpt lat="44.9250033" lon="10.5746583"><ele>25.5</ele><time>2026-04-04T12:14:00.402Z</time></trkpt><trkpt lat="44.925045" lon="10.57475"><ele>25.666666666666664</ele><time>2026-04-04T12:14:01.403Z</time></trkpt><trkpt lat="44.9250867" lon="10.574845"><ele>25.833333333333332</ele><time>2026-04-04T12:14:02.402Z</time></trkpt><trkpt lat="44.9251267" lon="10.57494"><ele>26.0</ele><time>2026-04-04T12:14:03.403Z</time></trkpt><trkpt lat="44.9251633" lon="10.57503"><ele>26.0</ele><time>2026-04-04T12:14:04.404Z</time></trkpt><trkpt lat="44.925195" lon="10.5751117"><ele>26.0</ele><time>2026-04-04T12:14:05.403Z</time></trkpt><trkpt lat="44.92523" lon="10.5751967"><ele>26.0</ele><time>2026-04-04T12:14:06.407Z</time></trkpt><trkpt lat="44.9252683" lon="10.5752833"><ele>26.0</ele><time>2026-04-04T12:14:07.405Z</time></trkpt><trkpt lat="44.9253017" lon="10.5753683"><ele>26.0</ele><time>2026-04-04T12:14:08.405Z</time></trkpt><trkpt lat="44.925335" lon="10.5754517"><ele>26.0</ele><time>2026-04-04T12:14:09.405Z</time></trkpt><trkpt lat="44.9253683" lon="10.5755317"><ele>26.0</ele><time>2026-04-04T12:14:10.405Z</time></trkpt><trkpt lat="44.92543" lon="10.5756917"><ele>26.0</ele><time>2026-04-04T12:14:12.404Z</time></trkpt><trkpt lat="44.9254633" lon="10.5757733"><ele>26.0</ele><time>2026-04-04T12:14:13.404Z</time></trkpt><trkpt lat="44.9254983" lon="10.5758567"><ele>26.0</ele><time>2026-04-04T12:14:14.404Z</time></trkpt><trkpt lat="44.9255333" lon="10.5759517"><ele>26.0</ele><time>2026-04-04T12:14:15.404Z</time></trkpt><trkpt lat="44.92557" lon="10.5760467"><ele>26.0</ele><time>2026-04-04T12:14:16.404Z</time></trkpt><trkpt lat="44.9256083" lon="10.576145"><ele>26.0</ele><time>2026-04-04T12:14:17.403Z</time></trkpt><trkpt lat="44.9256433" lon="10.57624"><ele>26.0</ele><time>2026-04-04T12:14:18.404Z</time></trkpt><trkpt lat="44.9256783" lon="10.576335"><ele>26.166666666666664</ele><time>2026-04-04T12:14:19.404Z</time></trkpt><trkpt lat="44.92571" lon="10.57642"><ele>26.333333333333332</ele><time>2026-04-04T12:14:20.404Z</time></trkpt><trkpt lat="44.9257617" lon="10.576565"><ele>26.5</ele><time>2026-04-04T12:14:22.405Z</time></trkpt><trkpt lat="44.9258117" lon="10.5766867"><ele>26.666666666666664</ele><time>2026-04-04T12:14:24.403Z</time></trkpt><trkpt lat="44.925855" lon="10.5767867"><ele>26.833333333333332</ele><time>2026-04-04T12:14:26.404Z</time></trkpt><trkpt lat="44.9258733" lon="10.5768883"><ele>27.0</ele><time>2026-04-04T12:15:13.404Z</time></trkpt><trkpt lat="44.9259167" lon="10.5769783"><ele>27.0</ele><time>2026-04-04T12:15:17.404Z</time></trkpt><trkpt lat="44.9259867" lon="10.576955"><ele>27.0</ele><time>2026-04-04T12:15:40.404Z</time></trkpt><trkpt lat="44.9260567" lon="10.57696"><ele>27.0</ele><time>2026-04-04T12:15:42.404Z</time></trkpt><trkpt lat="44.9260817" lon="10.5770433"><ele>27.0</ele><time>2026-04-04T12:15:47.404Z</time></trkpt><trkpt lat="44.9261433" lon="10.5771283"><ele>27.0</ele><time>2026-04-04T12:15:59.405Z</time></trkpt><trkpt lat="44.9262233" lon="10.5771417"><ele>27.0</ele><time>2026-04-04T12:16:03.41Z</time></trkpt><trkpt lat="44.9263" lon="10.57714"><ele>27.0</ele><time>2026-04-04T12:16:07.404Z</time></trkpt><trkpt lat="44.9264017" lon="10.5771417"><ele>27.400000000000002</ele><time>2026-04-04T12:16:30.405Z</time></trkpt><trkpt lat="44.9263333" lon="10.5772517"><ele>27.800000000000004</ele><time>2026-04-04T12:16:43.403Z</time></trkpt><trkpt lat="44.9262367" lon="10.5772533"><ele>28.2</ele><time>2026-04-04T12:16:45.404Z</time></trkpt><trkpt lat="44.926135" lon="10.5772583"><ele>28.6</ele><time>2026-04-04T12:16:47.403Z</time></trkpt><trkpt lat="44.9261" lon="10.5773967"><ele>29.0</ele><time>2026-04-04T12:17:35.403Z</time></trkpt><trkpt lat="44.9261483" lon="10.5775333"><ele>28.999999999999996</ele><time>2026-04-04T12:17:37.404Z</time></trkpt><trkpt lat="44.9261983" lon="10.5776633"><ele>29.0</ele><time>2026-04-04T12:17:39.404Z</time></trkpt><trkpt lat="44.9262417" lon="10.5777867"><ele>29.0</ele><time>2026-04-04T12:17:41.404Z</time></trkpt><trkpt lat="44.9262783" lon="10.5779033"><ele>29.0</ele><time>2026-04-04T12:17:43.403Z</time></trkpt><trkpt lat="44.92631" lon="10.5780083"><ele>28.999999999999996</ele><time>2026-04-04T12:17:45.404Z</time></trkpt><trkpt lat="44.92634" lon="10.5780867"><ele>29.0</ele><time>2026-04-04T12:17:47.404Z</time></trkpt><trkpt lat="44.9263717" lon="10.5781933"><ele>29.0</ele><time>2026-04-04T12:17:52.406Z</time></trkpt><trkpt lat="44.9263967" lon="10.5783"><ele>29.0</ele><time>2026-04-04T12:17:54.405Z</time></trkpt><trkpt lat="44.9264483" lon="10.5784283"><ele>29.0</ele><time>2026-04-04T12:17:56.404Z</time></trkpt><trkpt lat="44.9265083" lon="10.578545"><ele>29.0</ele><time>2026-04-04T12:17:58.403Z</time></trkpt><trkpt lat="44.9265767" lon="10.5786433"><ele>29.0</ele><time>2026-04-04T12:18:00.403Z</time></trkpt><trkpt lat="44.92667" lon="10.5787183"><ele>27.6</ele><time>2026-04-04T12:18:02.404Z</time></trkpt><trkpt lat="44.9267883" lon="10.5787783"><ele>26.2</ele><time>2026-04-04T12:18:04.404Z</time></trkpt><trkpt lat="44.9268533" lon="10.578805"><ele>24.8</ele><time>2026-04-04T12:18:05.404Z</time></trkpt><trkpt lat="44.926915" lon="10.5788267"><ele>23.400000000000002</ele><time>2026-04-04T12:18:06.404Z</time></trkpt><trkpt lat="44.927025" lon="10.578835"><ele>22.0</ele><time>2026-04-04T12:18:08.405Z</time></trkpt><trkpt lat="44.9271083" lon="10.5787383"><ele>22.0</ele><time>2026-04-04T12:18:10.406Z</time></trkpt><trkpt lat="44.9271683" lon="10.57864"><ele>22.0</ele><time>2026-04-04T12:18:12.404Z</time></trkpt><trkpt lat="44.92724" lon="10.5786383"><ele>22.0</ele><time>2026-04-04T12:18:15.405Z</time></trkpt><trkpt lat="44.9272067" lon="10.5787767"><ele>22.0</ele><time>2026-04-04T12:18:18.403Z</time></trkpt><trkpt lat="44.9271633" lon="10.57885"><ele>22.0</ele><time>2026-04-04T12:18:19.403Z</time></trkpt><trkpt lat="44.927115" lon="10.5789433"><ele>22.0</ele><time>2026-04-04T12:18:20.403Z</time></trkpt><trkpt lat="44.92706" lon="10.57906"><ele>22.0</ele><time>2026-04-04T12:18:21.405Z</time></trkpt><trkpt lat="44.9270017" lon="10.5792133"><ele>22.0</ele><time>2026-04-04T12:18:22.404Z</time></trkpt><trkpt lat="44.9269383" lon="10.579385"><ele>22.0</ele><time>2026-04-04T12:18:23.404Z</time></trkpt><trkpt lat="44.9268783" lon="10.5795717"><ele>22.0</ele><time>2026-04-04T12:18:24.404Z</time></trkpt><trkpt lat="44.9268267" lon="10.5797683"><ele>21.75</ele><time>2026-04-04T12:18:25.403Z</time></trkpt><trkpt lat="44.9267817" lon="10.579965"><ele>21.5</ele><time>2026-04-04T12:18:26.404Z</time></trkpt><trkpt lat="44.9267383" lon="10.580155"><ele>21.25</ele><time>2026-04-04T12:18:27.405Z</time></trkpt><trkpt lat="44.9266967" lon="10.5803417"><ele>21.0</ele><time>2026-04-04T12:18:28.404Z</time></trkpt><trkpt lat="44.926655" lon="10.5805233"><ele>21.75</ele><time>2026-04-04T12:18:29.404Z</time></trkpt><trkpt lat="44.9266133" lon="10.5807017"><ele>22.5</ele><time>2026-04-04T12:18:30.405Z</time></trkpt><trkpt lat="44.9265733" lon="10.580875"><ele>23.25</ele><time>2026-04-04T12:18:31.404Z</time></trkpt><trkpt lat="44.92653" lon="10.5810467"><ele>24.0</ele><time>2026-04-04T12:18:32.405Z</time></trkpt><trkpt lat="44.9264883" lon="10.58122"><ele>24.0</ele><time>2026-04-04T12:18:33.404Z</time></trkpt><trkpt lat="44.9264483" lon="10.58139"><ele>24.0</ele><time>2026-04-04T12:18:34.404Z</time></trkpt><trkpt lat="44.926405" lon="10.58156"><ele>24.0</ele><time>2026-04-04T12:18:35.404Z</time></trkpt><trkpt lat="44.9263633" lon="10.5817267"><ele>24.0</ele><time>2026-04-04T12:18:36.404Z</time></trkpt><trkpt lat="44.9263217" lon="10.5818917"><ele>23.75</ele><time>2026-04-04T12:18:37.404Z</time></trkpt><trkpt lat="44.9262817" lon="10.5820517"><ele>23.5</ele><time>2026-04-04T12:18:38.406Z</time></trkpt><trkpt lat="44.9262417" lon="10.5822067"><ele>23.25</ele><time>2026-04-04T12:18:39.405Z</time></trkpt><trkpt lat="44.9262017" lon="10.582355"><ele>23.0</ele><time>2026-04-04T12:18:40.404Z</time></trkpt><trkpt lat="44.926165" lon="10.5824983"><ele>23.0</ele><time>2026-04-04T12:18:41.404Z</time></trkpt><trkpt lat="44.9261283" lon="10.5826383"><ele>23.0</ele><time>2026-04-04T12:18:42.404Z</time></trkpt><trkpt lat="44.92609" lon="10.58278"><ele>23.0</ele><time>2026-04-04T12:18:43.404Z</time></trkpt><trkpt lat="44.9260433" lon="10.5829283"><ele>23.0</ele><time>2026-04-04T12:18:44.405Z</time></trkpt><trkpt lat="44.9259833" lon="10.5830817"><ele>23.25</ele><time>2026-04-04T12:18:45.404Z</time></trkpt><trkpt lat="44.9259083" lon="10.5832367"><ele>23.5</ele><time>2026-04-04T12:18:46.404Z</time></trkpt><trkpt lat="44.925825" lon="10.583385"><ele>23.75</ele><time>2026-04-04T12:18:47.404Z</time></trkpt><trkpt lat="44.92574" lon="10.5835267"><ele>24.0</ele><time>2026-04-04T12:18:48.405Z</time></trkpt><trkpt lat="44.925655" lon="10.5836667"><ele>23.75</ele><time>2026-04-04T12:18:49.404Z</time></trkpt><trkpt lat="44.9255733" lon="10.5838083"><ele>23.5</ele><time>2026-04-04T12:18:50.405Z</time></trkpt><trkpt lat="44.925495" lon="10.58396"><ele>23.25</ele><time>2026-04-04T12:18:51.405Z</time></trkpt><trkpt lat="44.9254283" lon="10.58413"><ele>23.0</ele><time>2026-04-04T12:18:52.404Z</time></trkpt><trkpt lat="44.9253767" lon="10.5843267"><ele>22.666666666666668</ele><time>2026-04-04T12:18:53.405Z</time></trkpt><trkpt lat="44.9253467" lon="10.584545"><ele>22.333333333333332</ele><time>2026-04-04T12:18:54.403Z</time></trkpt><trkpt lat="44.925335" lon="10.5847733"><ele>22.0</ele><time>2026-04-04T12:18:55.404Z</time></trkpt><trkpt lat="44.925335" lon="10.5849933"><ele>22.0</ele><time>2026-04-04T12:18:56.404Z</time></trkpt><trkpt lat="44.9253383" lon="10.5851983"><ele>22.0</ele><time>2026-04-04T12:18:57.403Z</time></trkpt><trkpt lat="44.9253417" lon="10.5854"><ele>22.0</ele><time>2026-04-04T12:18:58.404Z</time></trkpt><trkpt lat="44.925345" lon="10.5855983"><ele>22.0</ele><time>2026-04-04T12:18:59.403Z</time></trkpt><trkpt lat="44.9253467" lon="10.5857933"><ele>21.75</ele><time>2026-04-04T12:19:00.404Z</time></trkpt><trkpt lat="44.9253467" lon="10.5859817"><ele>21.5</ele><time>2026-04-04T12:19:01.404Z</time></trkpt><trkpt lat="44.925345" lon="10.5861683"><ele>21.25</ele><time>2026-04-04T12:19:02.405Z</time></trkpt><trkpt lat="44.9253467" lon="10.5863617"><ele>21.0</ele><time>2026-04-04T12:19:03.404Z</time></trkpt><trkpt lat="44.9253467" lon="10.5865567"><ele>21.75</ele><time>2026-04-04T12:19:04.404Z</time></trkpt><trkpt lat="44.9253467" lon="10.5867517"><ele>22.5</ele><time>2026-04-04T12:19:05.403Z</time></trkpt><trkpt lat="44.9253483" lon="10.5869483"><ele>23.25</ele><time>2026-04-04T12:19:06.403Z</time></trkpt><trkpt lat="44.92535" lon="10.5871417"><ele>24.0</ele><time>2026-04-04T12:19:07.404Z</time></trkpt><trkpt lat="44.92535" lon="10.58733"><ele>24.0</ele><time>2026-04-04T12:19:08.405Z</time></trkpt><trkpt lat="44.92535" lon="10.5875167"><ele>24.0</ele><time>2026-04-04T12:19:09.404Z</time></trkpt><trkpt lat="44.92535" lon="10.587705"><ele>24.0</ele><time>2026-04-04T12:19:10.404Z</time></trkpt><trkpt lat="44.9253467" lon="10.587895"><ele>24.0</ele><time>2026-04-04T12:19:11.403Z</time></trkpt><trkpt lat="44.9253417" lon="10.5880833"><ele>24.0</ele><time>2026-04-04T12:19:12.402Z</time></trkpt><trkpt lat="44.9253383" lon="10.5882733"><ele>24.0</ele><time>2026-04-04T12:19:13.404Z</time></trkpt><trkpt lat="44.9253317" lon="10.5884617"><ele>24.0</ele><time>2026-04-04T12:19:14.404Z</time></trkpt><trkpt lat="44.925325" lon="10.5886483"><ele>24.0</ele><time>2026-04-04T12:19:15.404Z</time></trkpt><trkpt lat="44.92532" lon="10.5888383"><ele>24.0</ele><time>2026-04-04T12:19:16.408Z</time></trkpt><trkpt lat="44.925315" lon="10.58903"><ele>24.0</ele><time>2026-04-04T12:19:17.404Z</time></trkpt><trkpt lat="44.9253117" lon="10.5892267"><ele>24.0</ele><time>2026-04-04T12:19:18.403Z</time></trkpt><trkpt lat="44.9253133" lon="10.5894283"><ele>24.0</ele><time>2026-04-04T12:19:19.404Z</time></trkpt><trkpt lat="44.9253217" lon="10.5896317"><ele>24.25</ele><time>2026-04-04T12:19:20.404Z</time></trkpt><trkpt lat="44.925335" lon="10.5898367"><ele>24.5</ele><time>2026-04-04T12:19:21.404Z</time></trkpt><trkpt lat="44.925355" lon="10.5900367"><ele>24.75</ele><time>2026-04-04T12:19:22.404Z</time></trkpt><trkpt lat="44.9253767" lon="10.5902217"><ele>25.0</ele><time>2026-04-04T12:19:23.403Z</time></trkpt><trkpt lat="44.9253967" lon="10.5903933"><ele>25.0</ele><time>2026-04-04T12:19:24.404Z</time></trkpt><trkpt lat="44.9254133" lon="10.5905567"><ele>25.0</ele><time>2026-04-04T12:19:25.403Z</time></trkpt><trkpt lat="44.9254317" lon="10.5907167"><ele>25.0</ele><time>2026-04-04T12:19:26.404Z</time></trkpt><trkpt lat="44.92545" lon="10.5908767"><ele>25.0</ele><time>2026-04-04T12:19:27.404Z</time></trkpt><trkpt lat="44.9254683" lon="10.5910383"><ele>25.0</ele><time>2026-04-04T12:19:28.404Z</time></trkpt><trkpt lat="44.9254867" lon="10.5911983"><ele>25.0</ele><time>2026-04-04T12:19:29.405Z</time></trkpt><trkpt lat="44.925505" lon="10.591365"><ele>25.0</ele><time>2026-04-04T12:19:30.405Z</time></trkpt><trkpt lat="44.92552" lon="10.5915367"><ele>25.0</ele><time>2026-04-04T12:19:31.404Z</time></trkpt><trkpt lat="44.9255283" lon="10.5917133"><ele>25.0</ele><time>2026-04-04T12:19:32.404Z</time></trkpt><trkpt lat="44.9255333" lon="10.5918983"><ele>25.0</ele><time>2026-04-04T12:19:33.405Z</time></trkpt><trkpt lat="44.92553" lon="10.59209"><ele>25.0</ele><time>2026-04-04T12:19:34.406Z</time></trkpt><trkpt lat="44.9255233" lon="10.59229"><ele>25.0</ele><time>2026-04-04T12:19:35.404Z</time></trkpt><trkpt lat="44.925525" lon="10.592495"><ele>24.75</ele><time>2026-04-04T12:19:36.403Z</time></trkpt><trkpt lat="44.9255333" lon="10.5926983"><ele>24.5</ele><time>2026-04-04T12:19:37.404Z</time></trkpt><trkpt lat="44.9255483" lon="10.5928983"><ele>24.25</ele><time>2026-04-04T12:19:38.405Z</time></trkpt><trkpt lat="44.925565" lon="10.5930967"><ele>24.0</ele><time>2026-04-04T12:19:39.404Z</time></trkpt><trkpt lat="44.9255833" lon="10.593295"><ele>24.0</ele><time>2026-04-04T12:19:40.404Z</time></trkpt><trkpt lat="44.925605" lon="10.5935"><ele>24.0</ele><time>2026-04-04T12:19:41.404Z</time></trkpt><trkpt lat="44.925625" lon="10.593705"><ele>24.0</ele><time>2026-04-04T12:19:42.404Z</time></trkpt><trkpt lat="44.92564" lon="10.5939017"><ele>24.0</ele><time>2026-04-04T12:19:43.405Z</time></trkpt><trkpt lat="44.9256467" lon="10.5940983"><ele>23.5</ele><time>2026-04-04T12:19:44.407Z</time></trkpt><trkpt lat="44.9256367" lon="10.5943033"><ele>23.0</ele><time>2026-04-04T12:19:45.404Z</time></trkpt><trkpt lat="44.9256167" lon="10.5945133"><ele>22.5</ele><time>2026-04-04T12:19:46.404Z</time></trkpt><trkpt lat="44.9255933" lon="10.59472"><ele>22.0</ele><time>2026-04-04T12:19:47.404Z</time></trkpt><trkpt lat="44.9255717" lon="10.594925"><ele>21.333333333333332</ele><time>2026-04-04T12:19:48.405Z</time></trkpt><trkpt lat="44.9255583" lon="10.595135"><ele>20.666666666666668</ele><time>2026-04-04T12:19:49.404Z</time></trkpt><trkpt lat="44.9255517" lon="10.5953517"><ele>20.0</ele><time>2026-04-04T12:19:50.404Z</time></trkpt><trkpt lat="44.9255483" lon="10.5955683"><ele>20.0</ele><time>2026-04-04T12:19:51.404Z</time></trkpt><trkpt lat="44.9255483" lon="10.5957783"><ele>20.0</ele><time>2026-04-04T12:19:52.405Z</time></trkpt><trkpt lat="44.9255517" lon="10.5959783"><ele>20.0</ele><time>2026-04-04T12:19:53.404Z</time></trkpt><trkpt lat="44.9255533" lon="10.596175"><ele>20.0</ele><time>2026-04-04T12:19:54.403Z</time></trkpt><trkpt lat="44.9255517" lon="10.5963717"><ele>20.0</ele><time>2026-04-04T12:19:55.404Z</time></trkpt><trkpt lat="44.92555" lon="10.5965683"><ele>20.0</ele><time>2026-04-04T12:19:56.404Z</time></trkpt><trkpt lat="44.9255483" lon="10.5967667"><ele>20.0</ele><time>2026-04-04T12:19:57.404Z</time></trkpt><trkpt lat="44.9255433" lon="10.5969633"><ele>20.0</ele><time>2026-04-04T12:19:58.404Z</time></trkpt><trkpt lat="44.9255367" lon="10.5971617"><ele>20.5</ele><time>2026-04-04T12:19:59.405Z</time></trkpt><trkpt lat="44.92553" lon="10.59736"><ele>21.0</ele><time>2026-04-04T12:20:00.404Z</time></trkpt><trkpt lat="44.925525" lon="10.5975567"><ele>21.5</ele><time>2026-04-04T12:20:01.404Z</time></trkpt><trkpt lat="44.9255183" lon="10.5977483"><ele>22.0</ele><time>2026-04-04T12:20:02.404Z</time></trkpt><trkpt lat="44.925515" lon="10.5979383"><ele>22.0</ele><time>2026-04-04T12:20:03.405Z</time></trkpt><trkpt lat="44.92551" lon="10.5981317"><ele>22.0</ele><time>2026-04-04T12:20:04.404Z</time></trkpt><trkpt lat="44.9255083" lon="10.5983283"><ele>22.0</ele><time>2026-04-04T12:20:05.404Z</time></trkpt><trkpt lat="44.9255067" lon="10.59852"><ele>22.0</ele><time>2026-04-04T12:20:06.404Z</time></trkpt><trkpt lat="44.925505" lon="10.5987067"><ele>22.0</ele><time>2026-04-04T12:20:07.404Z</time></trkpt><trkpt lat="44.9255" lon="10.59889"><ele>22.0</ele><time>2026-04-04T12:20:08.403Z</time></trkpt><trkpt lat="44.9254867" lon="10.59907"><ele>22.0</ele><time>2026-04-04T12:20:09.405Z</time></trkpt><trkpt lat="44.9254567" lon="10.5992433"><ele>22.0</ele><time>2026-04-04T12:20:10.404Z</time></trkpt><trkpt lat="44.9254117" lon="10.599405"><ele>21.5</ele><time>2026-04-04T12:20:11.405Z</time></trkpt><trkpt lat="44.925355" lon="10.599555"><ele>21.0</ele><time>2026-04-04T12:20:12.404Z</time></trkpt><trkpt lat="44.9252933" lon="10.5996983"><ele>20.5</ele><time>2026-04-04T12:20:13.404Z</time></trkpt><trkpt lat="44.92523" lon="10.5998383"><ele>20.0</ele><time>2026-04-04T12:20:14.404Z</time></trkpt><trkpt lat="44.9251683" lon="10.5999683"><ele>20.0</ele><time>2026-04-04T12:20:15.405Z</time></trkpt><trkpt lat="44.9251067" lon="10.6000983"><ele>20.0</ele><time>2026-04-04T12:20:16.405Z</time></trkpt><trkpt lat="44.9250483" lon="10.600225"><ele>20.0</ele><time>2026-04-04T12:20:17.404Z</time></trkpt><trkpt lat="44.92499" lon="10.600355"><ele>20.0</ele><time>2026-04-04T12:20:18.404Z</time></trkpt><trkpt lat="44.9249283" lon="10.600485"><ele>20.0</ele><time>2026-04-04T12:20:19.404Z</time></trkpt><trkpt lat="44.92487" lon="10.600615"><ele>20.0</ele><time>2026-04-04T12:20:20.404Z</time></trkpt><trkpt lat="44.9248133" lon="10.6007433"><ele>20.0</ele><time>2026-04-04T12:20:21.405Z</time></trkpt><trkpt lat="44.9247533" lon="10.600865"><ele>20.0</ele><time>2026-04-04T12:20:22.404Z</time></trkpt><trkpt lat="44.9246883" lon="10.6009733"><ele>20.0</ele><time>2026-04-04T12:20:23.404Z</time></trkpt><trkpt lat="44.9246067" lon="10.60105"><ele>20.0</ele><time>2026-04-04T12:20:24.403Z</time></trkpt><trkpt lat="44.9245133" lon="10.6010933"><ele>20.0</ele><time>2026-04-04T12:20:25.403Z</time></trkpt><trkpt lat="44.92441" lon="10.60111"><ele>20.0</ele><time>2026-04-04T12:20:26.405Z</time></trkpt><trkpt lat="44.9243" lon="10.6011083"><ele>20.0</ele><time>2026-04-04T12:20:27.405Z</time></trkpt><trkpt lat="44.9241833" lon="10.6011017"><ele>20.0</ele><time>2026-04-04T12:20:28.404Z</time></trkpt><trkpt lat="44.9240667" lon="10.6010917"><ele>20.0</ele><time>2026-04-04T12:20:29.405Z</time></trkpt><trkpt lat="44.9239517" lon="10.601085"><ele>20.2</ele><time>2026-04-04T12:20:30.405Z</time></trkpt><trkpt lat="44.923835" lon="10.60108"><ele>20.4</ele><time>2026-04-04T12:20:31.404Z</time></trkpt><trkpt lat="44.9237233" lon="10.6010833"><ele>20.6</ele><time>2026-04-04T12:20:32.405Z</time></trkpt><trkpt lat="44.9236133" lon="10.6011033"><ele>20.8</ele><time>2026-04-04T12:20:33.405Z</time></trkpt><trkpt lat="44.92351" lon="10.6011383"><ele>21.0</ele><time>2026-04-04T12:20:34.405Z</time></trkpt><trkpt lat="44.9234083" lon="10.6012"><ele>21.5</ele><time>2026-04-04T12:20:35.405Z</time></trkpt><trkpt lat="44.9233117" lon="10.60129"><ele>22.0</ele><time>2026-04-04T12:20:36.405Z</time></trkpt><trkpt lat="44.9232267" lon="10.601405"><ele>22.5</ele><time>2026-04-04T12:20:37.405Z</time></trkpt><trkpt lat="44.923145" lon="10.6015417"><ele>23.0</ele><time>2026-04-04T12:20:38.405Z</time></trkpt><trkpt lat="44.9230667" lon="10.601685"><ele>23.0</ele><time>2026-04-04T12:20:39.405Z</time></trkpt><trkpt lat="44.92299" lon="10.6018333"><ele>23.0</ele><time>2026-04-04T12:20:40.405Z</time></trkpt><trkpt lat="44.9229117" lon="10.6019867"><ele>23.0</ele><time>2026-04-04T12:20:41.405Z</time></trkpt><trkpt lat="44.9228333" lon="10.6021383"><ele>23.0</ele><time>2026-04-04T12:20:42.404Z</time></trkpt><trkpt lat="44.9227567" lon="10.6022867"><ele>23.2</ele><time>2026-04-04T12:20:43.407Z</time></trkpt><trkpt lat="44.9226867" lon="10.6024267"><ele>23.4</ele><time>2026-04-04T12:20:44.404Z</time></trkpt><trkpt lat="44.9226217" lon="10.6025567"><ele>23.599999999999998</ele><time>2026-04-04T12:20:45.405Z</time></trkpt><trkpt lat="44.9225617" lon="10.6026733"><ele>23.799999999999997</ele><time>2026-04-04T12:20:46.404Z</time></trkpt><trkpt lat="44.9225" lon="10.6027783"><ele>24.0</ele><time>2026-04-04T12:20:47.405Z</time></trkpt><trkpt lat="44.9224367" lon="10.60287"><ele>24.0</ele><time>2026-04-04T12:20:48.405Z</time></trkpt><trkpt lat="44.9223733" lon="10.60294"><ele>24.0</ele><time>2026-04-04T12:20:49.404Z</time></trkpt><trkpt lat="44.9223117" lon="10.6030067"><ele>24.0</ele><time>2026-04-04T12:20:50.405Z</time></trkpt><trkpt lat="44.92225" lon="10.603085"><ele>24.0</ele><time>2026-04-04T12:20:51.405Z</time></trkpt><trkpt lat="44.92219" lon="10.60317"><ele>24.0</ele><time>2026-04-04T12:20:52.405Z</time></trkpt><trkpt lat="44.9221333" lon="10.6032617"><ele>24.0</ele><time>2026-04-04T12:20:53.404Z</time></trkpt><trkpt lat="44.9220733" lon="10.603355"><ele>24.0</ele><time>2026-04-04T12:20:54.405Z</time></trkpt><trkpt lat="44.9220117" lon="10.603445"><ele>24.0</ele><time>2026-04-04T12:20:55.404Z</time></trkpt><trkpt lat="44.9219483" lon="10.60353"><ele>24.0</ele><time>2026-04-04T12:20:56.405Z</time></trkpt><trkpt lat="44.9218867" lon="10.603615"><ele>24.0</ele><time>2026-04-04T12:20:57.405Z</time></trkpt><trkpt lat="44.92183" lon="10.6037017"><ele>24.0</ele><time>2026-04-04T12:20:58.405Z</time></trkpt><trkpt lat="44.9217767" lon="10.6038"><ele>24.0</ele><time>2026-04-04T12:20:59.405Z</time></trkpt><trkpt lat="44.921735" lon="10.6039083"><ele>24.0</ele><time>2026-04-04T12:21:00.405Z</time></trkpt><trkpt lat="44.9217017" lon="10.6040283"><ele>24.0</ele><time>2026-04-04T12:21:01.405Z</time></trkpt><trkpt lat="44.9216783" lon="10.604165"><ele>24.0</ele><time>2026-04-04T12:21:02.404Z</time></trkpt><trkpt lat="44.9216633" lon="10.6042967"><ele>24.0</ele><time>2026-04-04T12:21:03.404Z</time></trkpt><trkpt lat="44.9216533" lon="10.60443"><ele>24.0</ele><time>2026-04-04T12:21:04.404Z</time></trkpt><trkpt lat="44.9216517" lon="10.6045567"><ele>24.0</ele><time>2026-04-04T12:21:05.404Z</time></trkpt><trkpt lat="44.921655" lon="10.60468"><ele>24.0</ele><time>2026-04-04T12:21:06.404Z</time></trkpt><trkpt lat="44.921665" lon="10.604805"><ele>24.0</ele><time>2026-04-04T12:21:07.404Z</time></trkpt><trkpt lat="44.9216783" lon="10.6049317"><ele>24.0</ele><time>2026-04-04T12:21:08.405Z</time></trkpt><trkpt lat="44.9216967" lon="10.6050667"><ele>24.0</ele><time>2026-04-04T12:21:09.404Z</time></trkpt><trkpt lat="44.9217117" lon="10.6052083"><ele>23.4</ele><time>2026-04-04T12:21:10.404Z</time></trkpt><trkpt lat="44.9217267" lon="10.6053517"><ele>22.799999999999997</ele><time>2026-04-04T12:21:11.405Z</time></trkpt><trkpt lat="44.921745" lon="10.605505"><ele>22.200000000000003</ele><time>2026-04-04T12:21:12.405Z</time></trkpt><trkpt lat="44.9217617" lon="10.6056567"><ele>21.6</ele><time>2026-04-04T12:21:13.404Z</time></trkpt><trkpt lat="44.9217783" lon="10.6058117"><ele>21.0</ele><time>2026-04-04T12:21:14.403Z</time></trkpt><trkpt lat="44.921795" lon="10.605965"><ele>21.0</ele><time>2026-04-04T12:21:15.404Z</time></trkpt><trkpt lat="44.9218117" lon="10.6061183"><ele>21.0</ele><time>2026-04-04T12:21:16.402Z</time></trkpt><trkpt lat="44.92183" lon="10.60627"><ele>21.0</ele><time>2026-04-04T12:21:17.403Z</time></trkpt><trkpt lat="44.9218467" lon="10.60642"><ele>21.0</ele><time>2026-04-04T12:21:18.404Z</time></trkpt><trkpt lat="44.9218617" lon="10.606565"><ele>21.0</ele><time>2026-04-04T12:21:19.403Z</time></trkpt><trkpt lat="44.9218767" lon="10.6067033"><ele>21.0</ele><time>2026-04-04T12:21:20.402Z</time></trkpt><trkpt lat="44.921895" lon="10.6068383"><ele>21.0</ele><time>2026-04-04T12:21:21.404Z</time></trkpt><trkpt lat="44.92191" lon="10.6069683"><ele>21.0</ele><time>2026-04-04T12:21:22.403Z</time></trkpt><trkpt lat="44.9219233" lon="10.6070917"><ele>21.0</ele><time>2026-04-04T12:21:23.403Z</time></trkpt><trkpt lat="44.9219333" lon="10.6072033"><ele>21.0</ele><time>2026-04-04T12:21:24.403Z</time></trkpt><trkpt lat="44.92194" lon="10.6073167"><ele>21.0</ele><time>2026-04-04T12:21:25.403Z</time></trkpt><trkpt lat="44.92195" lon="10.60743"><ele>21.0</ele><time>2026-04-04T12:21:26.403Z</time></trkpt><trkpt lat="44.9219617" lon="10.6075483"><ele>21.0</ele><time>2026-04-04T12:21:27.404Z</time></trkpt><trkpt lat="44.9219833" lon="10.60766"><ele>21.0</ele><time>2026-04-04T12:21:28.403Z</time></trkpt><trkpt lat="44.922015" lon="10.60777"><ele>21.0</ele><time>2026-04-04T12:21:29.403Z</time></trkpt><trkpt lat="44.9220583" lon="10.6078767"><ele>21.0</ele><time>2026-04-04T12:21:30.404Z</time></trkpt><trkpt lat="44.92211" lon="10.6079883"><ele>21.0</ele><time>2026-04-04T12:21:31.403Z</time></trkpt><trkpt lat="44.9221717" lon="10.6081033"><ele>21.200000000000003</ele><time>2026-04-04T12:21:32.403Z</time></trkpt><trkpt lat="44.922245" lon="10.6082183"><ele>21.400000000000002</ele><time>2026-04-04T12:21:33.404Z</time></trkpt><trkpt lat="44.9223233" lon="10.608335"><ele>21.6</ele><time>2026-04-04T12:21:34.404Z</time></trkpt><trkpt lat="44.9223933" lon="10.6084467"><ele>21.8</ele><time>2026-04-04T12:21:35.403Z</time></trkpt><trkpt lat="44.9224583" lon="10.6085533"><ele>22.0</ele><time>2026-04-04T12:21:36.403Z</time></trkpt><trkpt lat="44.9225117" lon="10.6086533"><ele>22.0</ele><time>2026-04-04T12:21:37.403Z</time></trkpt><trkpt lat="44.922555" lon="10.6087517"><ele>22.0</ele><time>2026-04-04T12:21:38.403Z</time></trkpt><trkpt lat="44.9225983" lon="10.608855"><ele>22.0</ele><time>2026-04-04T12:21:39.404Z</time></trkpt><trkpt lat="44.9226367" lon="10.6089617"><ele>22.0</ele><time>2026-04-04T12:21:40.403Z</time></trkpt><trkpt lat="44.922675" lon="10.6090717"><ele>22.0</ele><time>2026-04-04T12:21:41.403Z</time></trkpt><trkpt lat="44.9227133" lon="10.6091817"><ele>22.0</ele><time>2026-04-04T12:21:42.404Z</time></trkpt><trkpt lat="44.92275" lon="10.6092917"><ele>22.6</ele><time>2026-04-04T12:21:43.404Z</time></trkpt><trkpt lat="44.9227883" lon="10.609405"><ele>23.200000000000003</ele><time>2026-04-04T12:21:44.403Z</time></trkpt><trkpt lat="44.9228317" lon="10.6095233"><ele>23.8</ele><time>2026-04-04T12:21:45.404Z</time></trkpt><trkpt lat="44.9228733" lon="10.6096383"><ele>24.4</ele><time>2026-04-04T12:21:46.404Z</time></trkpt><trkpt lat="44.9229133" lon="10.6097567"><ele>25.0</ele><time>2026-04-04T12:21:47.404Z</time></trkpt><trkpt lat="44.922955" lon="10.6098767"><ele>25.0</ele><time>2026-04-04T12:21:48.403Z</time></trkpt><trkpt lat="44.922995" lon="10.609995"><ele>25.0</ele><time>2026-04-04T12:21:49.404Z</time></trkpt><trkpt lat="44.9230267" lon="10.6101133"><ele>25.0</ele><time>2026-04-04T12:21:50.405Z</time></trkpt><trkpt lat="44.92306" lon="10.6102333"><ele>25.0</ele><time>2026-04-04T12:21:51.405Z</time></trkpt><trkpt lat="44.923095" lon="10.6103617"><ele>25.0</ele><time>2026-04-04T12:21:52.402Z</time></trkpt><trkpt lat="44.92313" lon="10.610495"><ele>24.8</ele><time>2026-04-04T12:21:53.404Z</time></trkpt><trkpt lat="44.9231633" lon="10.6106267"><ele>24.6</ele><time>2026-04-04T12:21:54.402Z</time></trkpt><trkpt lat="44.9231933" lon="10.6107617"><ele>24.4</ele><time>2026-04-04T12:21:55.404Z</time></trkpt><trkpt lat="44.9232267" lon="10.6108983"><ele>24.2</ele><time>2026-04-04T12:21:56.403Z</time></trkpt><trkpt lat="44.9232567" lon="10.611035"><ele>24.0</ele><time>2026-04-04T12:21:57.404Z</time></trkpt><trkpt lat="44.923285" lon="10.6111633"><ele>24.0</ele><time>2026-04-04T12:21:58.403Z</time></trkpt><trkpt lat="44.9233117" lon="10.6112783"><ele>24.0</ele><time>2026-04-04T12:21:59.404Z</time></trkpt><trkpt lat="44.9233383" lon="10.6113783"><ele>24.0</ele><time>2026-04-04T12:22:00.403Z</time></trkpt><trkpt lat="44.9233633" lon="10.61147"><ele>24.0</ele><time>2026-04-04T12:22:01.403Z</time></trkpt><trkpt lat="44.9233867" lon="10.61156"><ele>24.0</ele><time>2026-04-04T12:22:02.404Z</time></trkpt><trkpt lat="44.9234033" lon="10.6116483"><ele>24.0</ele><time>2026-04-04T12:22:03.404Z</time></trkpt><trkpt lat="44.9234383" lon="10.61182"><ele>23.999999999999996</ele><time>2026-04-04T12:22:05.404Z</time></trkpt><trkpt lat="44.9234583" lon="10.6119117"><ele>24.0</ele><time>2026-04-04T12:22:06.404Z</time></trkpt><trkpt lat="44.9234767" lon="10.6120033"><ele>24.0</ele><time>2026-04-04T12:22:07.403Z</time></trkpt><trkpt lat="44.923495" lon="10.612095"><ele>24.0</ele><time>2026-04-04T12:22:08.403Z</time></trkpt><trkpt lat="44.923515" lon="10.6121883"><ele>24.0</ele><time>2026-04-04T12:22:09.404Z</time></trkpt><trkpt lat="44.9235333" lon="10.612285"><ele>23.999999999999996</ele><time>2026-04-04T12:22:10.404Z</time></trkpt><trkpt lat="44.9235567" lon="10.61239"><ele>24.0</ele><time>2026-04-04T12:22:11.404Z</time></trkpt><trkpt lat="44.92358" lon="10.6125033"><ele>24.0</ele><time>2026-04-04T12:22:12.404Z</time></trkpt><trkpt lat="44.923605" lon="10.612615"><ele>24.0</ele><time>2026-04-04T12:22:13.404Z</time></trkpt><trkpt lat="44.9236283" lon="10.6127233"><ele>24.0</ele><time>2026-04-04T12:22:14.403Z</time></trkpt><trkpt lat="44.92365" lon="10.61283"><ele>24.0</ele><time>2026-04-04T12:22:15.404Z</time></trkpt><trkpt lat="44.923675" lon="10.6129283"><ele>24.0</ele><time>2026-04-04T12:22:16.403Z</time></trkpt><trkpt lat="44.9236983" lon="10.6130183"><ele>24.0</ele><time>2026-04-04T12:22:17.404Z</time></trkpt><trkpt lat="44.9237333" lon="10.6131883"><ele>23.71428571428571</ele><time>2026-04-04T12:22:19.404Z</time></trkpt><trkpt lat="44.923755" lon="10.6132783"><ele>23.428571428571427</ele><time>2026-04-04T12:22:20.403Z</time></trkpt><trkpt lat="44.9237767" lon="10.6133733"><ele>23.142857142857142</ele><time>2026-04-04T12:22:21.405Z</time></trkpt><trkpt lat="44.923795" lon="10.6134733"><ele>22.857142857142854</ele><time>2026-04-04T12:22:22.403Z</time></trkpt><trkpt lat="44.9238133" lon="10.6135717"><ele>22.57142857142857</ele><time>2026-04-04T12:22:23.404Z</time></trkpt><trkpt lat="44.923835" lon="10.6136717"><ele>22.285714285714285</ele><time>2026-04-04T12:22:24.405Z</time></trkpt><trkpt lat="44.9238517" lon="10.6137667"><ele>22.0</ele><time>2026-04-04T12:22:25.404Z</time></trkpt><trkpt lat="44.92387" lon="10.6138633"><ele>22.0</ele><time>2026-04-04T12:22:26.403Z</time></trkpt><trkpt lat="44.9238883" lon="10.6139583"><ele>22.0</ele><time>2026-04-04T12:22:27.403Z</time></trkpt><trkpt lat="44.92391" lon="10.614055"><ele>22.0</ele><time>2026-04-04T12:22:28.403Z</time></trkpt><trkpt lat="44.92393" lon="10.6141567"><ele>22.0</ele><time>2026-04-04T12:22:29.402Z</time></trkpt><trkpt lat="44.92395" lon="10.6142617"><ele>22.0</ele><time>2026-04-04T12:22:30.405Z</time></trkpt><trkpt lat="44.9239717" lon="10.614365"><ele>22.0</ele><time>2026-04-04T12:22:31.403Z</time></trkpt><trkpt lat="44.9239917" lon="10.614465"><ele>22.0</ele><time>2026-04-04T12:22:32.405Z</time></trkpt><trkpt lat="44.9240133" lon="10.6145667"><ele>22.166666666666664</ele><time>2026-04-04T12:22:33.404Z</time></trkpt><trkpt lat="44.924035" lon="10.6146717"><ele>22.333333333333332</ele><time>2026-04-04T12:22:34.403Z</time></trkpt><trkpt lat="44.9240583" lon="10.614785"><ele>22.5</ele><time>2026-04-04T12:22:35.405Z</time></trkpt><trkpt lat="44.92408" lon="10.6149017"><ele>22.666666666666668</ele><time>2026-04-04T12:22:36.406Z</time></trkpt><trkpt lat="44.9241033" lon="10.615015"><ele>22.833333333333336</ele><time>2026-04-04T12:22:37.407Z</time></trkpt><trkpt lat="44.9241267" lon="10.61512"><ele>23.0</ele><time>2026-04-04T12:22:38.406Z</time></trkpt><trkpt lat="44.9241433" lon="10.6152133"><ele>23.0</ele><time>2026-04-04T12:22:39.406Z</time></trkpt><trkpt lat="44.924165" lon="10.61531"><ele>23.0</ele><time>2026-04-04T12:22:40.406Z</time></trkpt><trkpt lat="44.9241917" lon="10.6154183"><ele>23.0</ele><time>2026-04-04T12:22:41.405Z</time></trkpt><trkpt lat="44.9242167" lon="10.6155267"><ele>23.0</ele><time>2026-04-04T12:22:42.406Z</time></trkpt><trkpt lat="44.9242417" lon="10.6156367"><ele>23.0</ele><time>2026-04-04T12:22:43.406Z</time></trkpt><trkpt lat="44.924265" lon="10.61575"><ele>23.0</ele><time>2026-04-04T12:22:44.406Z</time></trkpt><trkpt lat="44.924285" lon="10.6158633"><ele>23.0</ele><time>2026-04-04T12:22:45.405Z</time></trkpt><trkpt lat="44.924305" lon="10.6159717"><ele>23.0</ele><time>2026-04-04T12:22:46.404Z</time></trkpt><trkpt lat="44.9243267" lon="10.6160733"><ele>23.0</ele><time>2026-04-04T12:22:47.405Z</time></trkpt><trkpt lat="44.9243467" lon="10.6161667"><ele>23.0</ele><time>2026-04-04T12:22:48.404Z</time></trkpt><trkpt lat="44.9243683" lon="10.6162567"><ele>23.0</ele><time>2026-04-04T12:22:49.404Z</time></trkpt><trkpt lat="44.92439" lon="10.6163567"><ele>23.0</ele><time>2026-04-04T12:22:50.404Z</time></trkpt><trkpt lat="44.9244067" lon="10.6164617"><ele>23.0</ele><time>2026-04-04T12:22:51.404Z</time></trkpt><trkpt lat="44.924425" lon="10.6165533"><ele>23.0</ele><time>2026-04-04T12:22:52.406Z</time></trkpt><trkpt lat="44.9244417" lon="10.616655"><ele>23.0</ele><time>2026-04-04T12:22:53.406Z</time></trkpt><trkpt lat="44.9244567" lon="10.61676"><ele>23.0</ele><time>2026-04-04T12:22:54.406Z</time></trkpt><trkpt lat="44.924475" lon="10.6168567"><ele>23.0</ele><time>2026-04-04T12:22:55.404Z</time></trkpt><trkpt lat="44.9245" lon="10.6170033"><ele>23.0</ele><time>2026-04-04T12:22:57.404Z</time></trkpt><trkpt lat="44.9245333" lon="10.6171467"><ele>23.0</ele><time>2026-04-04T12:22:59.404Z</time></trkpt><trkpt lat="44.924575" lon="10.61732"><ele>22.857142857142858</ele><time>2026-04-04T12:23:01.403Z</time></trkpt><trkpt lat="44.9245967" lon="10.6174133"><ele>22.71428571428571</ele><time>2026-04-04T12:23:02.404Z</time></trkpt><trkpt lat="44.92462" lon="10.617505"><ele>22.57142857142857</ele><time>2026-04-04T12:23:03.403Z</time></trkpt><trkpt lat="44.9246417" lon="10.6176017"><ele>22.42857142857143</ele><time>2026-04-04T12:23:04.404Z</time></trkpt><trkpt lat="44.9246567" lon="10.6176967"><ele>22.285714285714285</ele><time>2026-04-04T12:23:05.404Z</time></trkpt><trkpt lat="44.9246717" lon="10.6177917"><ele>22.142857142857142</ele><time>2026-04-04T12:23:06.404Z</time></trkpt><trkpt lat="44.924685" lon="10.61789"><ele>22.0</ele><time>2026-04-04T12:23:07.403Z</time></trkpt><trkpt lat="44.9247033" lon="10.617985"><ele>22.0</ele><time>2026-04-04T12:23:08.403Z</time></trkpt><trkpt lat="44.9247233" lon="10.6180783"><ele>22.0</ele><time>2026-04-04T12:23:09.405Z</time></trkpt><trkpt lat="44.924745" lon="10.618175"><ele>22.0</ele><time>2026-04-04T12:23:10.404Z</time></trkpt><trkpt lat="44.924765" lon="10.6182767"><ele>22.0</ele><time>2026-04-04T12:23:11.403Z</time></trkpt><trkpt lat="44.9247817" lon="10.618375"><ele>22.0</ele><time>2026-04-04T12:23:12.404Z</time></trkpt><trkpt lat="44.9247983" lon="10.618475"><ele>22.0</ele><time>2026-04-04T12:23:13.404Z</time></trkpt><trkpt lat="44.9248167" lon="10.6185733"><ele>22.0</ele><time>2026-04-04T12:23:14.404Z</time></trkpt><trkpt lat="44.9248333" lon="10.618665"><ele>22.0</ele><time>2026-04-04T12:23:15.405Z</time></trkpt><trkpt lat="44.924855" lon="10.61875"><ele>22.0</ele><time>2026-04-04T12:23:16.404Z</time></trkpt><trkpt lat="44.9248917" lon="10.618905"><ele>22.0</ele><time>2026-04-04T12:23:18.404Z</time></trkpt><trkpt lat="44.9249417" lon="10.61901"><ele>22.0</ele><time>2026-04-04T12:23:20.404Z</time></trkpt><trkpt lat="44.9250267" lon="10.619075"><ele>22.0</ele><time>2026-04-04T12:23:22.406Z</time></trkpt><trkpt lat="44.9251083" lon="10.6191233"><ele>22.0</ele><time>2026-04-04T12:23:24.406Z</time></trkpt><trkpt lat="44.9251833" lon="10.6192"><ele>22.0</ele><time>2026-04-04T12:23:26.404Z</time></trkpt><trkpt lat="44.9252567" lon="10.6193233"><ele>22.0</ele><time>2026-04-04T12:23:28.403Z</time></trkpt><trkpt lat="44.9253133" lon="10.6194567"><ele>22.0</ele><time>2026-04-04T12:23:30.404Z</time></trkpt><trkpt lat="44.9253517" lon="10.6196017"><ele>22.0</ele><time>2026-04-04T12:23:32.404Z</time></trkpt><trkpt lat="44.9254083" lon="10.619755"><ele>22.285714285714285</ele><time>2026-04-04T12:23:34.404Z</time></trkpt><trkpt lat="44.925435" lon="10.6198367"><ele>22.57142857142857</ele><time>2026-04-04T12:23:35.404Z</time></trkpt><trkpt lat="44.9254667" lon="10.61992"><ele>22.857142857142854</ele><time>2026-04-04T12:23:36.403Z</time></trkpt><trkpt lat="44.9255017" lon="10.62001"><ele>23.142857142857142</ele><time>2026-04-04T12:23:37.403Z</time></trkpt><trkpt lat="44.9255333" lon="10.6201083"><ele>23.428571428571427</ele><time>2026-04-04T12:23:38.404Z</time></trkpt><trkpt lat="44.9255667" lon="10.6202017"><ele>23.71428571428571</ele><time>2026-04-04T12:23:39.404Z</time></trkpt><trkpt lat="44.9256017" lon="10.62029"><ele>24.0</ele><time>2026-04-04T12:23:40.403Z</time></trkpt><trkpt lat="44.925635" lon="10.6203783"><ele>23.999999999999996</ele><time>2026-04-04T12:23:41.404Z</time></trkpt><trkpt lat="44.925665" lon="10.62047"><ele>24.0</ele><time>2026-04-04T12:23:42.403Z</time></trkpt><trkpt lat="44.9256983" lon="10.62057"><ele>24.0</ele><time>2026-04-04T12:23:43.404Z</time></trkpt><trkpt lat="44.9257317" lon="10.6206667"><ele>24.0</ele><time>2026-04-04T12:23:44.405Z</time></trkpt><trkpt lat="44.9257667" lon="10.6207517"><ele>24.0</ele><time>2026-04-04T12:23:45.406Z</time></trkpt><trkpt lat="44.9258033" lon="10.6208267"><ele>23.999999999999996</ele><time>2026-04-04T12:23:46.404Z</time></trkpt><trkpt lat="44.9258367" lon="10.6209133"><ele>24.0</ele><time>2026-04-04T12:23:47.406Z</time></trkpt><trkpt lat="44.9258733" lon="10.6210567"><ele>24.2</ele><time>2026-04-04T12:23:49.406Z</time></trkpt><trkpt lat="44.9258633" lon="10.6212033"><ele>24.4</ele><time>2026-04-04T12:23:51.406Z</time></trkpt><trkpt lat="44.925805" lon="10.621315"><ele>24.6</ele><time>2026-04-04T12:23:53.404Z</time></trkpt><trkpt lat="44.9257283" lon="10.62138"><ele>24.8</ele><time>2026-04-04T12:23:55.405Z</time></trkpt><trkpt lat="44.925645" lon="10.6214483"><ele>25.0</ele><time>2026-04-04T12:23:57.405Z</time></trkpt><trkpt lat="44.9255967" lon="10.6215633"><ele>25.000000000000004</ele><time>2026-04-04T12:23:59.405Z</time></trkpt><trkpt lat="44.92562" lon="10.6216967"><ele>25.0</ele><time>2026-04-04T12:24:01.404Z</time></trkpt><trkpt lat="44.9256817" lon="10.6218533"><ele>25.0</ele><time>2026-04-04T12:24:03.404Z</time></trkpt><trkpt lat="44.925715" lon="10.6219467"><ele>25.0</ele><time>2026-04-04T12:24:04.404Z</time></trkpt><trkpt lat="44.925745" lon="10.6220467"><ele>25.000000000000004</ele><time>2026-04-04T12:24:05.403Z</time></trkpt><trkpt lat="44.9257767" lon="10.62214"><ele>25.0</ele><time>2026-04-04T12:24:06.403Z</time></trkpt><trkpt lat="44.9258117" lon="10.6222333"><ele>25.000000000000004</ele><time>2026-04-04T12:24:07.404Z</time></trkpt><trkpt lat="44.9258417" lon="10.622335"><ele>25.0</ele><time>2026-04-04T12:24:08.404Z</time></trkpt><trkpt lat="44.9258783" lon="10.622435"><ele>25.0</ele><time>2026-04-04T12:24:09.405Z</time></trkpt><trkpt lat="44.9259133" lon="10.622535"><ele>25.0</ele><time>2026-04-04T12:24:10.404Z</time></trkpt><trkpt lat="44.9259467" lon="10.6226317"><ele>25.000000000000004</ele><time>2026-04-04T12:24:11.404Z</time></trkpt><trkpt lat="44.9259817" lon="10.6227283"><ele>25.0</ele><time>2026-04-04T12:24:12.404Z</time></trkpt><trkpt lat="44.9260117" lon="10.6228167"><ele>25.500000000000004</ele><time>2026-04-04T12:24:13.404Z</time></trkpt><trkpt lat="44.9260383" lon="10.6229033"><ele>26.0</ele><time>2026-04-04T12:24:14.404Z</time></trkpt><trkpt lat="44.9260667" lon="10.623065"><ele>26.5</ele><time>2026-04-04T12:24:16.405Z</time></trkpt><trkpt lat="44.9260617" lon="10.623155"><ele>27.0</ele><time>2026-04-04T12:24:17.404Z</time></trkpt><trkpt lat="44.9260467" lon="10.623245"><ele>27.500000000000004</ele><time>2026-04-04T12:24:18.403Z</time></trkpt><trkpt lat="44.926025" lon="10.6233333"><ele>28.0</ele><time>2026-04-04T12:24:19.404Z</time></trkpt><trkpt lat="44.9259883" lon="10.623485"><ele>28.0</ele><time>2026-04-04T12:24:21.405Z</time></trkpt><trkpt lat="44.9259683" lon="10.6236333"><ele>27.999999999999996</ele><time>2026-04-04T12:24:23.405Z</time></trkpt><trkpt lat="44.9259767" lon="10.623795"><ele>27.999999999999996</ele><time>2026-04-04T12:24:25.406Z</time></trkpt><trkpt lat="44.9260117" lon="10.6239433"><ele>28.0</ele><time>2026-04-04T12:24:27.405Z</time></trkpt><trkpt lat="44.926065" lon="10.6240817"><ele>28.0</ele><time>2026-04-04T12:24:29.404Z</time></trkpt><trkpt lat="44.9261233" lon="10.624225"><ele>27.833333333333336</ele><time>2026-04-04T12:24:31.406Z</time></trkpt><trkpt lat="44.9261517" lon="10.624305"><ele>27.666666666666668</ele><time>2026-04-04T12:24:32.406Z</time></trkpt><trkpt lat="44.9261817" lon="10.62439"><ele>27.5</ele><time>2026-04-04T12:24:33.406Z</time></trkpt><trkpt lat="44.9262133" lon="10.6244783"><ele>27.333333333333336</ele><time>2026-04-04T12:24:34.406Z</time></trkpt><trkpt lat="44.926265" lon="10.624635"><ele>27.166666666666668</ele><time>2026-04-04T12:24:36.405Z</time></trkpt><trkpt lat="44.9262933" lon="10.62472"><ele>27.0</ele><time>2026-04-04T12:24:37.406Z</time></trkpt><trkpt lat="44.9263233" lon="10.6248083"><ele>27.0</ele><time>2026-04-04T12:24:38.404Z</time></trkpt><trkpt lat="44.926355" lon="10.624905"><ele>27.0</ele><time>2026-04-04T12:24:39.403Z</time></trkpt><trkpt lat="44.9263917" lon="10.625"><ele>27.0</ele><time>2026-04-04T12:24:40.404Z</time></trkpt><trkpt lat="44.9264217" lon="10.62509"><ele>27.0</ele><time>2026-04-04T12:24:41.404Z</time></trkpt><trkpt lat="44.9264467" lon="10.6251933"><ele>27.0</ele><time>2026-04-04T12:24:42.404Z</time></trkpt><trkpt lat="44.9264717" lon="10.625295"><ele>27.0</ele><time>2026-04-04T12:24:43.405Z</time></trkpt><trkpt lat="44.9265" lon="10.6254017"><ele>26.5</ele><time>2026-04-04T12:24:44.405Z</time></trkpt><trkpt lat="44.9265233" lon="10.6255167"><ele>26.0</ele><time>2026-04-04T12:24:45.405Z</time></trkpt><trkpt lat="44.9265517" lon="10.625625"><ele>25.5</ele><time>2026-04-04T12:24:46.404Z</time></trkpt><trkpt lat="44.926585" lon="10.6257233"><ele>25.0</ele><time>2026-04-04T12:24:47.404Z</time></trkpt><trkpt lat="44.926625" lon="10.6258267"><ele>24.5</ele><time>2026-04-04T12:24:48.405Z</time></trkpt><trkpt lat="44.9266617" lon="10.6259233"><ele>24.0</ele><time>2026-04-04T12:24:49.404Z</time></trkpt><trkpt lat="44.9266983" lon="10.62602"><ele>24.0</ele><time>2026-04-04T12:24:50.404Z</time></trkpt><trkpt lat="44.9267417" lon="10.6261067"><ele>24.0</ele><time>2026-04-04T12:24:51.406Z</time></trkpt><trkpt lat="44.9267833" lon="10.6261917"><ele>24.0</ele><time>2026-04-04T12:24:52.405Z</time></trkpt><trkpt lat="44.926825" lon="10.62628"><ele>24.0</ele><time>2026-04-04T12:24:53.405Z</time></trkpt><trkpt lat="44.9268683" lon="10.62637"><ele>24.0</ele><time>2026-04-04T12:24:54.406Z</time></trkpt><trkpt lat="44.9269133" lon="10.6264633"><ele>24.0</ele><time>2026-04-04T12:24:55.404Z</time></trkpt><trkpt lat="44.9269583" lon="10.626565"><ele>24.0</ele><time>2026-04-04T12:24:56.406Z</time></trkpt><trkpt lat="44.927005" lon="10.6266683"><ele>24.0</ele><time>2026-04-04T12:24:57.405Z</time></trkpt><trkpt lat="44.9270517" lon="10.626775"><ele>24.0</ele><time>2026-04-04T12:24:58.404Z</time></trkpt><trkpt lat="44.9270933" lon="10.6268833"><ele>24.0</ele><time>2026-04-04T12:24:59.405Z</time></trkpt><trkpt lat="44.92714" lon="10.6269883"><ele>24.0</ele><time>2026-04-04T12:25:00.405Z</time></trkpt><trkpt lat="44.9271833" lon="10.6270883"><ele>24.0</ele><time>2026-04-04T12:25:01.405Z</time></trkpt><trkpt lat="44.92723" lon="10.62719"><ele>24.166666666666668</ele><time>2026-04-04T12:25:02.404Z</time></trkpt><trkpt lat="44.9272767" lon="10.6272917"><ele>24.333333333333336</ele><time>2026-04-04T12:25:03.405Z</time></trkpt><trkpt lat="44.92732" lon="10.62739"><ele>24.5</ele><time>2026-04-04T12:25:04.404Z</time></trkpt><trkpt lat="44.9273633" lon="10.62749"><ele>24.666666666666668</ele><time>2026-04-04T12:25:05.403Z</time></trkpt><trkpt lat="44.9274083" lon="10.6275817"><ele>24.833333333333336</ele><time>2026-04-04T12:25:06.405Z</time></trkpt><trkpt lat="44.9274583" lon="10.6276683"><ele>25.0</ele><time>2026-04-04T12:25:07.404Z</time></trkpt><trkpt lat="44.9275133" lon="10.62775"><ele>24.500000000000004</ele><time>2026-04-04T12:25:08.406Z</time></trkpt><trkpt lat="44.9275717" lon="10.6278217"><ele>24.0</ele><time>2026-04-04T12:25:09.405Z</time></trkpt><trkpt lat="44.927635" lon="10.6278917"><ele>23.5</ele><time>2026-04-04T12:25:10.403Z</time></trkpt><trkpt lat="44.927705" lon="10.6279617"><ele>23.0</ele><time>2026-04-04T12:25:11.404Z</time></trkpt><trkpt lat="44.9277767" lon="10.628035"><ele>22.5</ele><time>2026-04-04T12:25:12.407Z</time></trkpt><trkpt lat="44.9278433" lon="10.62811"><ele>22.0</ele><time>2026-04-04T12:25:13.406Z</time></trkpt><trkpt lat="44.9279067" lon="10.6281883"><ele>22.0</ele><time>2026-04-04T12:25:14.405Z</time></trkpt><trkpt lat="44.92797" lon="10.6282633"><ele>22.0</ele><time>2026-04-04T12:25:15.405Z</time></trkpt><trkpt lat="44.92803" lon="10.6283367"><ele>22.0</ele><time>2026-04-04T12:25:16.404Z</time></trkpt><trkpt lat="44.9280933" lon="10.6284117"><ele>22.0</ele><time>2026-04-04T12:25:17.405Z</time></trkpt><trkpt lat="44.92816" lon="10.628485"><ele>22.0</ele><time>2026-04-04T12:25:18.405Z</time></trkpt><trkpt lat="44.9282267" lon="10.6285533"><ele>22.0</ele><time>2026-04-04T12:25:19.404Z</time></trkpt><trkpt lat="44.9282933" lon="10.628625"><ele>21.833333333333332</ele><time>2026-04-04T12:25:20.405Z</time></trkpt><trkpt lat="44.92836" lon="10.6287017"><ele>21.666666666666664</ele><time>2026-04-04T12:25:21.405Z</time></trkpt><trkpt lat="44.9284283" lon="10.6287817"><ele>21.5</ele><time>2026-04-04T12:25:22.405Z</time></trkpt><trkpt lat="44.9285017" lon="10.6288567"><ele>21.333333333333332</ele><time>2026-04-04T12:25:23.404Z</time></trkpt><trkpt lat="44.928575" lon="10.628925"><ele>21.166666666666668</ele><time>2026-04-04T12:25:24.407Z</time></trkpt><trkpt lat="44.9286467" lon="10.62899"><ele>21.0</ele><time>2026-04-04T12:25:25.406Z</time></trkpt><trkpt lat="44.9287317" lon="10.6290533"><ele>21.0</ele><time>2026-04-04T12:25:26.407Z</time></trkpt><trkpt lat="44.9288183" lon="10.6291217"><ele>21.0</ele><time>2026-04-04T12:25:27.408Z</time></trkpt><trkpt lat="44.9289067" lon="10.6291933"><ele>21.0</ele><time>2026-04-04T12:25:28.407Z</time></trkpt><trkpt lat="44.9289917" lon="10.6292667"><ele>21.0</ele><time>2026-04-04T12:25:29.406Z</time></trkpt><trkpt lat="44.9290767" lon="10.629335"><ele>21.0</ele><time>2026-04-04T12:25:30.407Z</time></trkpt><trkpt lat="44.929155" lon="10.629405"><ele>20.833333333333332</ele><time>2026-04-04T12:25:31.407Z</time></trkpt><trkpt lat="44.9292367" lon="10.6294767"><ele>20.666666666666668</ele><time>2026-04-04T12:25:32.407Z</time></trkpt><trkpt lat="44.9293083" lon="10.6295467"><ele>20.5</ele><time>2026-04-04T12:25:33.407Z</time></trkpt><trkpt lat="44.9293833" lon="10.6296067"><ele>20.333333333333336</ele><time>2026-04-04T12:25:34.406Z</time></trkpt><trkpt lat="44.9294633" lon="10.629655"><ele>20.166666666666668</ele><time>2026-04-04T12:25:35.404Z</time></trkpt><trkpt lat="44.9295383" lon="10.6296933"><ele>20.0</ele><time>2026-04-04T12:25:36.405Z</time></trkpt><trkpt lat="44.9296167" lon="10.6297267"><ele>20.0</ele><time>2026-04-04T12:25:37.404Z</time></trkpt><trkpt lat="44.929695" lon="10.6297683"><ele>20.0</ele><time>2026-04-04T12:25:38.405Z</time></trkpt><trkpt lat="44.929775" lon="10.6298117"><ele>20.0</ele><time>2026-04-04T12:25:39.404Z</time></trkpt><trkpt lat="44.9298583" lon="10.629855"><ele>20.0</ele><time>2026-04-04T12:25:40.405Z</time></trkpt><trkpt lat="44.9299417" lon="10.6299033"><ele>20.0</ele><time>2026-04-04T12:25:41.406Z</time></trkpt><trkpt lat="44.9300317" lon="10.6299567"><ele>20.0</ele><time>2026-04-04T12:25:42.407Z</time></trkpt><trkpt lat="44.9301183" lon="10.6300083"><ele>20.166666666666668</ele><time>2026-04-04T12:25:43.405Z</time></trkpt><trkpt lat="44.9301983" lon="10.6300567"><ele>20.333333333333336</ele><time>2026-04-04T12:25:44.404Z</time></trkpt><trkpt lat="44.930275" lon="10.6300983"><ele>20.5</ele><time>2026-04-04T12:25:45.405Z</time></trkpt><trkpt lat="44.93035" lon="10.6301333"><ele>20.666666666666668</ele><time>2026-04-04T12:25:46.404Z</time></trkpt><trkpt lat="44.9304233" lon="10.6301683"><ele>20.833333333333332</ele><time>2026-04-04T12:25:47.404Z</time></trkpt><trkpt lat="44.930495" lon="10.6302033"><ele>21.0</ele><time>2026-04-04T12:25:48.404Z</time></trkpt><trkpt lat="44.930565" lon="10.6302417"><ele>21.0</ele><time>2026-04-04T12:25:49.404Z</time></trkpt><trkpt lat="44.9306317" lon="10.630285"><ele>21.0</ele><time>2026-04-04T12:25:50.404Z</time></trkpt><trkpt lat="44.9307" lon="10.630325"><ele>21.0</ele><time>2026-04-04T12:25:51.405Z</time></trkpt><trkpt lat="44.9307617" lon="10.63037"><ele>21.0</ele><time>2026-04-04T12:25:52.403Z</time></trkpt><trkpt lat="44.9308267" lon="10.6304133"><ele>21.0</ele><time>2026-04-04T12:25:53.405Z</time></trkpt><trkpt lat="44.9308933" lon="10.630455"><ele>21.0</ele><time>2026-04-04T12:25:54.405Z</time></trkpt><trkpt lat="44.930965" lon="10.6304917"><ele>21.0</ele><time>2026-04-04T12:25:55.405Z</time></trkpt><trkpt lat="44.93103" lon="10.63053"><ele>21.0</ele><time>2026-04-04T12:25:56.405Z</time></trkpt><trkpt lat="44.931095" lon="10.630565"><ele>21.0</ele><time>2026-04-04T12:25:57.404Z</time></trkpt><trkpt lat="44.9311583" lon="10.6305983"><ele>21.0</ele><time>2026-04-04T12:25:58.404Z</time></trkpt><trkpt lat="44.9312183" lon="10.6306317"><ele>21.0</ele><time>2026-04-04T12:25:59.405Z</time></trkpt><trkpt lat="44.9312833" lon="10.6306633"><ele>21.0</ele><time>2026-04-04T12:26:00.404Z</time></trkpt><trkpt lat="44.9313467" lon="10.6306933"><ele>21.0</ele><time>2026-04-04T12:26:01.404Z</time></trkpt><trkpt lat="44.9314133" lon="10.630715"><ele>21.0</ele><time>2026-04-04T12:26:02.404Z</time></trkpt><trkpt lat="44.9314767" lon="10.630725"><ele>21.0</ele><time>2026-04-04T12:26:03.405Z</time></trkpt><trkpt lat="44.93159" lon="10.6307133"><ele>21.0</ele><time>2026-04-04T12:26:05.404Z</time></trkpt><trkpt lat="44.9316983" lon="10.6307017"><ele>21.0</ele><time>2026-04-04T12:26:07.404Z</time></trkpt><trkpt lat="44.9317917" lon="10.6307267"><ele>21.0</ele><time>2026-04-04T12:26:09.404Z</time></trkpt><trkpt lat="44.9318467" lon="10.6308183"><ele>21.0</ele><time>2026-04-04T12:26:11.404Z</time></trkpt><trkpt lat="44.93192" lon="10.6308867"><ele>21.25</ele><time>2026-04-04T12:26:13.404Z</time></trkpt><trkpt lat="44.932035" lon="10.6309117"><ele>21.5</ele><time>2026-04-04T12:26:15.405Z</time></trkpt><trkpt lat="44.932155" lon="10.6309467"><ele>21.75</ele><time>2026-04-04T12:26:17.405Z</time></trkpt><trkpt lat="44.9322667" lon="10.6310033"><ele>22.0</ele><time>2026-04-04T12:26:19.404Z</time></trkpt><trkpt lat="44.93238" lon="10.6310433"><ele>22.0</ele><time>2026-04-04T12:26:21.405Z</time></trkpt><trkpt lat="44.9324983" lon="10.6310683"><ele>22.0</ele><time>2026-04-04T12:26:23.404Z</time></trkpt><trkpt lat="44.9325983" lon="10.6310917"><ele>22.0</ele><time>2026-04-04T12:26:25.403Z</time></trkpt><trkpt lat="44.9326817" lon="10.6311033"><ele>22.0</ele><time>2026-04-04T12:26:27.404Z</time></trkpt><trkpt lat="44.932735" lon="10.6311617"><ele>22.0</ele><time>2026-04-04T12:26:30.404Z</time></trkpt><trkpt lat="44.9327133" lon="10.6313017"><ele>22.0</ele><time>2026-04-04T12:26:33.406Z</time></trkpt><trkpt lat="44.9326667" lon="10.6314567"><ele>22.0</ele><time>2026-04-04T12:26:35.404Z</time></trkpt><trkpt lat="44.9326183" lon="10.6315983"><ele>22.0</ele><time>2026-04-04T12:26:37.406Z</time></trkpt><trkpt lat="44.9325767" lon="10.631715"><ele>22.0</ele><time>2026-04-04T12:26:39.405Z</time></trkpt><trkpt lat="44.93257" lon="10.631815"><ele>22.0</ele><time>2026-04-04T12:26:41.405Z</time></trkpt><trkpt lat="44.9326133" lon="10.6318833"><ele>22.0</ele><time>2026-04-04T12:26:43.404Z</time></trkpt><trkpt lat="44.9326983" lon="10.6319683"><ele>22.0</ele><time>2026-04-04T12:26:45.405Z</time></trkpt><trkpt lat="44.9328033" lon="10.632045"><ele>22.0</ele><time>2026-04-04T12:26:47.404Z</time></trkpt><trkpt lat="44.932915" lon="10.63211"><ele>22.0</ele><time>2026-04-04T12:26:49.404Z</time></trkpt><trkpt lat="44.9330083" lon="10.6321783"><ele>22.0</ele><time>2026-04-04T12:26:51.404Z</time></trkpt><trkpt lat="44.9330967" lon="10.6322067"><ele>21.6</ele><time>2026-04-04T12:26:53.404Z</time></trkpt><trkpt lat="44.9331833" lon="10.6322367"><ele>21.200000000000003</ele><time>2026-04-04T12:26:55.404Z</time></trkpt><trkpt lat="44.9332583" lon="10.6323167"><ele>20.8</ele><time>2026-04-04T12:26:57.405Z</time></trkpt><trkpt lat="44.9333383" lon="10.63241"><ele>20.4</ele><time>2026-04-04T12:26:59.404Z</time></trkpt><trkpt lat="44.9334183" lon="10.6324967"><ele>20.0</ele><time>2026-04-04T12:27:01.405Z</time></trkpt><trkpt lat="44.9335217" lon="10.6325733"><ele>20.0</ele><time>2026-04-04T12:27:03.405Z</time></trkpt><trkpt lat="44.9336217" lon="10.6326133"><ele>20.0</ele><time>2026-04-04T12:27:05.404Z</time></trkpt><trkpt lat="44.9336867" lon="10.63266"><ele>20.0</ele><time>2026-04-04T12:27:07.405Z</time></trkpt><trkpt lat="44.9337033" lon="10.632755"><ele>20.0</ele><time>2026-04-04T12:27:09.406Z</time></trkpt><trkpt lat="44.9337183" lon="10.6328533"><ele>20.0</ele><time>2026-04-04T12:27:11.407Z</time></trkpt><trkpt lat="44.9337767" lon="10.6328933"><ele>20.0</ele><time>2026-04-04T12:27:13.407Z</time></trkpt><trkpt lat="44.933865" lon="10.6328933"><ele>20.0</ele><time>2026-04-04T12:27:15.407Z</time></trkpt><trkpt lat="44.9339433" lon="10.6329483"><ele>20.0</ele><time>2026-04-04T12:27:17.404Z</time></trkpt><trkpt lat="44.934" lon="10.6330183"><ele>20.0</ele><time>2026-04-04T12:27:19.405Z</time></trkpt><trkpt lat="44.934065" lon="10.63309"><ele>20.0</ele><time>2026-04-04T12:27:21.407Z</time></trkpt><trkpt lat="44.9341367" lon="10.6331683"><ele>20.0</ele><time>2026-04-04T12:27:23.405Z</time></trkpt><trkpt lat="44.934225" lon="10.63323"><ele>20.0</ele><time>2026-04-04T12:27:25.406Z</time></trkpt><trkpt lat="44.9343267" lon="10.6332483"><ele>19.6</ele><time>2026-04-04T12:27:27.408Z</time></trkpt><trkpt lat="44.9344233" lon="10.6332483"><ele>19.2</ele><time>2026-04-04T12:27:29.407Z</time></trkpt><trkpt lat="44.9345217" lon="10.6332583"><ele>18.8</ele><time>2026-04-04T12:27:31.404Z</time></trkpt><trkpt lat="44.9346267" lon="10.6332967"><ele>18.4</ele><time>2026-04-04T12:27:33.404Z</time></trkpt><trkpt lat="44.9347267" lon="10.63335"><ele>18.0</ele><time>2026-04-04T12:27:35.405Z</time></trkpt><trkpt lat="44.9348067" lon="10.6333933"><ele>18.0</ele><time>2026-04-04T12:27:37.402Z</time></trkpt><trkpt lat="44.9348917" lon="10.63343"><ele>18.0</ele><time>2026-04-04T12:27:39.404Z</time></trkpt><trkpt lat="44.9349717" lon="10.6334683"><ele>18.0</ele><time>2026-04-04T12:27:41.403Z</time></trkpt><trkpt lat="44.935045" lon="10.6335283"><ele>18.0</ele><time>2026-04-04T12:27:43.404Z</time></trkpt><trkpt lat="44.935135" lon="10.6335617"><ele>18.0</ele><time>2026-04-04T12:27:45.404Z</time></trkpt><trkpt lat="44.9352233" lon="10.6335433"><ele>18.0</ele><time>2026-04-04T12:27:47.403Z</time></trkpt><trkpt lat="44.9353133" lon="10.6335383"><ele>18.4</ele><time>2026-04-04T12:27:49.404Z</time></trkpt><trkpt lat="44.9353967" lon="10.6335267"><ele>18.8</ele><time>2026-04-04T12:27:51.406Z</time></trkpt><trkpt lat="44.9354817" lon="10.633515"><ele>19.2</ele><time>2026-04-04T12:27:53.405Z</time></trkpt><trkpt lat="44.935575" lon="10.6335067"><ele>19.6</ele><time>2026-04-04T12:27:55.405Z</time></trkpt><trkpt lat="44.9356667" lon="10.6335017"><ele>20.0</ele><time>2026-04-04T12:27:57.404Z</time></trkpt><trkpt lat="44.93577" lon="10.6335067"><ele>20.0</ele><time>2026-04-04T12:27:59.402Z</time></trkpt><trkpt lat="44.9358683" lon="10.6335133"><ele>20.0</ele><time>2026-04-04T12:28:01.404Z</time></trkpt><trkpt lat="44.93597" lon="10.6335083"><ele>20.0</ele><time>2026-04-04T12:28:03.404Z</time></trkpt><trkpt lat="44.9360883" lon="10.63351"><ele>20.0</ele><time>2026-04-04T12:28:05.404Z</time></trkpt><trkpt lat="44.9362117" lon="10.6335133"><ele>20.0</ele><time>2026-04-04T12:28:07.402Z</time></trkpt><trkpt lat="44.93628" lon="10.6335133"><ele>20.166666666666668</ele><time>2026-04-04T12:28:08.405Z</time></trkpt><trkpt lat="44.9363433" lon="10.6335183"><ele>20.333333333333336</ele><time>2026-04-04T12:28:09.404Z</time></trkpt><trkpt lat="44.93641" lon="10.6335217"><ele>20.5</ele><time>2026-04-04T12:28:10.403Z</time></trkpt><trkpt lat="44.9364733" lon="10.6335267"><ele>20.666666666666668</ele><time>2026-04-04T12:28:11.404Z</time></trkpt><trkpt lat="44.9365367" lon="10.6335383"><ele>20.833333333333332</ele><time>2026-04-04T12:28:12.403Z</time></trkpt><trkpt lat="44.9366517" lon="10.6335583"><ele>21.0</ele><time>2026-04-04T12:28:14.403Z</time></trkpt><trkpt lat="44.9367617" lon="10.6335667"><ele>21.0</ele><time>2026-04-04T12:28:16.403Z</time></trkpt><trkpt lat="44.9368617" lon="10.633595"><ele>21.0</ele><time>2026-04-04T12:28:18.403Z</time></trkpt><trkpt lat="44.936975" lon="10.6336267"><ele>21.0</ele><time>2026-04-04T12:28:20.405Z</time></trkpt><trkpt lat="44.93709" lon="10.633675"><ele>21.0</ele><time>2026-04-04T12:28:22.404Z</time></trkpt><trkpt lat="44.9372083" lon="10.6337167"><ele>21.0</ele><time>2026-04-04T12:28:24.406Z</time></trkpt><trkpt lat="44.9373367" lon="10.6337433"><ele>21.0</ele><time>2026-04-04T12:28:26.408Z</time></trkpt><trkpt lat="44.9374017" lon="10.63376"><ele>21.0</ele><time>2026-04-04T12:28:27.406Z</time></trkpt><trkpt lat="44.9374683" lon="10.6337783"><ele>21.0</ele><time>2026-04-04T12:28:28.406Z</time></trkpt><trkpt lat="44.9375317" lon="10.633795"><ele>21.0</ele><time>2026-04-04T12:28:29.406Z</time></trkpt><trkpt lat="44.9376" lon="10.6338133"><ele>21.0</ele><time>2026-04-04T12:28:30.404Z</time></trkpt><trkpt lat="44.937665" lon="10.6338267"><ele>20.6</ele><time>2026-04-04T12:28:31.404Z</time></trkpt><trkpt lat="44.9377283" lon="10.6338383"><ele>20.200000000000003</ele><time>2026-04-04T12:28:32.404Z</time></trkpt><trkpt lat="44.9378533" lon="10.6338617"><ele>19.799999999999997</ele><time>2026-04-04T12:28:34.402Z</time></trkpt><trkpt lat="44.9379183" lon="10.633865"><ele>19.4</ele><time>2026-04-04T12:28:35.404Z</time></trkpt><trkpt lat="44.9380417" lon="10.6338617"><ele>19.0</ele><time>2026-04-04T12:28:37.403Z</time></trkpt><trkpt lat="44.9381483" lon="10.6338567"><ele>19.0</ele><time>2026-04-04T12:28:39.404Z</time></trkpt><trkpt lat="44.9382433" lon="10.6338533"><ele>19.0</ele><time>2026-04-04T12:28:41.405Z</time></trkpt><trkpt lat="44.9383367" lon="10.6338533"><ele>19.0</ele><time>2026-04-04T12:28:43.404Z</time></trkpt><trkpt lat="44.9384183" lon="10.6338717"><ele>19.0</ele><time>2026-04-04T12:28:45.408Z</time></trkpt><trkpt lat="44.938495" lon="10.6339083"><ele>19.0</ele><time>2026-04-04T12:28:47.404Z</time></trkpt><trkpt lat="44.9386" lon="10.6339633"><ele>19.0</ele><time>2026-04-04T12:28:49.404Z</time></trkpt><trkpt lat="44.938665" lon="10.63399"><ele>19.0</ele><time>2026-04-04T12:28:50.404Z</time></trkpt><trkpt lat="44.9387367" lon="10.63402"><ele>19.0</ele><time>2026-04-04T12:28:51.405Z</time></trkpt><trkpt lat="44.938815" lon="10.634045"><ele>19.0</ele><time>2026-04-04T12:28:52.404Z</time></trkpt><trkpt lat="44.9388917" lon="10.6340683"><ele>19.0</ele><time>2026-04-04T12:28:53.405Z</time></trkpt><trkpt lat="44.9389717" lon="10.6340933"><ele>19.0</ele><time>2026-04-04T12:28:54.404Z</time></trkpt><trkpt lat="44.93905" lon="10.6341167"><ele>19.0</ele><time>2026-04-04T12:28:55.404Z</time></trkpt><trkpt lat="44.9391233" lon="10.634135"><ele>19.0</ele><time>2026-04-04T12:28:56.404Z</time></trkpt><trkpt lat="44.9391933" lon="10.63415"><ele>19.0</ele><time>2026-04-04T12:28:57.406Z</time></trkpt><trkpt lat="44.9392667" lon="10.6341717"><ele>19.0</ele><time>2026-04-04T12:28:58.404Z</time></trkpt><trkpt lat="44.9393417" lon="10.6342"><ele>19.0</ele><time>2026-04-04T12:28:59.405Z</time></trkpt><trkpt lat="44.9394167" lon="10.6342317"><ele>19.0</ele><time>2026-04-04T12:29:00.403Z</time></trkpt><trkpt lat="44.939485" lon="10.634265"><ele>19.0</ele><time>2026-04-04T12:29:01.404Z</time></trkpt><trkpt lat="44.9395517" lon="10.6343"><ele>19.0</ele><time>2026-04-04T12:29:02.402Z</time></trkpt><trkpt lat="44.9396217" lon="10.63434"><ele>19.0</ele><time>2026-04-04T12:29:03.405Z</time></trkpt><trkpt lat="44.939695" lon="10.6343817"><ele>19.0</ele><time>2026-04-04T12:29:04.404Z</time></trkpt><trkpt lat="44.9397667" lon="10.634425"><ele>19.0</ele><time>2026-04-04T12:29:05.403Z</time></trkpt><trkpt lat="44.9398333" lon="10.6344683"><ele>19.0</ele><time>2026-04-04T12:29:06.405Z</time></trkpt><trkpt lat="44.9399033" lon="10.6345117"><ele>19.0</ele><time>2026-04-04T12:29:07.404Z</time></trkpt><trkpt lat="44.939965" lon="10.634555"><ele>19.0</ele><time>2026-04-04T12:29:08.405Z</time></trkpt><trkpt lat="44.94003" lon="10.6345967"><ele>19.0</ele><time>2026-04-04T12:29:09.404Z</time></trkpt><trkpt lat="44.9401" lon="10.6346383"><ele>19.0</ele><time>2026-04-04T12:29:10.403Z</time></trkpt><trkpt lat="44.9401733" lon="10.6346767"><ele>19.0</ele><time>2026-04-04T12:29:11.404Z</time></trkpt><trkpt lat="44.940245" lon="10.6347117"><ele>19.0</ele><time>2026-04-04T12:29:12.403Z</time></trkpt><trkpt lat="44.9403117" lon="10.634745"><ele>19.0</ele><time>2026-04-04T12:29:13.403Z</time></trkpt><trkpt lat="44.9403767" lon="10.63478"><ele>19.0</ele><time>2026-04-04T12:29:14.404Z</time></trkpt><trkpt lat="44.940435" lon="10.634815"><ele>19.2</ele><time>2026-04-04T12:29:15.405Z</time></trkpt><trkpt lat="44.9405317" lon="10.6348967"><ele>19.4</ele><time>2026-04-04T12:29:17.404Z</time></trkpt><trkpt lat="44.940625" lon="10.6349983"><ele>19.6</ele><time>2026-04-04T12:29:19.405Z</time></trkpt><trkpt lat="44.9407367" lon="10.6350683"><ele>19.8</ele><time>2026-04-04T12:29:21.407Z</time></trkpt><trkpt lat="44.940805" lon="10.6351"><ele>20.0</ele><time>2026-04-04T12:29:22.405Z</time></trkpt><trkpt lat="44.940875" lon="10.63513"><ele>20.166666666666668</ele><time>2026-04-04T12:29:23.405Z</time></trkpt><trkpt lat="44.9409517" lon="10.63516"><ele>20.333333333333336</ele><time>2026-04-04T12:29:24.405Z</time></trkpt><trkpt lat="44.9410317" lon="10.6351917"><ele>20.5</ele><time>2026-04-04T12:29:25.405Z</time></trkpt><trkpt lat="44.9411167" lon="10.6352267"><ele>20.666666666666668</ele><time>2026-04-04T12:29:26.403Z</time></trkpt><trkpt lat="44.9411983" lon="10.6352683"><ele>20.833333333333332</ele><time>2026-04-04T12:29:27.405Z</time></trkpt><trkpt lat="44.941285" lon="10.63531"><ele>21.0</ele><time>2026-04-04T12:29:28.403Z</time></trkpt><trkpt lat="44.9413867" lon="10.6353533"><ele>21.0</ele><time>2026-04-04T12:29:29.405Z</time></trkpt><trkpt lat="44.941495" lon="10.6353967"><ele>21.0</ele><time>2026-04-04T12:29:30.404Z</time></trkpt><trkpt lat="44.9416067" lon="10.6354383"><ele>21.0</ele><time>2026-04-04T12:29:31.404Z</time></trkpt><trkpt lat="44.9417183" lon="10.6354817"><ele>21.0</ele><time>2026-04-04T12:29:32.403Z</time></trkpt><trkpt lat="44.941835" lon="10.6355267"><ele>21.200000000000003</ele><time>2026-04-04T12:29:33.404Z</time></trkpt><trkpt lat="44.9419433" lon="10.6355717"><ele>21.400000000000002</ele><time>2026-04-04T12:29:34.403Z</time></trkpt><trkpt lat="44.9420533" lon="10.6356183"><ele>21.6</ele><time>2026-04-04T12:29:35.403Z</time></trkpt><trkpt lat="44.94216" lon="10.6356633"><ele>21.8</ele><time>2026-04-04T12:29:36.403Z</time></trkpt><trkpt lat="44.94226" lon="10.6357067"><ele>22.0</ele><time>2026-04-04T12:29:37.403Z</time></trkpt><trkpt lat="44.942355" lon="10.6357517"><ele>22.0</ele><time>2026-04-04T12:29:38.404Z</time></trkpt><trkpt lat="44.9424483" lon="10.6357933"><ele>22.0</ele><time>2026-04-04T12:29:39.405Z</time></trkpt><trkpt lat="44.94254" lon="10.63583"><ele>22.0</ele><time>2026-04-04T12:29:40.403Z</time></trkpt><trkpt lat="44.942625" lon="10.63586"><ele>22.0</ele><time>2026-04-04T12:29:41.404Z</time></trkpt><trkpt lat="44.942705" lon="10.6358933"><ele>22.0</ele><time>2026-04-04T12:29:42.403Z</time></trkpt><trkpt lat="44.942785" lon="10.6359317"><ele>22.0</ele><time>2026-04-04T12:29:43.404Z</time></trkpt><trkpt lat="44.9428617" lon="10.6359733"><ele>21.833333333333332</ele><time>2026-04-04T12:29:44.403Z</time></trkpt><trkpt lat="44.9429417" lon="10.6360167"><ele>21.666666666666664</ele><time>2026-04-04T12:29:45.404Z</time></trkpt><trkpt lat="44.943025" lon="10.63606"><ele>21.5</ele><time>2026-04-04T12:29:46.404Z</time></trkpt><trkpt lat="44.9431067" lon="10.6361017"><ele>21.333333333333332</ele><time>2026-04-04T12:29:47.403Z</time></trkpt><trkpt lat="44.94319" lon="10.6361433"><ele>21.166666666666668</ele><time>2026-04-04T12:29:48.408Z</time></trkpt><trkpt lat="44.9432783" lon="10.6361867"><ele>21.0</ele><time>2026-04-04T12:29:49.404Z</time></trkpt><trkpt lat="44.9433683" lon="10.6362333"><ele>21.200000000000003</ele><time>2026-04-04T12:29:50.404Z</time></trkpt><trkpt lat="44.9434617" lon="10.636285"><ele>21.400000000000002</ele><time>2026-04-04T12:29:51.404Z</time></trkpt><trkpt lat="44.94355" lon="10.63634"><ele>21.6</ele><time>2026-04-04T12:29:52.405Z</time></trkpt><trkpt lat="44.9436367" lon="10.6363967"><ele>21.8</ele><time>2026-04-04T12:29:53.405Z</time></trkpt><trkpt lat="44.9437267" lon="10.6364517"><ele>22.0</ele><time>2026-04-04T12:29:54.405Z</time></trkpt><trkpt lat="44.9438167" lon="10.6365"><ele>22.0</ele><time>2026-04-04T12:29:55.404Z</time></trkpt><trkpt lat="44.9439033" lon="10.6365433"><ele>22.0</ele><time>2026-04-04T12:29:56.404Z</time></trkpt><trkpt lat="44.9439933" lon="10.63659"><ele>22.0</ele><time>2026-04-04T12:29:57.404Z</time></trkpt><trkpt lat="44.9440783" lon="10.636645"><ele>22.0</ele><time>2026-04-04T12:29:58.403Z</time></trkpt><trkpt lat="44.9441633" lon="10.6366967"><ele>22.0</ele><time>2026-04-04T12:29:59.404Z</time></trkpt><trkpt lat="44.9442483" lon="10.6367467"><ele>21.400000000000002</ele><time>2026-04-04T12:30:00.404Z</time></trkpt><trkpt lat="44.9443317" lon="10.6368033"><ele>20.8</ele><time>2026-04-04T12:30:01.406Z</time></trkpt><trkpt lat="44.9444167" lon="10.6368617"><ele>20.2</ele><time>2026-04-04T12:30:02.405Z</time></trkpt><trkpt lat="44.9445067" lon="10.63692"><ele>19.6</ele><time>2026-04-04T12:30:03.404Z</time></trkpt><trkpt lat="44.9445933" lon="10.63698"><ele>19.0</ele><time>2026-04-04T12:30:04.405Z</time></trkpt><trkpt lat="44.9446783" lon="10.6370367"><ele>19.0</ele><time>2026-04-04T12:30:05.405Z</time></trkpt><trkpt lat="44.9447567" lon="10.637095"><ele>19.0</ele><time>2026-04-04T12:30:06.406Z</time></trkpt><trkpt lat="44.944835" lon="10.6371517"><ele>19.0</ele><time>2026-04-04T12:30:07.405Z</time></trkpt><trkpt lat="44.9449167" lon="10.63721"><ele>19.0</ele><time>2026-04-04T12:30:08.405Z</time></trkpt><trkpt lat="44.9449983" lon="10.6372667"><ele>19.0</ele><time>2026-04-04T12:30:09.406Z</time></trkpt><trkpt lat="44.94508" lon="10.6373267"><ele>19.6</ele><time>2026-04-04T12:30:10.406Z</time></trkpt><trkpt lat="44.9451633" lon="10.637385"><ele>20.2</ele><time>2026-04-04T12:30:11.405Z</time></trkpt><trkpt lat="44.94525" lon="10.6374417"><ele>20.8</ele><time>2026-04-04T12:30:12.403Z</time></trkpt><trkpt lat="44.945335" lon="10.6375033"><ele>21.400000000000002</ele><time>2026-04-04T12:30:13.404Z</time></trkpt><trkpt lat="44.9454183" lon="10.6375683"><ele>22.0</ele><time>2026-04-04T12:30:14.403Z</time></trkpt><trkpt lat="44.9455017" lon="10.63763"><ele>22.0</ele><time>2026-04-04T12:30:15.404Z</time></trkpt><trkpt lat="44.9455933" lon="10.6376983"><ele>22.0</ele><time>2026-04-04T12:30:16.404Z</time></trkpt><trkpt lat="44.9456833" lon="10.6377667"><ele>22.0</ele><time>2026-04-04T12:30:17.403Z</time></trkpt><trkpt lat="44.9457717" lon="10.6378367"><ele>22.0</ele><time>2026-04-04T12:30:18.404Z</time></trkpt><trkpt lat="44.9458583" lon="10.637905"><ele>22.0</ele><time>2026-04-04T12:30:19.404Z</time></trkpt><trkpt lat="44.9459433" lon="10.6379733"><ele>22.0</ele><time>2026-04-04T12:30:20.403Z</time></trkpt><trkpt lat="44.9460283" lon="10.6380417"><ele>22.0</ele><time>2026-04-04T12:30:21.404Z</time></trkpt><trkpt lat="44.946115" lon="10.63811"><ele>22.0</ele><time>2026-04-04T12:30:22.404Z</time></trkpt><trkpt lat="44.9462017" lon="10.6381783"><ele>22.0</ele><time>2026-04-04T12:30:23.404Z</time></trkpt><trkpt lat="44.9462833" lon="10.6382483"><ele>22.0</ele><time>2026-04-04T12:30:24.403Z</time></trkpt><trkpt lat="44.9463567" lon="10.6383167"><ele>22.0</ele><time>2026-04-04T12:30:25.404Z</time></trkpt><trkpt lat="44.946425" lon="10.6383817"><ele>22.0</ele><time>2026-04-04T12:30:26.403Z</time></trkpt><trkpt lat="44.9464883" lon="10.6384417"><ele>22.0</ele><time>2026-04-04T12:30:27.404Z</time></trkpt><trkpt lat="44.94655" lon="10.638505"><ele>22.0</ele><time>2026-04-04T12:30:28.403Z</time></trkpt><trkpt lat="44.946615" lon="10.6385667"><ele>22.0</ele><time>2026-04-04T12:30:29.404Z</time></trkpt><trkpt lat="44.9466867" lon="10.6386283"><ele>22.0</ele><time>2026-04-04T12:30:30.405Z</time></trkpt><trkpt lat="44.946765" lon="10.6386933"><ele>22.0</ele><time>2026-04-04T12:30:31.405Z</time></trkpt><trkpt lat="44.9468433" lon="10.638765"><ele>22.0</ele><time>2026-04-04T12:30:32.403Z</time></trkpt><trkpt lat="44.9469233" lon="10.6388433"><ele>22.0</ele><time>2026-04-04T12:30:33.405Z</time></trkpt><trkpt lat="44.9470067" lon="10.638915"><ele>22.0</ele><time>2026-04-04T12:30:34.404Z</time></trkpt><trkpt lat="44.9470967" lon="10.6389933"><ele>22.0</ele><time>2026-04-04T12:30:35.406Z</time></trkpt><trkpt lat="44.9471833" lon="10.6390783"><ele>22.0</ele><time>2026-04-04T12:30:36.404Z</time></trkpt><trkpt lat="44.9472683" lon="10.639165"><ele>22.0</ele><time>2026-04-04T12:30:37.406Z</time></trkpt><trkpt lat="44.9473483" lon="10.6392467"><ele>22.0</ele><time>2026-04-04T12:30:38.406Z</time></trkpt><trkpt lat="44.94742" lon="10.6393267"><ele>22.0</ele><time>2026-04-04T12:30:39.406Z</time></trkpt><trkpt lat="44.9474967" lon="10.6393983"><ele>22.0</ele><time>2026-04-04T12:30:40.406Z</time></trkpt><trkpt lat="44.94757" lon="10.6394717"><ele>21.400000000000002</ele><time>2026-04-04T12:30:41.406Z</time></trkpt><trkpt lat="44.9476467" lon="10.6395517"><ele>20.8</ele><time>2026-04-04T12:30:42.404Z</time></trkpt><trkpt lat="44.9477233" lon="10.6396383"><ele>20.2</ele><time>2026-04-04T12:30:43.404Z</time></trkpt><trkpt lat="44.9478033" lon="10.6397317"><ele>19.6</ele><time>2026-04-04T12:30:44.403Z</time></trkpt><trkpt lat="44.9478817" lon="10.6398267"><ele>19.0</ele><time>2026-04-04T12:30:45.404Z</time></trkpt><trkpt lat="44.9479617" lon="10.639915"><ele>19.0</ele><time>2026-04-04T12:30:46.403Z</time></trkpt><trkpt lat="44.9480417" lon="10.6400017"><ele>19.0</ele><time>2026-04-04T12:30:47.404Z</time></trkpt><trkpt lat="44.94812" lon="10.6400883"><ele>19.0</ele><time>2026-04-04T12:30:48.404Z</time></trkpt><trkpt lat="44.9482" lon="10.64018"><ele>19.0</ele><time>2026-04-04T12:30:49.404Z</time></trkpt><trkpt lat="44.9482767" lon="10.6402717"><ele>19.0</ele><time>2026-04-04T12:30:50.404Z</time></trkpt><trkpt lat="44.9483483" lon="10.640365"><ele>19.799999999999997</ele><time>2026-04-04T12:30:51.404Z</time></trkpt><trkpt lat="44.9484233" lon="10.6404583"><ele>20.599999999999998</ele><time>2026-04-04T12:30:52.404Z</time></trkpt><trkpt lat="44.948495" lon="10.6405517"><ele>21.4</ele><time>2026-04-04T12:30:53.404Z</time></trkpt><trkpt lat="44.94857" lon="10.6406417"><ele>22.2</ele><time>2026-04-04T12:30:54.404Z</time></trkpt><trkpt lat="44.9486483" lon="10.640735"><ele>23.0</ele><time>2026-04-04T12:30:55.403Z</time></trkpt><trkpt lat="44.9487267" lon="10.6408317"><ele>23.0</ele><time>2026-04-04T12:30:56.403Z</time></trkpt><trkpt lat="44.9488033" lon="10.6409333"><ele>23.0</ele><time>2026-04-04T12:30:57.405Z</time></trkpt><trkpt lat="44.9488817" lon="10.641035"><ele>23.0</ele><time>2026-04-04T12:30:58.402Z</time></trkpt><trkpt lat="44.9489583" lon="10.6411383"><ele>23.0</ele><time>2026-04-04T12:30:59.404Z</time></trkpt><trkpt lat="44.949035" lon="10.641245"><ele>23.0</ele><time>2026-04-04T12:31:00.404Z</time></trkpt><trkpt lat="44.94911" lon="10.6413483"><ele>23.2</ele><time>2026-04-04T12:31:01.404Z</time></trkpt><trkpt lat="44.949185" lon="10.6414517"><ele>23.4</ele><time>2026-04-04T12:31:02.404Z</time></trkpt><trkpt lat="44.9492617" lon="10.6415533"><ele>23.599999999999998</ele><time>2026-04-04T12:31:03.405Z</time></trkpt><trkpt lat="44.949335" lon="10.6416583"><ele>23.799999999999997</ele><time>2026-04-04T12:31:04.404Z</time></trkpt><trkpt lat="44.949405" lon="10.6417633"><ele>24.0</ele><time>2026-04-04T12:31:05.406Z</time></trkpt><trkpt lat="44.9494733" lon="10.64187"><ele>24.2</ele><time>2026-04-04T12:31:06.406Z</time></trkpt><trkpt lat="44.949545" lon="10.64198"><ele>24.4</ele><time>2026-04-04T12:31:07.406Z</time></trkpt><trkpt lat="44.949615" lon="10.6420883"><ele>24.6</ele><time>2026-04-04T12:31:08.405Z</time></trkpt><trkpt lat="44.949685" lon="10.6421967"><ele>24.8</ele><time>2026-04-04T12:31:09.405Z</time></trkpt><trkpt lat="44.9497567" lon="10.6423067"><ele>25.0</ele><time>2026-04-04T12:31:10.405Z</time></trkpt><trkpt lat="44.9498283" lon="10.6424133"><ele>25.0</ele><time>2026-04-04T12:31:11.406Z</time></trkpt><trkpt lat="44.9499017" lon="10.6425233"><ele>25.0</ele><time>2026-04-04T12:31:12.403Z</time></trkpt><trkpt lat="44.9499733" lon="10.6426367"><ele>25.0</ele><time>2026-04-04T12:31:13.404Z</time></trkpt><trkpt lat="44.9500467" lon="10.6427583"><ele>25.0</ele><time>2026-04-04T12:31:14.404Z</time></trkpt><trkpt lat="44.950115" lon="10.6428767"><ele>25.0</ele><time>2026-04-04T12:31:15.403Z</time></trkpt><trkpt lat="44.95018" lon="10.6429917"><ele>25.0</ele><time>2026-04-04T12:31:16.403Z</time></trkpt><trkpt lat="44.95024" lon="10.6431083"><ele>25.0</ele><time>2026-04-04T12:31:17.403Z</time></trkpt><trkpt lat="44.9503017" lon="10.643225"><ele>25.0</ele><time>2026-04-04T12:31:18.404Z</time></trkpt><trkpt lat="44.9503633" lon="10.64334"><ele>25.0</ele><time>2026-04-04T12:31:19.404Z</time></trkpt><trkpt lat="44.95043" lon="10.6434617"><ele>25.0</ele><time>2026-04-04T12:31:20.403Z</time></trkpt><trkpt lat="44.9504983" lon="10.6435867"><ele>23.6</ele><time>2026-04-04T12:31:21.405Z</time></trkpt><trkpt lat="44.950565" lon="10.64371"><ele>22.2</ele><time>2026-04-04T12:31:22.404Z</time></trkpt><trkpt lat="44.9506317" lon="10.6438317"><ele>20.8</ele><time>2026-04-04T12:31:23.404Z</time></trkpt><trkpt lat="44.9507" lon="10.643955"><ele>19.4</ele><time>2026-04-04T12:31:24.403Z</time></trkpt><trkpt lat="44.95077" lon="10.64408"><ele>18.0</ele><time>2026-04-04T12:31:25.404Z</time></trkpt><trkpt lat="44.9508367" lon="10.6442033"><ele>20.0</ele><time>2026-04-04T12:31:26.404Z</time></trkpt><trkpt lat="44.9509017" lon="10.6443233"><ele>22.0</ele><time>2026-04-04T12:31:27.406Z</time></trkpt><trkpt lat="44.9509667" lon="10.6444383"><ele>23.999999999999996</ele><time>2026-04-04T12:31:28.404Z</time></trkpt><trkpt lat="44.9510333" lon="10.644555"><ele>26.0</ele><time>2026-04-04T12:31:29.406Z</time></trkpt><trkpt lat="44.9511017" lon="10.6446733"><ele>28.0</ele><time>2026-04-04T12:31:30.404Z</time></trkpt><trkpt lat="44.9511667" lon="10.6447917"><ele>28.0</ele><time>2026-04-04T12:31:31.404Z</time></trkpt><trkpt lat="44.9512317" lon="10.6449117"><ele>27.999999999999996</ele><time>2026-04-04T12:31:32.404Z</time></trkpt><trkpt lat="44.9512967" lon="10.6450367"><ele>27.999999999999996</ele><time>2026-04-04T12:31:33.405Z</time></trkpt><trkpt lat="44.95136" lon="10.645165"><ele>28.0</ele><time>2026-04-04T12:31:34.404Z</time></trkpt><trkpt lat="44.9514217" lon="10.64529"><ele>28.0</ele><time>2026-04-04T12:31:35.405Z</time></trkpt><trkpt lat="44.9514817" lon="10.6454133"><ele>28.4</ele><time>2026-04-04T12:31:36.404Z</time></trkpt><trkpt lat="44.95154" lon="10.6455333"><ele>28.799999999999997</ele><time>2026-04-04T12:31:37.404Z</time></trkpt><trkpt lat="44.951595" lon="10.6456533"><ele>29.2</ele><time>2026-04-04T12:31:38.405Z</time></trkpt><trkpt lat="44.95165" lon="10.64577"><ele>29.6</ele><time>2026-04-04T12:31:39.405Z</time></trkpt><trkpt lat="44.9517" lon="10.64588"><ele>30.0</ele><time>2026-04-04T12:31:40.404Z</time></trkpt><trkpt lat="44.95175" lon="10.6459883"><ele>30.0</ele><time>2026-04-04T12:31:41.404Z</time></trkpt><trkpt lat="44.9517983" lon="10.64609"><ele>30.0</ele><time>2026-04-04T12:31:42.404Z</time></trkpt><trkpt lat="44.9518483" lon="10.646165"><ele>30.0</ele><time>2026-04-04T12:31:43.403Z</time></trkpt><trkpt lat="44.9519067" lon="10.6462233"><ele>30.0</ele><time>2026-04-04T12:31:44.404Z</time></trkpt><trkpt lat="44.9519683" lon="10.6462683"><ele>30.0</ele><time>2026-04-04T12:31:45.405Z</time></trkpt><trkpt lat="44.9520267" lon="10.6463117"><ele>30.0</ele><time>2026-04-04T12:31:46.404Z</time></trkpt><trkpt lat="44.9520783" lon="10.6463667"><ele>30.0</ele><time>2026-04-04T12:31:47.403Z</time></trkpt><trkpt lat="44.9521617" lon="10.646505"><ele>29.6</ele><time>2026-04-04T12:31:49.404Z</time></trkpt><trkpt lat="44.9522283" lon="10.6466383"><ele>29.2</ele><time>2026-04-04T12:31:51.405Z</time></trkpt><trkpt lat="44.9522833" lon="10.6467383"><ele>28.799999999999997</ele><time>2026-04-04T12:31:53.404Z</time></trkpt><trkpt lat="44.9523283" lon="10.6468267"><ele>28.4</ele><time>2026-04-04T12:31:55.404Z</time></trkpt><trkpt lat="44.952385" lon="10.646945"><ele>28.0</ele><time>2026-04-04T12:31:57.405Z</time></trkpt><trkpt lat="44.9524567" lon="10.6470717"><ele>26.833333333333336</ele><time>2026-04-04T12:31:59.404Z</time></trkpt><trkpt lat="44.9525367" lon="10.6471833"><ele>25.666666666666668</ele><time>2026-04-04T12:32:01.403Z</time></trkpt><trkpt lat="44.9526367" lon="10.64726"><ele>24.5</ele><time>2026-04-04T12:32:03.405Z</time></trkpt><trkpt lat="44.9526983" lon="10.6472983"><ele>23.333333333333336</ele><time>2026-04-04T12:32:04.405Z</time></trkpt><trkpt lat="44.9527633" lon="10.6473333"><ele>22.166666666666668</ele><time>2026-04-04T12:32:05.405Z</time></trkpt><trkpt lat="44.9528233" lon="10.64737"><ele>21.0</ele><time>2026-04-04T12:32:06.407Z</time></trkpt><trkpt lat="44.9528883" lon="10.6474033"><ele>21.0</ele><time>2026-04-04T12:32:07.407Z</time></trkpt><trkpt lat="44.952955" lon="10.6474383"><ele>21.0</ele><time>2026-04-04T12:32:08.406Z</time></trkpt><trkpt lat="44.95302" lon="10.647475"><ele>21.0</ele><time>2026-04-04T12:32:09.407Z</time></trkpt><trkpt lat="44.9530833" lon="10.647515"><ele>21.0</ele><time>2026-04-04T12:32:10.406Z</time></trkpt><trkpt lat="44.953145" lon="10.647565"><ele>21.0</ele><time>2026-04-04T12:32:11.406Z</time></trkpt><trkpt lat="44.95321" lon="10.6476167"><ele>21.0</ele><time>2026-04-04T12:32:12.404Z</time></trkpt><trkpt lat="44.9532783" lon="10.64767"><ele>21.0</ele><time>2026-04-04T12:32:13.405Z</time></trkpt><trkpt lat="44.9533483" lon="10.647725"><ele>21.166666666666668</ele><time>2026-04-04T12:32:14.404Z</time></trkpt><trkpt lat="44.9534183" lon="10.6477767"><ele>21.333333333333332</ele><time>2026-04-04T12:32:15.403Z</time></trkpt><trkpt lat="44.9534933" lon="10.647825"><ele>21.5</ele><time>2026-04-04T12:32:16.404Z</time></trkpt><trkpt lat="44.9535667" lon="10.6478683"><ele>21.666666666666664</ele><time>2026-04-04T12:32:17.404Z</time></trkpt><trkpt lat="44.9536383" lon="10.647905"><ele>21.833333333333332</ele><time>2026-04-04T12:32:18.404Z</time></trkpt><trkpt lat="44.9537033" lon="10.6479417"><ele>22.0</ele><time>2026-04-04T12:32:19.404Z</time></trkpt><trkpt lat="44.9537683" lon="10.6479933"><ele>22.0</ele><time>2026-04-04T12:32:20.404Z</time></trkpt><trkpt lat="44.9538217" lon="10.64806"><ele>22.0</ele><time>2026-04-04T12:32:21.404Z</time></trkpt><trkpt lat="44.9538733" lon="10.6481283"><ele>22.0</ele><time>2026-04-04T12:32:22.403Z</time></trkpt><trkpt lat="44.9539233" lon="10.648185"><ele>22.0</ele><time>2026-04-04T12:32:23.404Z</time></trkpt><trkpt lat="44.95401" lon="10.64829"><ele>22.0</ele><time>2026-04-04T12:32:25.406Z</time></trkpt><trkpt lat="44.9540717" lon="10.6484083"><ele>22.0</ele><time>2026-04-04T12:32:27.406Z</time></trkpt><trkpt lat="44.9541" lon="10.6485617"><ele>22.142857142857142</ele><time>2026-04-04T12:32:29.404Z</time></trkpt><trkpt lat="44.95412" lon="10.6486583"><ele>22.285714285714285</ele><time>2026-04-04T12:32:30.404Z</time></trkpt><trkpt lat="44.9541467" lon="10.64876"><ele>22.42857142857143</ele><time>2026-04-04T12:32:31.406Z</time></trkpt><trkpt lat="44.9541733" lon="10.6488533"><ele>22.57142857142857</ele><time>2026-04-04T12:32:32.406Z</time></trkpt><trkpt lat="44.9542033" lon="10.6489517"><ele>22.71428571428571</ele><time>2026-04-04T12:32:33.408Z</time></trkpt><trkpt lat="44.9542283" lon="10.64904"><ele>22.857142857142858</ele><time>2026-04-04T12:32:34.406Z</time></trkpt><trkpt lat="44.95425" lon="10.64913"><ele>23.0</ele><time>2026-04-04T12:32:35.407Z</time></trkpt><trkpt lat="44.9542867" lon="10.6492233"><ele>23.0</ele><time>2026-04-04T12:32:36.405Z</time></trkpt><trkpt lat="44.9543367" lon="10.6493133"><ele>23.0</ele><time>2026-04-04T12:32:37.407Z</time></trkpt><trkpt lat="44.9543883" lon="10.6494"><ele>23.0</ele><time>2026-04-04T12:32:38.405Z</time></trkpt><trkpt lat="44.9544367" lon="10.6494817"><ele>23.0</ele><time>2026-04-04T12:32:39.406Z</time></trkpt><trkpt lat="44.9544833" lon="10.649555"><ele>23.0</ele><time>2026-04-04T12:32:40.405Z</time></trkpt><trkpt lat="44.9545267" lon="10.649635"><ele>23.0</ele><time>2026-04-04T12:32:41.406Z</time></trkpt><trkpt lat="44.9546083" lon="10.6497633"><ele>22.799999999999997</ele><time>2026-04-04T12:32:43.404Z</time></trkpt><trkpt lat="44.9547083" lon="10.6498717"><ele>22.6</ele><time>2026-04-04T12:32:45.404Z</time></trkpt><trkpt lat="44.9547617" lon="10.649925"><ele>22.4</ele><time>2026-04-04T12:32:46.404Z</time></trkpt><trkpt lat="44.9548417" lon="10.65001"><ele>22.200000000000003</ele><time>2026-04-04T12:32:48.404Z</time></trkpt><trkpt lat="44.9549333" lon="10.6500983"><ele>22.0</ele><time>2026-04-04T12:32:50.404Z</time></trkpt><trkpt lat="44.9549767" lon="10.6501633"><ele>22.0</ele><time>2026-04-04T12:32:51.405Z</time></trkpt><trkpt lat="44.95502" lon="10.6502483"><ele>22.0</ele><time>2026-04-04T12:32:52.404Z</time></trkpt><trkpt lat="44.9550617" lon="10.6503383"><ele>22.0</ele><time>2026-04-04T12:32:53.403Z</time></trkpt><trkpt lat="44.9551117" lon="10.650425"><ele>22.0</ele><time>2026-04-04T12:32:54.404Z</time></trkpt><trkpt lat="44.955165" lon="10.6505083"><ele>22.0</ele><time>2026-04-04T12:32:55.403Z</time></trkpt><trkpt lat="44.955215" lon="10.650585"><ele>22.0</ele><time>2026-04-04T12:32:56.404Z</time></trkpt><trkpt lat="44.95526" lon="10.6506517"><ele>22.0</ele><time>2026-04-04T12:32:57.404Z</time></trkpt><trkpt lat="44.95531" lon="10.6507167"><ele>22.142857142857142</ele><time>2026-04-04T12:32:58.404Z</time></trkpt><trkpt lat="44.9553733" lon="10.6507717"><ele>22.285714285714285</ele><time>2026-04-04T12:32:59.404Z</time></trkpt><trkpt lat="44.9554383" lon="10.65082"><ele>22.42857142857143</ele><time>2026-04-04T12:33:00.405Z</time></trkpt><trkpt lat="44.955505" lon="10.65087"><ele>22.57142857142857</ele><time>2026-04-04T12:33:01.406Z</time></trkpt><trkpt lat="44.955555" lon="10.6509333"><ele>22.71428571428571</ele><time>2026-04-04T12:33:02.406Z</time></trkpt><trkpt lat="44.9556067" lon="10.6510033"><ele>22.857142857142858</ele><time>2026-04-04T12:33:03.405Z</time></trkpt><trkpt lat="44.9556583" lon="10.6510767"><ele>23.0</ele><time>2026-04-04T12:33:04.407Z</time></trkpt><trkpt lat="44.955715" lon="10.6511417"><ele>23.0</ele><time>2026-04-04T12:33:05.406Z</time></trkpt><trkpt lat="44.955775" lon="10.6512083"><ele>23.0</ele><time>2026-04-04T12:33:06.406Z</time></trkpt><trkpt lat="44.9558283" lon="10.6512833"><ele>23.0</ele><time>2026-04-04T12:33:07.406Z</time></trkpt><trkpt lat="44.9558733" lon="10.651365"><ele>23.0</ele><time>2026-04-04T12:33:08.406Z</time></trkpt><trkpt lat="44.95592" lon="10.6514467"><ele>23.0</ele><time>2026-04-04T12:33:09.406Z</time></trkpt><trkpt lat="44.9559733" lon="10.6515317"><ele>23.0</ele><time>2026-04-04T12:33:10.407Z</time></trkpt><trkpt lat="44.9560267" lon="10.6516117"><ele>23.333333333333336</ele><time>2026-04-04T12:33:11.406Z</time></trkpt><trkpt lat="44.9560867" lon="10.6516817"><ele>23.666666666666668</ele><time>2026-04-04T12:33:12.404Z</time></trkpt><trkpt lat="44.9561583" lon="10.6517517"><ele>24.0</ele><time>2026-04-04T12:33:13.404Z</time></trkpt><trkpt lat="44.9562317" lon="10.6518117"><ele>24.333333333333336</ele><time>2026-04-04T12:33:14.405Z</time></trkpt><trkpt lat="44.9563133" lon="10.65187"><ele>24.666666666666668</ele><time>2026-04-04T12:33:15.405Z</time></trkpt><trkpt lat="44.9564" lon="10.6519283"><ele>25.0</ele><time>2026-04-04T12:33:16.404Z</time></trkpt><trkpt lat="44.9564833" lon="10.65199"><ele>24.666666666666668</ele><time>2026-04-04T12:33:17.405Z</time></trkpt><trkpt lat="44.9565567" lon="10.652055"><ele>24.333333333333336</ele><time>2026-04-04T12:33:18.404Z</time></trkpt><trkpt lat="44.9566233" lon="10.6521317"><ele>24.0</ele><time>2026-04-04T12:33:19.404Z</time></trkpt><trkpt lat="44.9566783" lon="10.65222"><ele>23.666666666666668</ele><time>2026-04-04T12:33:20.403Z</time></trkpt><trkpt lat="44.9567283" lon="10.6523083"><ele>23.333333333333336</ele><time>2026-04-04T12:33:21.405Z</time></trkpt><trkpt lat="44.95678" lon="10.6523917"><ele>23.0</ele><time>2026-04-04T12:33:22.403Z</time></trkpt><trkpt lat="44.9568317" lon="10.6524667"><ele>23.0</ele><time>2026-04-04T12:33:23.404Z</time></trkpt><trkpt lat="44.9568883" lon="10.6525367"><ele>23.0</ele><time>2026-04-04T12:33:24.405Z</time></trkpt><trkpt lat="44.95694" lon="10.652605"><ele>23.0</ele><time>2026-04-04T12:33:25.403Z</time></trkpt><trkpt lat="44.9569917" lon="10.65267"><ele>23.0</ele><time>2026-04-04T12:33:26.404Z</time></trkpt><trkpt lat="44.9570417" lon="10.6527317"><ele>23.0</ele><time>2026-04-04T12:33:27.404Z</time></trkpt><trkpt lat="44.95709" lon="10.6527917"><ele>23.0</ele><time>2026-04-04T12:33:28.403Z</time></trkpt><trkpt lat="44.95718" lon="10.6529167"><ele>22.666666666666668</ele><time>2026-04-04T12:33:30.405Z</time></trkpt><trkpt lat="44.9572217" lon="10.6529917"><ele>22.333333333333336</ele><time>2026-04-04T12:33:31.407Z</time></trkpt><trkpt lat="44.957265" lon="10.6530717"><ele>22.0</ele><time>2026-04-04T12:33:32.407Z</time></trkpt><trkpt lat="44.95731" lon="10.6531567"><ele>21.666666666666668</ele><time>2026-04-04T12:33:33.407Z</time></trkpt><trkpt lat="44.95736" lon="10.65324"><ele>21.333333333333332</ele><time>2026-04-04T12:33:34.407Z</time></trkpt><trkpt lat="44.9574217" lon="10.6533267"><ele>21.0</ele><time>2026-04-04T12:33:35.408Z</time></trkpt><trkpt lat="44.9574933" lon="10.6534117"><ele>21.4</ele><time>2026-04-04T12:33:36.406Z</time></trkpt><trkpt lat="44.9575667" lon="10.6534983"><ele>21.8</ele><time>2026-04-04T12:33:37.405Z</time></trkpt><trkpt lat="44.9576367" lon="10.65358"><ele>22.2</ele><time>2026-04-04T12:33:38.407Z</time></trkpt><trkpt lat="44.9577067" lon="10.6536617"><ele>22.599999999999998</ele><time>2026-04-04T12:33:39.407Z</time></trkpt><trkpt lat="44.9577817" lon="10.653745"><ele>23.0</ele><time>2026-04-04T12:33:40.405Z</time></trkpt><trkpt lat="44.9578617" lon="10.6538283"><ele>23.0</ele><time>2026-04-04T12:33:41.406Z</time></trkpt><trkpt lat="44.9579383" lon="10.6539117"><ele>23.0</ele><time>2026-04-04T12:33:42.405Z</time></trkpt><trkpt lat="44.958015" lon="10.6539883"><ele>23.0</ele><time>2026-04-04T12:33:43.404Z</time></trkpt><trkpt lat="44.95809" lon="10.6540567"><ele>23.0</ele><time>2026-04-04T12:33:44.403Z</time></trkpt><trkpt lat="44.9581617" lon="10.6541183"><ele>23.0</ele><time>2026-04-04T12:33:45.405Z</time></trkpt><trkpt lat="44.9582367" lon="10.6541783"><ele>23.0</ele><time>2026-04-04T12:33:46.403Z</time></trkpt><trkpt lat="44.9583183" lon="10.65424"><ele>23.0</ele><time>2026-04-04T12:33:47.403Z</time></trkpt><trkpt lat="44.9584033" lon="10.6543"><ele>23.0</ele><time>2026-04-04T12:33:48.404Z</time></trkpt><trkpt lat="44.9584917" lon="10.6543583"><ele>23.0</ele><time>2026-04-04T12:33:49.404Z</time></trkpt><trkpt lat="44.958585" lon="10.6544183"><ele>23.0</ele><time>2026-04-04T12:33:50.403Z</time></trkpt><trkpt lat="44.9586783" lon="10.6544783"><ele>23.0</ele><time>2026-04-04T12:33:51.405Z</time></trkpt><trkpt lat="44.9587683" lon="10.6545433"><ele>23.0</ele><time>2026-04-04T12:33:52.405Z</time></trkpt><trkpt lat="44.9588567" lon="10.6546133"><ele>23.0</ele><time>2026-04-04T12:33:53.404Z</time></trkpt><trkpt lat="44.9589417" lon="10.6546867"><ele>23.0</ele><time>2026-04-04T12:33:54.405Z</time></trkpt><trkpt lat="44.959025" lon="10.654755"><ele>23.0</ele><time>2026-04-04T12:33:55.404Z</time></trkpt><trkpt lat="44.9591083" lon="10.654815"><ele>23.0</ele><time>2026-04-04T12:33:56.404Z</time></trkpt><trkpt lat="44.9591917" lon="10.6548683"><ele>23.0</ele><time>2026-04-04T12:33:57.404Z</time></trkpt><trkpt lat="44.9592783" lon="10.65492"><ele>23.0</ele><time>2026-04-04T12:33:58.404Z</time></trkpt><trkpt lat="44.9593667" lon="10.6549733"><ele>23.0</ele><time>2026-04-04T12:33:59.404Z</time></trkpt><trkpt lat="44.9594517" lon="10.6550267"><ele>23.0</ele><time>2026-04-04T12:34:00.405Z</time></trkpt><trkpt lat="44.9595333" lon="10.655085"><ele>22.666666666666668</ele><time>2026-04-04T12:34:01.407Z</time></trkpt><trkpt lat="44.9596167" lon="10.6551317"><ele>22.333333333333336</ele><time>2026-04-04T12:34:02.407Z</time></trkpt><trkpt lat="44.9596983" lon="10.6551783"><ele>22.0</ele><time>2026-04-04T12:34:03.405Z</time></trkpt><trkpt lat="44.9597833" lon="10.6552317"><ele>21.666666666666668</ele><time>2026-04-04T12:34:04.407Z</time></trkpt><trkpt lat="44.9598617" lon="10.65529"><ele>21.333333333333332</ele><time>2026-04-04T12:34:05.406Z</time></trkpt><trkpt lat="44.95994" lon="10.6553433"><ele>21.0</ele><time>2026-04-04T12:34:06.406Z</time></trkpt><trkpt lat="44.9600133" lon="10.6553883"><ele>20.666666666666668</ele><time>2026-04-04T12:34:07.406Z</time></trkpt><trkpt lat="44.960095" lon="10.6554267"><ele>20.333333333333332</ele><time>2026-04-04T12:34:08.407Z</time></trkpt><trkpt lat="44.9601767" lon="10.6554683"><ele>20.0</ele><time>2026-04-04T12:34:09.407Z</time></trkpt><trkpt lat="44.9602517" lon="10.6555183"><ele>19.666666666666664</ele><time>2026-04-04T12:34:10.406Z</time></trkpt><trkpt lat="44.9603283" lon="10.65557"><ele>19.333333333333332</ele><time>2026-04-04T12:34:11.406Z</time></trkpt><trkpt lat="44.9604017" lon="10.6556267"><ele>19.0</ele><time>2026-04-04T12:34:12.404Z</time></trkpt><trkpt lat="44.960475" lon="10.6556883"><ele>19.0</ele><time>2026-04-04T12:34:13.405Z</time></trkpt><trkpt lat="44.96055" lon="10.65575"><ele>19.0</ele><time>2026-04-04T12:34:14.405Z</time></trkpt><trkpt lat="44.9606333" lon="10.6558017"><ele>19.0</ele><time>2026-04-04T12:34:15.404Z</time></trkpt><trkpt lat="44.96072" lon="10.6558567"><ele>19.0</ele><time>2026-04-04T12:34:16.404Z</time></trkpt><trkpt lat="44.96081" lon="10.6559117"><ele>19.0</ele><time>2026-04-04T12:34:17.404Z</time></trkpt><trkpt lat="44.9608983" lon="10.6559667"><ele>19.0</ele><time>2026-04-04T12:34:18.404Z</time></trkpt><trkpt lat="44.9609817" lon="10.6560233"><ele>19.0</ele><time>2026-04-04T12:34:19.404Z</time></trkpt><trkpt lat="44.961055" lon="10.6560783"><ele>19.0</ele><time>2026-04-04T12:34:20.403Z</time></trkpt><trkpt lat="44.961125" lon="10.6561333"><ele>19.0</ele><time>2026-04-04T12:34:21.405Z</time></trkpt><trkpt lat="44.9611817" lon="10.65618"><ele>19.0</ele><time>2026-04-04T12:34:22.404Z</time></trkpt><trkpt lat="44.9612833" lon="10.6562533"><ele>19.0</ele><time>2026-04-04T12:34:24.404Z</time></trkpt><trkpt lat="44.9613933" lon="10.65632"><ele>19.0</ele><time>2026-04-04T12:34:26.404Z</time></trkpt><trkpt lat="44.9615033" lon="10.6563933"><ele>19.0</ele><time>2026-04-04T12:34:28.405Z</time></trkpt><trkpt lat="44.9616183" lon="10.656475"><ele>19.0</ele><time>2026-04-04T12:34:30.407Z</time></trkpt><trkpt lat="44.96168" lon="10.6565183"><ele>19.0</ele><time>2026-04-04T12:34:31.407Z</time></trkpt><trkpt lat="44.9617483" lon="10.6565617"><ele>19.0</ele><time>2026-04-04T12:34:32.407Z</time></trkpt><trkpt lat="44.96182" lon="10.656605"><ele>19.5</ele><time>2026-04-04T12:34:33.407Z</time></trkpt><trkpt lat="44.9618967" lon="10.6566467"><ele>20.0</ele><time>2026-04-04T12:34:34.407Z</time></trkpt><trkpt lat="44.9619617" lon="10.65668"><ele>20.5</ele><time>2026-04-04T12:34:35.407Z</time></trkpt><trkpt lat="44.9620783" lon="10.6567183"><ele>21.0</ele><time>2026-04-04T12:34:37.407Z</time></trkpt><trkpt lat="44.9621417" lon="10.6567133"><ele>21.5</ele><time>2026-04-04T12:34:38.407Z</time></trkpt><trkpt lat="44.9622033" lon="10.6566883"><ele>22.0</ele><time>2026-04-04T12:34:39.407Z</time></trkpt><trkpt lat="44.9622617" lon="10.6566483"><ele>22.0</ele><time>2026-04-04T12:34:40.407Z</time></trkpt><trkpt lat="44.962325" lon="10.6566017"><ele>22.0</ele><time>2026-04-04T12:34:41.405Z</time></trkpt><trkpt lat="44.9623917" lon="10.6565483"><ele>22.0</ele><time>2026-04-04T12:34:42.405Z</time></trkpt><trkpt lat="44.96246" lon="10.6564983"><ele>22.0</ele><time>2026-04-04T12:34:43.404Z</time></trkpt><trkpt lat="44.9625267" lon="10.656445"><ele>22.0</ele><time>2026-04-04T12:34:44.404Z</time></trkpt><trkpt lat="44.9625967" lon="10.6563883"><ele>22.0</ele><time>2026-04-04T12:34:45.405Z</time></trkpt><trkpt lat="44.96267" lon="10.6563317"><ele>22.0</ele><time>2026-04-04T12:34:46.405Z</time></trkpt><trkpt lat="44.9627417" lon="10.6562717"><ele>22.0</ele><time>2026-04-04T12:34:47.404Z</time></trkpt><trkpt lat="44.962815" lon="10.6562067"><ele>22.0</ele><time>2026-04-04T12:34:48.405Z</time></trkpt><trkpt lat="44.9628933" lon="10.6561367"><ele>22.0</ele><time>2026-04-04T12:34:49.404Z</time></trkpt><trkpt lat="44.962975" lon="10.6560683"><ele>22.0</ele><time>2026-04-04T12:34:50.404Z</time></trkpt><trkpt lat="44.9630567" lon="10.6560067"><ele>21.833333333333332</ele><time>2026-04-04T12:34:51.404Z</time></trkpt><trkpt lat="44.9631417" lon="10.6559467"><ele>21.666666666666664</ele><time>2026-04-04T12:34:52.405Z</time></trkpt><trkpt lat="44.9632267" lon="10.6558883"><ele>21.5</ele><time>2026-04-04T12:34:53.405Z</time></trkpt><trkpt lat="44.9633067" lon="10.65583"><ele>21.333333333333332</ele><time>2026-04-04T12:34:54.405Z</time></trkpt><trkpt lat="44.9633817" lon="10.65578"><ele>21.166666666666668</ele><time>2026-04-04T12:34:55.404Z</time></trkpt><trkpt lat="44.96345" lon="10.6557417"><ele>21.0</ele><time>2026-04-04T12:34:56.405Z</time></trkpt><trkpt lat="44.9635183" lon="10.655725"><ele>21.0</ele><time>2026-04-04T12:34:57.405Z</time></trkpt><trkpt lat="44.96359" lon="10.655735"><ele>21.0</ele><time>2026-04-04T12:34:58.405Z</time></trkpt><trkpt lat="44.9636917" lon="10.655825"><ele>21.0</ele><time>2026-04-04T12:35:00.405Z</time></trkpt><trkpt lat="44.9637083" lon="10.655955"><ele>21.0</ele><time>2026-04-04T12:35:02.408Z</time></trkpt><trkpt lat="44.963655" lon="10.6561167"><ele>21.0</ele><time>2026-04-04T12:35:04.407Z</time></trkpt><trkpt lat="44.963625" lon="10.6562283"><ele>21.200000000000003</ele><time>2026-04-04T12:35:05.406Z</time></trkpt><trkpt lat="44.9635933" lon="10.6563617"><ele>21.400000000000002</ele><time>2026-04-04T12:35:06.407Z</time></trkpt><trkpt lat="44.9635583" lon="10.6564967"><ele>21.6</ele><time>2026-04-04T12:35:07.407Z</time></trkpt><trkpt lat="44.9635217" lon="10.656615"><ele>21.8</ele><time>2026-04-04T12:35:08.407Z</time></trkpt><trkpt lat="44.963485" lon="10.65673"><ele>22.0</ele><time>2026-04-04T12:35:09.407Z</time></trkpt><trkpt lat="44.9634483" lon="10.6568483"><ele>22.166666666666664</ele><time>2026-04-04T12:35:10.406Z</time></trkpt><trkpt lat="44.9634117" lon="10.6569667"><ele>22.333333333333332</ele><time>2026-04-04T12:35:11.406Z</time></trkpt><trkpt lat="44.963375" lon="10.657085"><ele>22.5</ele><time>2026-04-04T12:35:12.407Z</time></trkpt><trkpt lat="44.9633333" lon="10.6572033"><ele>22.666666666666668</ele><time>2026-04-04T12:35:13.407Z</time></trkpt><trkpt lat="44.963295" lon="10.6573133"><ele>22.833333333333336</ele><time>2026-04-04T12:35:14.404Z</time></trkpt><trkpt lat="44.9632667" lon="10.65741"><ele>23.0</ele><time>2026-04-04T12:35:15.405Z</time></trkpt><trkpt lat="44.96324" lon="10.6574967"><ele>23.0</ele><time>2026-04-04T12:35:16.404Z</time></trkpt><trkpt lat="44.9632233" lon="10.657585"><ele>23.0</ele><time>2026-04-04T12:35:17.403Z</time></trkpt><trkpt lat="44.9632317" lon="10.6577367"><ele>23.0</ele><time>2026-04-04T12:35:19.406Z</time></trkpt><trkpt lat="44.9632767" lon="10.657805"><ele>23.0</ele><time>2026-04-04T12:35:20.404Z</time></trkpt><trkpt lat="44.963345" lon="10.6578733"><ele>23.0</ele><time>2026-04-04T12:35:21.405Z</time></trkpt><trkpt lat="44.96341" lon="10.6579417"><ele>23.0</ele><time>2026-04-04T12:35:22.406Z</time></trkpt><trkpt lat="44.96347" lon="10.6580133"><ele>23.0</ele><time>2026-04-04T12:35:23.406Z</time></trkpt><trkpt lat="44.963535" lon="10.6580883"><ele>23.0</ele><time>2026-04-04T12:35:24.406Z</time></trkpt><trkpt lat="44.9636033" lon="10.6581633"><ele>23.0</ele><time>2026-04-04T12:35:25.405Z</time></trkpt><trkpt lat="44.9636633" lon="10.65823"><ele>23.0</ele><time>2026-04-04T12:35:26.405Z</time></trkpt><trkpt lat="44.9637217" lon="10.6582817"><ele>23.0</ele><time>2026-04-04T12:35:27.405Z</time></trkpt><trkpt lat="44.9637767" lon="10.658335"><ele>23.0</ele><time>2026-04-04T12:35:28.403Z</time></trkpt><trkpt lat="44.963835" lon="10.6584"><ele>23.0</ele><time>2026-04-04T12:35:29.406Z</time></trkpt><trkpt lat="44.9638933" lon="10.658475"><ele>23.0</ele><time>2026-04-04T12:35:30.406Z</time></trkpt><trkpt lat="44.96395" lon="10.6585533"><ele>23.0</ele><time>2026-04-04T12:35:31.404Z</time></trkpt><trkpt lat="44.964005" lon="10.6586333"><ele>23.0</ele><time>2026-04-04T12:35:32.405Z</time></trkpt><trkpt lat="44.9640517" lon="10.6587167"><ele>23.0</ele><time>2026-04-04T12:35:33.407Z</time></trkpt><trkpt lat="44.9640917" lon="10.6588"><ele>23.0</ele><time>2026-04-04T12:35:34.405Z</time></trkpt><trkpt lat="44.9641333" lon="10.6588883"><ele>23.166666666666668</ele><time>2026-04-04T12:35:35.406Z</time></trkpt><trkpt lat="44.96418" lon="10.658965"><ele>23.333333333333336</ele><time>2026-04-04T12:35:36.405Z</time></trkpt><trkpt lat="44.9642333" lon="10.6590367"><ele>23.5</ele><time>2026-04-04T12:35:37.405Z</time></trkpt><trkpt lat="44.96429" lon="10.65911"><ele>23.666666666666668</ele><time>2026-04-04T12:35:38.404Z</time></trkpt><trkpt lat="44.9643433" lon="10.6591917"><ele>23.833333333333332</ele><time>2026-04-04T12:35:39.405Z</time></trkpt><trkpt lat="44.964395" lon="10.65928"><ele>24.0</ele><time>2026-04-04T12:35:40.405Z</time></trkpt><trkpt lat="44.9644417" lon="10.6593783"><ele>23.666666666666668</ele><time>2026-04-04T12:35:41.404Z</time></trkpt><trkpt lat="44.964485" lon="10.6594883"><ele>23.333333333333332</ele><time>2026-04-04T12:35:42.403Z</time></trkpt><trkpt lat="44.964525" lon="10.6596067"><ele>23.0</ele><time>2026-04-04T12:35:43.406Z</time></trkpt><trkpt lat="44.9645617" lon="10.6597233"><ele>22.666666666666664</ele><time>2026-04-04T12:35:44.403Z</time></trkpt><trkpt lat="44.9645967" lon="10.6598333"><ele>22.333333333333332</ele><time>2026-04-04T12:35:45.404Z</time></trkpt><trkpt lat="44.9646333" lon="10.659935"><ele>22.0</ele><time>2026-04-04T12:35:46.403Z</time></trkpt><trkpt lat="44.9646767" lon="10.6600317"><ele>22.0</ele><time>2026-04-04T12:35:47.404Z</time></trkpt><trkpt lat="44.964715" lon="10.6601267"><ele>22.0</ele><time>2026-04-04T12:35:48.404Z</time></trkpt><trkpt lat="44.9647417" lon="10.6602167"><ele>22.0</ele><time>2026-04-04T12:35:49.404Z</time></trkpt><trkpt lat="44.9647633" lon="10.6603067"><ele>22.0</ele><time>2026-04-04T12:35:50.404Z</time></trkpt><trkpt lat="44.9647833" lon="10.6603983"><ele>22.0</ele><time>2026-04-04T12:35:51.406Z</time></trkpt><trkpt lat="44.9648067" lon="10.6604917"><ele>22.0</ele><time>2026-04-04T12:35:52.405Z</time></trkpt><trkpt lat="44.9648333" lon="10.6605917"><ele>22.0</ele><time>2026-04-04T12:35:53.405Z</time></trkpt><trkpt lat="44.9648683" lon="10.6607"><ele>21.833333333333332</ele><time>2026-04-04T12:35:54.405Z</time></trkpt><trkpt lat="44.964905" lon="10.66081"><ele>21.666666666666664</ele><time>2026-04-04T12:35:55.404Z</time></trkpt><trkpt lat="44.9649417" lon="10.6609217"><ele>21.5</ele><time>2026-04-04T12:35:56.404Z</time></trkpt><trkpt lat="44.9649767" lon="10.6610333"><ele>21.333333333333332</ele><time>2026-04-04T12:35:57.403Z</time></trkpt><trkpt lat="44.96501" lon="10.6611433"><ele>21.166666666666668</ele><time>2026-04-04T12:35:58.404Z</time></trkpt><trkpt lat="44.9650367" lon="10.6612467"><ele>21.0</ele><time>2026-04-04T12:35:59.403Z</time></trkpt><trkpt lat="44.9650617" lon="10.6613567"><ele>22.0</ele><time>2026-04-04T12:36:00.404Z</time></trkpt><trkpt lat="44.96509" lon="10.6614667"><ele>23.0</ele><time>2026-04-04T12:36:01.404Z</time></trkpt><trkpt lat="44.9651233" lon="10.6615783"><ele>24.0</ele><time>2026-04-04T12:36:02.405Z</time></trkpt><trkpt lat="44.9651583" lon="10.66169"><ele>25.0</ele><time>2026-04-04T12:36:03.405Z</time></trkpt><trkpt lat="44.9651933" lon="10.6617967"><ele>26.0</ele><time>2026-04-04T12:36:04.406Z</time></trkpt><trkpt lat="44.9652217" lon="10.6619017"><ele>27.0</ele><time>2026-04-04T12:36:05.404Z</time></trkpt><trkpt lat="44.9652433" lon="10.6620083"><ele>27.0</ele><time>2026-04-04T12:36:06.404Z</time></trkpt><trkpt lat="44.9652617" lon="10.66212"><ele>27.0</ele><time>2026-04-04T12:36:07.404Z</time></trkpt><trkpt lat="44.9652733" lon="10.662225"><ele>27.0</ele><time>2026-04-04T12:36:08.404Z</time></trkpt><trkpt lat="44.965275" lon="10.6623283"><ele>27.0</ele><time>2026-04-04T12:36:09.404Z</time></trkpt><trkpt lat="44.965275" lon="10.662435"><ele>27.0</ele><time>2026-04-04T12:36:10.403Z</time></trkpt><trkpt lat="44.9652767" lon="10.6625417"><ele>27.0</ele><time>2026-04-04T12:36:11.403Z</time></trkpt><trkpt lat="44.965285" lon="10.6626517"><ele>27.0</ele><time>2026-04-04T12:36:12.404Z</time></trkpt><trkpt lat="44.965295" lon="10.6627683"><ele>27.0</ele><time>2026-04-04T12:36:13.403Z</time></trkpt><trkpt lat="44.9653017" lon="10.66289"><ele>27.0</ele><time>2026-04-04T12:36:14.404Z</time></trkpt><trkpt lat="44.9653117" lon="10.663005"><ele>27.0</ele><time>2026-04-04T12:36:15.403Z</time></trkpt><trkpt lat="44.96532" lon="10.6631183"><ele>27.0</ele><time>2026-04-04T12:36:16.403Z</time></trkpt><trkpt lat="44.9653267" lon="10.6632267"><ele>27.0</ele><time>2026-04-04T12:36:17.404Z</time></trkpt><trkpt lat="44.96533" lon="10.66333"><ele>27.0</ele><time>2026-04-04T12:36:18.404Z</time></trkpt><trkpt lat="44.9653383" lon="10.6634283"><ele>27.0</ele><time>2026-04-04T12:36:19.404Z</time></trkpt><trkpt lat="44.9653517" lon="10.66353"><ele>27.0</ele><time>2026-04-04T12:36:20.404Z</time></trkpt><trkpt lat="44.9653733" lon="10.6636217"><ele>27.0</ele><time>2026-04-04T12:36:21.404Z</time></trkpt><trkpt lat="44.9654117" lon="10.66371"><ele>27.0</ele><time>2026-04-04T12:36:22.404Z</time></trkpt><trkpt lat="44.9654633" lon="10.6637933"><ele>27.0</ele><time>2026-04-04T12:36:23.406Z</time></trkpt><trkpt lat="44.9655217" lon="10.663875"><ele>27.0</ele><time>2026-04-04T12:36:24.404Z</time></trkpt><trkpt lat="44.9655767" lon="10.6639483"><ele>27.0</ele><time>2026-04-04T12:36:25.404Z</time></trkpt><trkpt lat="44.9656367" lon="10.6640267"><ele>27.0</ele><time>2026-04-04T12:36:26.404Z</time></trkpt><trkpt lat="44.9656983" lon="10.66411"><ele>27.0</ele><time>2026-04-04T12:36:27.404Z</time></trkpt><trkpt lat="44.9657533" lon="10.6641983"><ele>27.0</ele><time>2026-04-04T12:36:28.403Z</time></trkpt><trkpt lat="44.965805" lon="10.6642867"><ele>27.0</ele><time>2026-04-04T12:36:29.405Z</time></trkpt><trkpt lat="44.9658467" lon="10.66437"><ele>27.0</ele><time>2026-04-04T12:36:30.404Z</time></trkpt><trkpt lat="44.9658883" lon="10.6644567"><ele>27.333333333333332</ele><time>2026-04-04T12:36:31.404Z</time></trkpt><trkpt lat="44.965935" lon="10.6645367"><ele>27.666666666666664</ele><time>2026-04-04T12:36:32.404Z</time></trkpt><trkpt lat="44.9659867" lon="10.6646017"><ele>28.0</ele><time>2026-04-04T12:36:33.404Z</time></trkpt><trkpt lat="44.9660417" lon="10.664655"><ele>28.333333333333332</ele><time>2026-04-04T12:36:34.404Z</time></trkpt><trkpt lat="44.9660967" lon="10.6647017"><ele>28.666666666666664</ele><time>2026-04-04T12:36:35.402Z</time></trkpt><trkpt lat="44.9661667" lon="10.6648267"><ele>29.0</ele><time>2026-04-04T12:36:37.405Z</time></trkpt><trkpt lat="44.9661733" lon="10.6650117"><ele>28.999999999999996</ele><time>2026-04-04T12:36:39.406Z</time></trkpt><trkpt lat="44.9661617" lon="10.665115"><ele>29.0</ele><time>2026-04-04T12:36:40.404Z</time></trkpt><trkpt lat="44.9661533" lon="10.665215"><ele>29.0</ele><time>2026-04-04T12:36:41.404Z</time></trkpt><trkpt lat="44.9661783" lon="10.6653933"><ele>29.0</ele><time>2026-04-04T12:36:43.404Z</time></trkpt><trkpt lat="44.96619" lon="10.6654917"><ele>28.999999999999996</ele><time>2026-04-04T12:36:44.404Z</time></trkpt><trkpt lat="44.9662033" lon="10.6655917"><ele>29.0</ele><time>2026-04-04T12:36:45.404Z</time></trkpt><trkpt lat="44.9662233" lon="10.6656917"><ele>28.71428571428572</ele><time>2026-04-04T12:36:46.404Z</time></trkpt><trkpt lat="44.96625" lon="10.6657883"><ele>28.42857142857143</ele><time>2026-04-04T12:36:47.403Z</time></trkpt><trkpt lat="44.9662867" lon="10.6658767"><ele>28.142857142857146</ele><time>2026-04-04T12:36:48.405Z</time></trkpt><trkpt lat="44.9663283" lon="10.66595"><ele>27.85714285714286</ele><time>2026-04-04T12:36:49.403Z</time></trkpt><trkpt lat="44.9663833" lon="10.6660167"><ele>27.57142857142857</ele><time>2026-04-04T12:36:50.404Z</time></trkpt><trkpt lat="44.9664483" lon="10.6660783"><ele>27.285714285714285</ele><time>2026-04-04T12:36:51.406Z</time></trkpt><trkpt lat="44.9665217" lon="10.6661367"><ele>27.0</ele><time>2026-04-04T12:36:52.404Z</time></trkpt><trkpt lat="44.9665867" lon="10.66619"><ele>27.0</ele><time>2026-04-04T12:36:53.405Z</time></trkpt><trkpt lat="44.9666517" lon="10.6662383"><ele>27.0</ele><time>2026-04-04T12:36:54.404Z</time></trkpt><trkpt lat="44.966715" lon="10.6662717"><ele>27.0</ele><time>2026-04-04T12:36:55.404Z</time></trkpt><trkpt lat="44.9667783" lon="10.6663017"><ele>27.0</ele><time>2026-04-04T12:36:56.404Z</time></trkpt><trkpt lat="44.9668633" lon="10.66635"><ele>27.0</ele><time>2026-04-04T12:36:58.402Z</time></trkpt><trkpt lat="44.966915" lon="10.66643"><ele>27.0</ele><time>2026-04-04T12:37:00.403Z</time></trkpt><trkpt lat="44.96696" lon="10.6664933"><ele>27.0</ele><time>2026-04-04T12:37:02.404Z</time></trkpt><trkpt lat="44.96705" lon="10.6665533"><ele>27.6</ele><time>2026-04-04T12:37:05.403Z</time></trkpt><trkpt lat="44.9671283" lon="10.6666667"><ele>28.200000000000003</ele><time>2026-04-04T12:37:07.403Z</time></trkpt><trkpt lat="44.96724" lon="10.6667517"><ele>28.8</ele><time>2026-04-04T12:37:09.406Z</time></trkpt><trkpt lat="44.9673067" lon="10.6667667"><ele>29.4</ele><time>2026-04-04T12:37:10.404Z</time></trkpt><trkpt lat="44.96742" lon="10.6668183"><ele>30.0</ele><time>2026-04-04T12:37:12.404Z</time></trkpt><trkpt lat="44.9675367" lon="10.6668717"><ele>30.0</ele><time>2026-04-04T12:37:14.403Z</time></trkpt><trkpt lat="44.9676583" lon="10.6668967"><ele>30.0</ele><time>2026-04-04T12:37:16.402Z</time></trkpt><trkpt lat="44.96773" lon="10.6669"><ele>30.0</ele><time>2026-04-04T12:37:17.403Z</time></trkpt><trkpt lat="44.9678067" lon="10.6669033"><ele>30.0</ele><time>2026-04-04T12:37:18.403Z</time></trkpt><trkpt lat="44.9679283" lon="10.6669083"><ele>30.0</ele><time>2026-04-04T12:37:20.406Z</time></trkpt><trkpt lat="44.9680233" lon="10.6668983"><ele>30.0</ele><time>2026-04-04T12:37:22.406Z</time></trkpt><trkpt lat="44.9680933" lon="10.66689"><ele>30.0</ele><time>2026-04-04T12:37:24.406Z</time></trkpt><trkpt lat="44.9681567" lon="10.66688"><ele>30.0</ele><time>2026-04-04T12:37:26.403Z</time></trkpt><trkpt lat="44.9682217" lon="10.6668583"><ele>30.0</ele><time>2026-04-04T12:38:10.405Z</time></trkpt><trkpt lat="44.9683" lon="10.6668783"><ele>30.0</ele><time>2026-04-04T12:38:12.403Z</time></trkpt><trkpt lat="44.96837" lon="10.6669467"><ele>30.0</ele><time>2026-04-04T12:38:14.404Z</time></trkpt><trkpt lat="44.9684367" lon="10.667025"><ele>28.6</ele><time>2026-04-04T12:38:16.404Z</time></trkpt><trkpt lat="44.9685467" lon="10.667075"><ele>27.2</ele><time>2026-04-04T12:38:18.404Z</time></trkpt><trkpt lat="44.968655" lon="10.6671667"><ele>25.799999999999997</ele><time>2026-04-04T12:38:20.404Z</time></trkpt><trkpt lat="44.9687017" lon="10.66723"><ele>24.4</ele><time>2026-04-04T12:38:21.404Z</time></trkpt><trkpt lat="44.968775" lon="10.6673417"><ele>23.0</ele><time>2026-04-04T12:38:23.403Z</time></trkpt><trkpt lat="44.9688717" lon="10.6673783"><ele>23.0</ele><time>2026-04-04T12:38:25.403Z</time></trkpt><trkpt lat="44.9689967" lon="10.6673883"><ele>23.0</ele><time>2026-04-04T12:38:27.406Z</time></trkpt><trkpt lat="44.9690667" lon="10.6673917"><ele>23.0</ele><time>2026-04-04T12:38:28.403Z</time></trkpt><trkpt lat="44.9691533" lon="10.6674017"><ele>23.0</ele><time>2026-04-04T12:38:29.404Z</time></trkpt><trkpt lat="44.9692433" lon="10.6674183"><ele>23.0</ele><time>2026-04-04T12:38:30.404Z</time></trkpt><trkpt lat="44.969335" lon="10.6674383"><ele>23.333333333333336</ele><time>2026-04-04T12:38:31.403Z</time></trkpt><trkpt lat="44.9694233" lon="10.6674567"><ele>23.666666666666668</ele><time>2026-04-04T12:38:32.404Z</time></trkpt><trkpt lat="44.9694983" lon="10.667475"><ele>24.0</ele><time>2026-04-04T12:38:33.407Z</time></trkpt><trkpt lat="44.969565" lon="10.6674983"><ele>24.333333333333336</ele><time>2026-04-04T12:38:34.405Z</time></trkpt><trkpt lat="44.96963" lon="10.667525"><ele>24.666666666666668</ele><time>2026-04-04T12:38:35.404Z</time></trkpt><trkpt lat="44.9697017" lon="10.6675517"><ele>25.0</ele><time>2026-04-04T12:38:36.403Z</time></trkpt><trkpt lat="44.9697817" lon="10.6675717"><ele>25.000000000000004</ele><time>2026-04-04T12:38:37.403Z</time></trkpt><trkpt lat="44.9698583" lon="10.6675867"><ele>25.0</ele><time>2026-04-04T12:38:38.404Z</time></trkpt><trkpt lat="44.96994" lon="10.6676"><ele>25.0</ele><time>2026-04-04T12:38:39.404Z</time></trkpt><trkpt lat="44.97002" lon="10.6676067"><ele>25.0</ele><time>2026-04-04T12:38:40.404Z</time></trkpt><trkpt lat="44.9701067" lon="10.6676117"><ele>25.000000000000004</ele><time>2026-04-04T12:38:41.405Z</time></trkpt><trkpt lat="44.9701933" lon="10.6676183"><ele>25.0</ele><time>2026-04-04T12:38:42.404Z</time></trkpt><trkpt lat="44.97028" lon="10.6676133"><ele>24.4</ele><time>2026-04-04T12:38:43.404Z</time></trkpt><trkpt lat="44.9703667" lon="10.66761"><ele>23.8</ele><time>2026-04-04T12:38:44.404Z</time></trkpt><trkpt lat="44.9704583" lon="10.66761"><ele>23.200000000000003</ele><time>2026-04-04T12:38:45.404Z</time></trkpt><trkpt lat="44.9705567" lon="10.667615"><ele>22.6</ele><time>2026-04-04T12:38:46.403Z</time></trkpt><trkpt lat="44.9706583" lon="10.6676167"><ele>22.0</ele><time>2026-04-04T12:38:47.403Z</time></trkpt><trkpt lat="44.970765" lon="10.667615"><ele>22.0</ele><time>2026-04-04T12:38:48.404Z</time></trkpt><trkpt lat="44.9708517" lon="10.6676133"><ele>22.0</ele><time>2026-04-04T12:38:49.404Z</time></trkpt><trkpt lat="44.97093" lon="10.667615"><ele>22.0</ele><time>2026-04-04T12:38:50.404Z</time></trkpt><trkpt lat="44.9710333" lon="10.667615"><ele>22.0</ele><time>2026-04-04T12:38:52.404Z</time></trkpt><trkpt lat="44.9711167" lon="10.6676167"><ele>22.0</ele><time>2026-04-04T12:38:54.403Z</time></trkpt><trkpt lat="44.97121" lon="10.6676617"><ele>21.666666666666664</ele><time>2026-04-04T12:38:56.403Z</time></trkpt><trkpt lat="44.9713217" lon="10.66769"><ele>21.333333333333332</ele><time>2026-04-04T12:38:58.404Z</time></trkpt><trkpt lat="44.97139" lon="10.667695"><ele>21.0</ele><time>2026-04-04T12:38:59.404Z</time></trkpt><trkpt lat="44.97147" lon="10.6676933"><ele>20.666666666666668</ele><time>2026-04-04T12:39:00.405Z</time></trkpt><trkpt lat="44.97155" lon="10.66768"><ele>20.333333333333336</ele><time>2026-04-04T12:39:01.406Z</time></trkpt><trkpt lat="44.9716333" lon="10.6676617"><ele>20.0</ele><time>2026-04-04T12:39:02.406Z</time></trkpt><trkpt lat="44.9717233" lon="10.667655"><ele>20.0</ele><time>2026-04-04T12:39:03.406Z</time></trkpt><trkpt lat="44.9718033" lon="10.667655"><ele>20.0</ele><time>2026-04-04T12:39:04.406Z</time></trkpt><trkpt lat="44.971885" lon="10.667655"><ele>20.0</ele><time>2026-04-04T12:39:05.406Z</time></trkpt><trkpt lat="44.97197" lon="10.6676517"><ele>20.0</ele><time>2026-04-04T12:39:06.406Z</time></trkpt><trkpt lat="44.97206" lon="10.6676517"><ele>20.0</ele><time>2026-04-04T12:39:07.405Z</time></trkpt><trkpt lat="44.972145" lon="10.66766"><ele>20.0</ele><time>2026-04-04T12:39:08.406Z</time></trkpt><trkpt lat="44.9722317" lon="10.6676583"><ele>20.0</ele><time>2026-04-04T12:39:09.406Z</time></trkpt><trkpt lat="44.9723167" lon="10.6676483"><ele>20.0</ele><time>2026-04-04T12:39:10.407Z</time></trkpt><trkpt lat="44.9723983" lon="10.6676233"><ele>20.0</ele><time>2026-04-04T12:39:11.406Z</time></trkpt><trkpt lat="44.972475" lon="10.6676067"><ele>20.0</ele><time>2026-04-04T12:39:12.406Z</time></trkpt><trkpt lat="44.97255" lon="10.6675967"><ele>20.0</ele><time>2026-04-04T12:39:13.406Z</time></trkpt><trkpt lat="44.972625" lon="10.66759"><ele>20.0</ele><time>2026-04-04T12:39:14.407Z</time></trkpt><trkpt lat="44.9726917" lon="10.667585"><ele>20.0</ele><time>2026-04-04T12:39:15.406Z</time></trkpt><trkpt lat="44.9727717" lon="10.6675817"><ele>20.0</ele><time>2026-04-04T12:39:16.404Z</time></trkpt><trkpt lat="44.97285" lon="10.6675833"><ele>20.0</ele><time>2026-04-04T12:39:17.404Z</time></trkpt><trkpt lat="44.9729317" lon="10.6675917"><ele>20.0</ele><time>2026-04-04T12:39:18.404Z</time></trkpt><trkpt lat="44.9730117" lon="10.6676083"><ele>20.0</ele><time>2026-04-04T12:39:19.404Z</time></trkpt><trkpt lat="44.9730933" lon="10.6676167"><ele>20.0</ele><time>2026-04-04T12:39:20.406Z</time></trkpt><trkpt lat="44.973175" lon="10.6676183"><ele>20.0</ele><time>2026-04-04T12:39:21.407Z</time></trkpt><trkpt lat="44.9732617" lon="10.6676117"><ele>20.0</ele><time>2026-04-04T12:39:22.406Z</time></trkpt><trkpt lat="44.973345" lon="10.6676017"><ele>20.0</ele><time>2026-04-04T12:39:23.405Z</time></trkpt><trkpt lat="44.9734217" lon="10.6675983"><ele>20.0</ele><time>2026-04-04T12:39:24.406Z</time></trkpt><trkpt lat="44.973495" lon="10.6675967"><ele>20.0</ele><time>2026-04-04T12:39:25.407Z</time></trkpt><trkpt lat="44.973605" lon="10.667595"><ele>20.0</ele><time>2026-04-04T12:39:27.406Z</time></trkpt><trkpt lat="44.973715" lon="10.6675983"><ele>20.142857142857142</ele><time>2026-04-04T12:39:29.406Z</time></trkpt><trkpt lat="44.9737817" lon="10.6676133"><ele>20.285714285714285</ele><time>2026-04-04T12:39:30.405Z</time></trkpt><trkpt lat="44.9738467" lon="10.667635"><ele>20.42857142857143</ele><time>2026-04-04T12:39:31.406Z</time></trkpt><trkpt lat="44.9739167" lon="10.6676583"><ele>20.57142857142857</ele><time>2026-04-04T12:39:32.407Z</time></trkpt><trkpt lat="44.97399" lon="10.66768"><ele>20.714285714285715</ele><time>2026-04-04T12:39:33.407Z</time></trkpt><trkpt lat="44.9740667" lon="10.66769"><ele>20.857142857142858</ele><time>2026-04-04T12:39:34.406Z</time></trkpt><trkpt lat="44.9741317" lon="10.6676983"><ele>21.0</ele><time>2026-04-04T12:39:35.405Z</time></trkpt><trkpt lat="44.974235" lon="10.6677083"><ele>23.0</ele><time>2026-04-04T12:39:37.406Z</time></trkpt><trkpt lat="44.9743017" lon="10.667725"><ele>23.0</ele><time>2026-04-04T12:39:39.406Z</time></trkpt></trkseg></trk></gpx>